Provisional Data: Little Chiques Creek near Mount Joy, PA


Please select a monitoring station.
Please select start date.
Please select start date.

Toggle Unit: C/F Toggle Unit: C/F
Sample Time Temperature (C) Temperature (F) Specific Conductivity (mS/cm) pH   Turbidity (NTU+) DO (mg/L)
9/6/2021 12:00:00 AM 17.52 63.536 0.369 7.64 21.63 8.68
9/6/2021 12:15:00 AM 17.51 63.518 0.371 7.65 21.28 8.68
9/6/2021 12:30:00 AM 17.5 63.5 0.369 7.64 23.91 8.68
9/6/2021 12:45:00 AM 17.49 63.482 0.368 7.64 21.99 8.69
9/6/2021 1:00:00 AM 17.48 63.464 0.37 7.64 23.14 8.68
9/6/2021 1:15:00 AM 17.47 63.446 0.372 7.64 25.92 8.68
9/6/2021 1:30:00 AM 17.46 63.428 0.37 7.64 25.08 8.68
9/6/2021 1:45:00 AM 17.45 63.41 0.371 7.64 25.51 8.68
9/6/2021 2:00:00 AM 17.44 63.392 0.37 7.64 25.31 8.68
9/6/2021 2:15:00 AM 17.43 63.374 0.371 7.64 26.58 8.68
9/6/2021 2:30:00 AM 17.42 63.356 0.372 7.64 27.85 8.68
9/6/2021 2:45:00 AM 17.41 63.338 0.371 7.64 27.95 8.68
9/6/2021 3:00:00 AM 17.39 63.302 0.373 7.64 26.18 8.68
9/6/2021 3:15:00 AM 17.38 63.284 0.372 7.64 26.9 8.68
9/6/2021 3:30:00 AM 17.37 63.266 0.375 7.64 28.66 8.68
9/6/2021 3:45:00 AM 17.36 63.248 0.38 7.64 30.43 8.68
9/6/2021 4:00:00 AM 17.35 63.23 0.372 7.64 32.71 8.69
9/6/2021 4:15:00 AM 17.34 63.212 0.373 7.64 30 8.69
9/6/2021 4:30:00 AM 17.33 63.194 0.374 7.64 37.62 8.69
9/6/2021 4:45:00 AM 17.32 63.176 0.377 7.64 39.93 8.69
9/6/2021 5:00:00 AM 17.31 63.158 0.373 7.64 45.15 8.69
9/6/2021 5:15:00 AM 17.29 63.122 0.374 7.64 41.47 8.7
9/6/2021 5:30:00 AM 17.28 63.104 0.376 7.64 39.41 8.7
9/6/2021 5:45:00 AM 17.26 63.068 0.376 7.64 39.56 8.7
9/6/2021 6:00:00 AM 17.24 63.032 0.376 7.64 40.44 8.71
9/6/2021 6:15:00 AM 17.22 62.996 0.375 7.64 32.58 8.71
9/6/2021 6:30:00 AM 17.2 62.96 0.376 7.64 36.59 8.72
9/6/2021 6:45:00 AM 17.18 62.924 0.377 7.64 42.85 8.72
9/6/2021 7:00:00 AM 17.16 62.888 0.376 7.65 36.41 8.73
9/6/2021 7:15:00 AM 17.14 62.852 0.376 7.65 36.95 8.73
9/6/2021 7:30:00 AM 17.12 62.816 0.377 7.65 34.98 8.74
9/6/2021 7:45:00 AM 17.1 62.78 0.375 7.65 34.57 8.75
9/6/2021 8:00:00 AM 17.09 62.762 0.377 7.65 40.22 8.75
9/6/2021 8:15:00 AM 17.08 62.744 0.377 7.65 33.76 8.77
9/6/2021 8:30:00 AM 17.08 62.744 0.378 7.65 32.92 8.77
9/6/2021 8:45:00 AM 17.07 62.726 0.378 7.65 31.2 8.78
9/6/2021 9:00:00 AM 17.08 62.744 0.377 7.66 31.28 8.79
9/6/2021 9:15:00 AM 17.09 62.762 0.378 7.66 31.69 8.8
9/6/2021 9:30:00 AM 17.1 62.78 0.378 7.67 34.38 8.81
9/6/2021 9:45:00 AM 17.12 62.816 0.38 7.67 39.11 8.82
9/6/2021 10:00:00 AM 17.14 62.852 0.379 7.67 32.19 8.83
9/6/2021 10:15:00 AM 17.17 62.906 0.379 7.67 36.47 8.83
9/6/2021 10:30:00 AM 17.21 62.978 0.377 7.68 38.24 8.84
9/6/2021 10:45:00 AM 17.26 63.068 0.379 7.68 43.2 8.84
9/6/2021 11:00:00 AM 17.32 63.176 0.378 7.68 44.27 8.84
9/6/2021 11:15:00 AM 17.38 63.284 0.379 7.68 41.62 8.85
9/6/2021 11:30:00 AM 17.45 63.41 0.379 7.69 32.64 8.86
9/6/2021 11:45:00 AM 17.53 63.554 0.378 7.69 53.19 8.86
9/6/2021 12:00:00 PM 17.62 63.716 0.38 7.69 45.03 8.87
9/6/2021 12:15:00 PM 17.72 63.896 0.379 7.69 44.41 8.86
9/6/2021 12:30:00 PM 17.82 64.076 0.379 7.7 36.71 8.86
9/6/2021 12:45:00 PM 17.92 64.256 0.38 7.7 40.75 8.86
9/6/2021 1:00:00 PM 18.02 64.436 0.379 7.7 38.45 8.86
9/6/2021 1:15:00 PM 18.11 64.598 0.38 7.7 40.28 8.85
9/6/2021 1:30:00 PM 18.2 64.76 0.38 7.71 41.02 8.86
9/6/2021 1:45:00 PM 18.28 64.904 0.38 7.71 34.76 8.85
9/6/2021 2:00:00 PM 18.35 65.03 0.38 7.71 34.26 8.84
9/6/2021 2:15:00 PM 18.41 65.138 0.38 7.71 37.15 8.83
9/6/2021 2:30:00 PM 18.46 65.228 0.381 7.71 34.54 8.83
9/6/2021 2:45:00 PM 18.5 65.3 0.381 7.71 36.78 8.81
9/6/2021 3:00:00 PM 18.51 65.318 0.381 7.71 36.6 8.8
9/6/2021 3:15:00 PM 18.54 65.372 0.381 7.71 33.45 8.8
9/6/2021 3:30:00 PM 18.56 65.408 0.381 7.71 43.63 8.79
9/6/2021 3:45:00 PM 18.62 65.516 0.382 7.72 41.78 8.78
9/6/2021 4:00:00 PM 18.68 65.624 0.382 7.72 43.63 8.77
9/6/2021 4:15:00 PM 18.71 65.67799 0.382 7.72 40.24 8.76
9/6/2021 4:30:00 PM 18.74 65.732 0.383 7.72 41.17 8.75
9/6/2021 4:45:00 PM 18.77 65.786 0.382 7.72 42.68 8.73
9/6/2021 5:00:00 PM 18.78 65.804 0.383 7.72 41.79 8.72
9/6/2021 5:15:00 PM 18.79 65.82201 0.383 7.72 37.93 8.7
9/6/2021 5:30:00 PM 18.81 65.858 0.384 7.72 44.41 8.69
9/6/2021 5:45:00 PM 18.82 65.876 0.384 7.72 47.34 8.67
9/6/2021 6:00:00 PM 18.83 65.894 0.384 7.71 42.52 8.65
9/6/2021 6:15:00 PM 18.84 65.912 0.384 7.72 44.41 8.63
9/6/2021 6:30:00 PM 18.84 65.912 0.385 7.71 44.89 8.62
9/6/2021 6:45:00 PM 18.84 65.912 0.385 7.71 42.1 8.61
9/6/2021 7:00:00 PM 18.83 65.894 0.385 7.71 43.3 8.59
9/6/2021 7:15:00 PM 18.82 65.876 0.385 7.71 45.83 8.58
9/6/2021 7:30:00 PM 18.79 65.82201 0.386 7.71 43.27 8.57
9/6/2021 7:45:00 PM 18.77 65.786 0.385 7.71 45.93 8.56
9/6/2021 8:00:00 PM 18.74 65.732 0.386 7.7 44.72 8.55
9/6/2021 8:15:00 PM 18.71 65.67799 0.386 7.7 45.89 8.54
9/6/2021 8:30:00 PM 18.67 65.606 0.386 7.7 45.18 8.53
9/6/2021 8:45:00 PM 18.64 65.552 0.386 7.7 45.95 8.53
9/6/2021 9:00:00 PM 18.61 65.498 0.386 7.7 45.37 8.53
9/6/2021 9:15:00 PM 18.57 65.426 0.386 7.7 46.68 8.52
9/6/2021 9:30:00 PM 18.53 65.354 0.387 7.7 46.16 8.52
9/6/2021 9:45:00 PM 18.5 65.3 0.388 7.7 44.32 8.52
9/6/2021 10:00:00 PM 18.47 65.246 0.387 7.7 47.97 8.52
9/6/2021 10:15:00 PM 18.43 65.174 0.387 7.7 49.2 8.52
9/6/2021 10:30:00 PM 18.4 65.12 0.388 7.69 47.77 8.52
9/6/2021 10:45:00 PM 18.37 65.066 0.389 7.69 47.8 8.52
9/6/2021 11:00:00 PM 18.35 65.03 0.388 7.69 55.16 8.52
9/6/2021 11:15:00 PM 18.32 64.976 0.389 7.69 51.53 8.52
9/6/2021 11:30:00 PM 18.29 64.922 0.389 7.69 49.83 8.52
9/6/2021 11:45:00 PM 18.27 64.886 0.389 7.69 50.42 8.52
9/7/2021 12:00:00 AM 18.24 64.832 0.388 7.69 52.84 8.52
9/7/2021 12:15:00 AM 18.21 64.778 0.389 7.69 47.67 8.53
9/7/2021 12:30:00 AM 18.18 64.724 0.389 7.69 49.83 8.53
9/7/2021 12:45:00 AM 18.14 64.652 0.389 7.69 49.78 8.53
9/7/2021 1:00:00 AM 18.11 64.598 0.389 7.69 48.25 8.53
9/7/2021 1:15:00 AM 18.07 64.526 0.389 7.69 50.67 8.54
9/7/2021 1:30:00 AM 18.03 64.454 0.389 7.69 49.12 8.54
9/7/2021 1:45:00 AM 17.98 64.364 0.39 7.69 50.83 8.55
9/7/2021 2:00:00 AM 17.94 64.292 0.39 7.69 51.99 8.56
9/7/2021 2:15:00 AM 17.89 64.202 0.39 7.69 53.94 8.57
9/7/2021 2:30:00 AM 17.84 64.112 0.39 7.69 51.74 8.58
9/7/2021 2:45:00 AM 17.79 64.022 0.39 7.69 57.32 8.59
9/7/2021 3:00:00 AM 17.74 63.932 0.389 7.69 50.88 8.6
9/7/2021 3:15:00 AM 17.69 63.842 0.39 7.69 52.95 8.61
9/7/2021 3:30:00 AM 17.63 63.734 0.391 7.69 52.98 8.62
9/7/2021 3:45:00 AM 17.58 63.644 0.39 7.68 55.05 8.63
9/7/2021 4:00:00 AM 17.52 63.536 0.391 7.69 52.28 8.64
9/7/2021 4:15:00 AM 17.47 63.446 0.391 7.68 51.24 8.65
9/7/2021 4:30:00 AM 17.41 63.338 0.391 7.68 55.73 8.66
9/7/2021 4:45:00 AM 17.35 63.23 0.391 7.68 55 8.67
9/7/2021 5:00:00 AM 17.3 63.14 0.391 7.68 60.45 8.68
9/7/2021 5:15:00 AM 17.24 63.032 0.391 7.68 53.41 8.69
9/7/2021 5:30:00 AM 17.18 62.924 0.391 7.68 60.41 8.7
9/7/2021 5:45:00 AM 17.12 62.816 0.391 7.68 48.77 8.72
9/7/2021 6:00:00 AM 17.07 62.726 0.391 7.68 52.41 8.73
9/7/2021 6:15:00 AM 17.01 62.618 0.391 7.68 52.79 8.75
9/7/2021 6:30:00 AM 16.95 62.51 0.391 7.68 57.25 8.76
9/7/2021 6:45:00 AM 16.9 62.42 0.392 7.68 54.42 8.77
9/7/2021 7:00:00 AM 16.84 62.312 0.391 7.68 51.78 8.79
9/7/2021 7:15:00 AM 16.79 62.222 0.392 7.68 55 8.8
9/7/2021 7:30:00 AM 16.74 62.132 0.392 7.68 56.32 8.81
9/7/2021 7:45:00 AM 16.7 62.06 0.392 7.68 65.2 8.83
9/7/2021 8:00:00 AM 16.66 61.988 0.392 7.68 55.29 8.84
9/7/2021 8:15:00 AM 16.63 61.934 0.391 7.68 52.8 8.86
9/7/2021 8:30:00 AM 16.6 61.88 0.393 7.68 53.94 8.87
9/7/2021 8:45:00 AM 16.59 61.862 0.393 7.69 54.39 8.89
9/7/2021 9:00:00 AM 16.58 61.844 0.393 7.69 57.81 8.9
9/7/2021 9:15:00 AM 16.57 61.826 0.392 7.69 46.94 8.92
9/7/2021 9:30:00 AM 16.56 61.808 0.393 7.69 49.68 8.93
9/7/2021 9:45:00 AM 16.55 61.79 0.393 7.69 53.24 8.96
9/7/2021 10:00:00 AM 16.56 61.808 0.393 7.69 52.81 8.97
9/7/2021 10:15:00 AM 16.57 61.826 0.392 7.69 49.87 8.99
9/7/2021 10:30:00 AM 16.59 61.862 0.392 7.7 48.16 9
9/7/2021 10:45:00 AM 16.63 61.934 0.393 7.7 46.12 9.02
9/7/2021 11:00:00 AM 16.67 62.006 0.392 7.7 49.27 9.02
9/7/2021 11:15:00 AM 16.73 62.114 0.392 7.71 50.59 9.03
9/7/2021 11:30:00 AM 16.8 62.24 0.393 7.71 49.1 9.04
9/7/2021 11:45:00 AM 16.88 62.384 0.392 7.71 46.68 9.06
9/7/2021 12:00:00 PM 16.96 62.528 0.393 7.71 46.96 9.06
9/7/2021 12:15:00 PM 17.06 62.708 0.392 7.71 48.91 9.06
9/7/2021 12:30:00 PM 17.16 62.888 0.393 7.71 50.26 9.06
9/7/2021 12:45:00 PM 17.26 63.068 0.393 7.72 49.34 9.06
9/7/2021 1:00:00 PM 17.36 63.248 0.392 7.72 49.57 9.07
9/7/2021 1:15:00 PM 17.45 63.41 0.392 7.72 48.19 9.07
9/7/2021 1:30:00 PM 17.54 63.572 0.392 7.72 52.41 9.07
9/7/2021 1:45:00 PM 17.62 63.716 0.392 7.72 48.71 9.07
9/7/2021 2:00:00 PM 17.69 63.842 0.392 7.73 47.9 9.07
9/7/2021 2:15:00 PM 17.76 63.968 0.392 7.73 45.72 9.06
9/7/2021 2:30:00 PM 17.8 64.04 0.392 7.73 47.94 9.06
9/7/2021 2:45:00 PM 17.77 63.986 0.393 7.73 48.61 9.05
9/7/2021 3:00:00 PM 17.75 63.95 0.393 7.73 46.23 9.05
9/7/2021 3:15:00 PM 17.78 64.004 0.392 7.73 46.96 9.04
9/7/2021 3:30:00 PM 17.81 64.058 0.393 7.73 47.78 9.04
9/7/2021 3:45:00 PM 17.85 64.13 0.392 7.73 47.77 9.03
9/7/2021 4:00:00 PM 17.91 64.238 0.393 7.73 49.76 9.01
9/7/2021 4:15:00 PM 17.95 64.31 0.393 7.73 47.16 9
9/7/2021 4:30:00 PM 17.97 64.346 0.393 7.73 51.35 8.98
9/7/2021 4:45:00 PM 17.99 64.382 0.392 7.73 47.47 8.97
9/7/2021 5:00:00 PM 18 64.4 0.393 7.73 48.35 8.95
9/7/2021 5:15:00 PM 18.01 64.418 0.393 7.73 49.06 8.93
9/7/2021 5:30:00 PM 18.01 64.418 0.394 7.73 47.88 8.91
9/7/2021 5:45:00 PM 18.02 64.436 0.394 7.73 49.19 8.9
9/7/2021 6:00:00 PM 18.03 64.454 0.393 7.73 48.69 8.89
9/7/2021 6:15:00 PM 18.05 64.49 0.394 7.73 49.61 8.87
9/7/2021 6:30:00 PM 18.07 64.526 0.394 7.72 48.93 8.85
9/7/2021 6:45:00 PM 18.08 64.544 0.394 7.72 46.55 8.83
9/7/2021 7:00:00 PM 18.09 64.562 0.394 7.72 46.95 8.82
9/7/2021 7:15:00 PM 18.09 64.562 0.395 7.72 50.11 8.79
9/7/2021 7:30:00 PM 18.1 64.58 0.395 7.71 48.24 8.78
9/7/2021 7:45:00 PM 18.1 64.58 0.395 7.71 47.67 8.76
9/7/2021 8:00:00 PM 18.11 64.598 0.395 7.71 48.36 8.74
9/7/2021 8:15:00 PM 18.12 64.616 0.395 7.71 51.31 8.73
9/7/2021 8:30:00 PM 18.12 64.616 0.395 7.71 49.65 8.71
9/7/2021 8:45:00 PM 18.13 64.634 0.395 7.71 46.37 8.7
9/7/2021 9:00:00 PM 18.12 64.616 0.396 7.71 45.13 8.69
9/7/2021 9:15:00 PM 18.12 64.616 0.395 7.71 46.94 8.68
9/7/2021 9:30:00 PM 18.12 64.616 0.396 7.7 43.18 8.67
9/7/2021 9:45:00 PM 18.11 64.598 0.396 7.7 42.66 8.66
9/7/2021 10:00:00 PM 18.1 64.58 0.396 7.7 46.56 8.66
9/7/2021 10:15:00 PM 18.09 64.562 0.396 7.7 47.49 8.65
9/7/2021 10:30:00 PM 18.08 64.544 0.396 7.7 45.29 8.64
9/7/2021 10:45:00 PM 18.08 64.544 0.396 7.7 47.39 8.63
9/7/2021 11:00:00 PM 18.06 64.508 0.396 7.7 48.49 8.63
9/7/2021 11:15:00 PM 18.05 64.49 0.397 7.7 52.39 8.62
9/7/2021 11:30:00 PM 18.04 64.472 0.397 7.7 41.74 8.62
9/7/2021 11:45:00 PM 18.03 64.454 0.397 7.7 47.05 8.61
9/8/2021 12:00:00 AM 18.02 64.436 0.397 7.7 46.67 8.61
9/8/2021 12:15:00 AM 18.02 64.436 0.397 7.7 48.39 8.6
9/8/2021 12:30:00 AM 18.01 64.418 0.397 7.7 50.02 8.6
9/8/2021 12:45:00 AM 18 64.4 0.397 7.7 49.63 8.6
9/8/2021 1:00:00 AM 17.99 64.382 0.397 7.7 48.49 8.6
9/8/2021 1:15:00 AM 17.98 64.364 0.397 7.7 48.44 8.6
9/8/2021 1:30:00 AM 17.97 64.346 0.398 7.7 46.8 8.6
9/8/2021 1:45:00 AM 17.95 64.31 0.397 7.7 45.36 8.59
9/8/2021 2:00:00 AM 17.93 64.274 0.397 7.7 44.09 8.6
9/8/2021 2:15:00 AM 17.9 64.22 0.398 7.7 45.37 8.6
9/8/2021 2:30:00 AM 17.88 64.184 0.397 7.7 44.21 8.6
9/8/2021 2:45:00 AM 17.85 64.13 0.398 7.7 42.72 8.61
9/8/2021 3:00:00 AM 17.82 64.076 0.398 7.7 43.75 8.6
9/8/2021 3:15:00 AM 17.8 64.04 0.397 7.7 44.36 8.61
9/8/2021 3:30:00 AM 17.77 63.986 0.398 7.7 47.32 8.61
9/8/2021 3:45:00 AM 17.74 63.932 0.397 7.7 44.94 8.61
9/8/2021 4:00:00 AM 17.71 63.878 0.397 7.7 45.68 8.62
9/8/2021 4:15:00 AM 17.68 63.824 0.398 7.7 42.43 8.62
9/8/2021 4:30:00 AM 17.65 63.77 0.398 7.7 46.03 8.63
9/8/2021 4:45:00 AM 17.63 63.734 0.398 7.7 44.96 8.63
9/8/2021 5:00:00 AM 17.61 63.698 0.398 7.7 45.12 8.64
9/8/2021 5:15:00 AM 17.59 63.662 0.398 7.7 41.61 8.64
9/8/2021 5:30:00 AM 17.57 63.626 0.398 7.7 55.21 8.64
9/8/2021 5:45:00 AM 17.55 63.59 0.398 7.7 44.71 8.64
9/8/2021 6:00:00 AM 17.54 63.572 0.397 7.7 44.69 8.65
9/8/2021 6:15:00 AM 17.52 63.536 0.398 7.7 41.55 8.65
9/8/2021 6:30:00 AM 17.5 63.5 0.398 7.7 42.95 8.65
9/8/2021 6:45:00 AM 17.47 63.446 0.398 7.7 51.42 8.66
9/8/2021 7:00:00 AM 17.45 63.41 0.398 7.7 39.36 8.66
9/8/2021 7:15:00 AM 17.43 63.374 0.398 7.7 43.69 8.67
9/8/2021 7:30:00 AM 17.41 63.338 0.398 7.7 43.4 8.68
9/8/2021 7:45:00 AM 17.4 63.32 0.398 7.7 44.84 8.68
9/8/2021 8:00:00 AM 17.4 63.32 0.398 7.7 52.64 8.7
9/8/2021 8:15:00 AM 17.39 63.302 0.398 7.7 55.93 8.71
9/8/2021 8:30:00 AM 17.39 63.302 0.398 7.7 49.09 8.72
9/8/2021 8:45:00 AM 17.38 63.284 0.398 7.71 47.8 8.73
9/8/2021 9:00:00 AM 17.39 63.302 0.398 7.71 46.55 8.73
9/8/2021 9:15:00 AM 17.4 63.32 0.398 7.71 46.82 8.74
9/8/2021 9:30:00 AM 17.41 63.338 0.397 7.71 46.86 8.76
9/8/2021 9:45:00 AM 17.44 63.392 0.398 7.71 45.59 8.77
9/8/2021 10:00:00 AM 17.47 63.446 0.398 7.72 45.86 8.79
9/8/2021 10:15:00 AM 17.51 63.518 0.398 7.72 45.39 8.8
9/8/2021 10:30:00 AM 17.54 63.572 0.398 7.72 47.7 8.81
9/8/2021 10:45:00 AM 17.59 63.662 0.397 7.72 43.05 8.83
9/8/2021 11:00:00 AM 17.64 63.752 0.398 7.72 44.96 8.84
9/8/2021 11:15:00 AM 17.72 63.896 0.397 7.72 40.85 8.85
9/8/2021 11:30:00 AM 17.79 64.022 0.397 7.73 41.33 8.86
9/8/2021 11:45:00 AM 17.88 64.184 0.398 7.73 57.69 8.86
9/8/2021 12:00:00 PM 17.97 64.346 0.398 7.73 41.24 8.87
9/8/2021 12:15:00 PM 18.07 64.526 0.398 7.73 35.74 8.87
9/8/2021 12:30:00 PM 18.2 64.76 0.398 7.74 36.98 8.89
9/8/2021 12:45:00 PM 18.29 64.922 0.398 7.74 33.86 8.89
9/8/2021 1:00:00 PM 18.37 65.066 0.398 7.74 31.86 8.9
9/8/2021 1:15:00 PM 18.43 65.174 0.398 7.74 32.76 8.91
9/8/2021 1:30:00 PM 18.53 65.354 0.398 7.75 33.4 8.91
9/8/2021 1:45:00 PM 18.58 65.444 0.398 7.75 30.48 8.91
9/8/2021 2:00:00 PM 18.65 65.57 0.398 7.75 29.86 8.91
9/8/2021 2:15:00 PM 18.7 65.66 0.398 7.75 29.39 8.9
9/8/2021 2:30:00 PM 18.76 65.768 0.398 7.75 29.17 8.89
9/8/2021 2:45:00 PM 18.8 65.84 0.398 7.75 30.63 8.89
9/8/2021 3:00:00 PM 18.8 65.84 0.398 7.75 31.41 8.86
9/8/2021 3:15:00 PM 18.86 65.948 0.398 7.75 27.49 8.87
9/8/2021 3:30:00 PM 18.82 65.876 0.399 7.75 30.76 8.85
9/8/2021 3:45:00 PM 18.81 65.858 0.398 7.75 28.46 8.84
9/8/2021 4:00:00 PM 18.8 65.84 0.398 7.76 29.09 8.82
9/8/2021 4:15:00 PM 18.83 65.894 0.398 7.75 25.01 8.82
9/8/2021 4:30:00 PM 18.85 65.93 0.399 7.75 24.42 8.8
9/8/2021 4:45:00 PM 18.89 66.002 0.398 7.76 25.68 8.8
9/8/2021 5:00:00 PM 18.93 66.074 0.399 7.76 24.33 8.79
9/8/2021 5:15:00 PM 18.94 66.092 0.399 7.75 24.49 8.77
9/8/2021 5:30:00 PM 18.92 66.056 0.399 7.75 24.56 8.75
9/8/2021 5:45:00 PM 18.9 66.02 0.399 7.75 24.38 8.73
9/8/2021 6:00:00 PM 18.87 65.966 0.399 7.75 23.6 8.72
9/8/2021 6:15:00 PM 18.85 65.93 0.399 7.75 24.37 8.7
9/8/2021 6:30:00 PM 18.84 65.912 0.399 7.74 23.78 8.68
9/8/2021 6:45:00 PM 18.83 65.894 0.399 7.74 21.77 8.66
9/8/2021 7:00:00 PM 18.83 65.894 0.4 7.74 23 8.64
9/8/2021 7:15:00 PM 18.84 65.912 0.399 7.74 26.29 8.63
9/8/2021 7:30:00 PM 18.84 65.912 0.4 7.74 21.46 8.61
9/8/2021 7:45:00 PM 18.84 65.912 0.4 7.73 22.33 8.59
9/8/2021 8:00:00 PM 18.84 65.912 0.4 7.73 22.25 8.57
9/8/2021 8:15:00 PM 18.85 65.93 0.399 7.73 21.09 8.55
9/8/2021 8:30:00 PM 18.84 65.912 0.4 7.73 20.3 8.54
9/8/2021 8:45:00 PM 18.84 65.912 0.4 7.73 20.3 8.53
9/8/2021 9:00:00 PM 18.84 65.912 0.4 7.73 20.09 8.52
9/8/2021 9:15:00 PM 18.83 65.894 0.401 7.73 19.93 8.5
9/8/2021 9:30:00 PM 18.83 65.894 0.401 7.73 20.44 8.5
9/8/2021 9:45:00 PM 18.83 65.894 0.401 7.73 19.26 8.49
9/8/2021 10:00:00 PM 18.84 65.912 0.401 7.73 20.91 8.47
9/8/2021 10:15:00 PM 18.85 65.93 0.382 7.76 48.35 8.57
9/8/2021 10:30:00 PM 18.84 65.912 0.369 7.78 55.92 8.64
9/8/2021 10:45:00 PM 18.8 65.84 0.36 7.79 66.46 8.68
9/8/2021 11:00:00 PM 18.9 66.02 0.355 7.77 83.48 8.55
9/8/2021 11:15:00 PM 18.94 66.092 0.332 7.71 95.38 8.39
9/8/2021 11:30:00 PM 19.12 66.416 0.313 7.67 114.23 8.28
9/8/2021 11:45:00 PM 19.21 66.578 0.312 7.66 112.03 8.22
9/9/2021 12:00:00 AM 19.27 66.686 0.315 7.67 129.55 8.27
9/9/2021 12:15:00 AM 19.4 66.92 0.294 7.65 171.36 8.28
9/9/2021 12:30:00 AM 19.44 66.992 0.27 7.62 179.92 8.2
9/9/2021 12:45:00 AM 19.44 66.992 0.271 7.6 208.38 8.13
9/9/2021 1:00:00 AM 19.41 66.938 0.276 7.61 195.68 8.09
9/9/2021 1:15:00 AM 19.4 66.92 0.275 7.6 188.21 8.07
9/9/2021 1:30:00 AM 19.43 66.974 0.271 7.58 188.08 8.03
9/9/2021 1:45:00 AM 19.47 67.046 0.257 7.57 246.05 7.96
9/9/2021 2:00:00 AM 19.52 67.136 0.247 7.57 252.38 7.9
9/9/2021 2:15:00 AM 19.58 67.244 0.249 7.54 181.07 7.87
9/9/2021 2:30:00 AM 19.66 67.388 0.255 7.57 180.29 7.87
9/9/2021 2:45:00 AM 19.71 67.478 0.26 7.58 171.83 7.85
9/9/2021 3:00:00 AM 19.72 67.496 0.258 7.56 197.39 7.81
9/9/2021 3:15:00 AM 19.71 67.478 0.251 7.55 206.62 7.73
9/9/2021 3:30:00 AM 19.68 67.424 0.245 7.54 193.09 7.69
9/9/2021 3:45:00 AM 19.65 67.37 0.242 7.53 199.95 7.68
9/9/2021 4:00:00 AM 19.6 67.28 0.242 7.54 210.07 7.7
9/9/2021 4:15:00 AM 19.56 67.208 0.243 7.53 194.41 7.72
9/9/2021 4:30:00 AM 19.52 67.136 0.245 7.55 192.54 7.73
9/9/2021 4:45:00 AM 19.48 67.064 0.248 7.54 158.49 7.73
9/9/2021 5:00:00 AM 19.43 66.974 0.249 7.52 149.43 7.72
9/9/2021 5:15:00 AM 19.39 66.902 0.25 7.5 145.7 7.71
9/9/2021 5:30:00 AM 19.36 66.848 0.25 7.51 127 7.7
9/9/2021 5:45:00 AM 19.33 66.794 0.251 7.52 115.25 7.7
9/9/2021 6:00:00 AM 19.3 66.74 0.252 7.5 122.83 7.71
9/9/2021 6:15:00 AM 19.27 66.686 0.254 7.5 105.22 7.73
9/9/2021 6:30:00 AM 19.23 66.614 0.255 7.51 98.81 7.75
9/9/2021 6:45:00 AM 19.2 66.56 0.255 7.51 104.95 7.77
9/9/2021 7:00:00 AM 19.17 66.506 0.256 7.51 101.97 7.81
9/9/2021 7:15:00 AM 19.14 66.452 0.258 7.51 101.34 7.83
9/9/2021 7:30:00 AM 19.11 66.398 0.259 7.5 87.23 7.84
9/9/2021 7:45:00 AM 19.1 66.38 0.261 7.5 85.38 7.86
9/9/2021 8:00:00 AM 19.08 66.344 0.262 7.5 84.35 7.87
9/9/2021 8:15:00 AM 19.08 66.344 0.263 7.51 75.61 7.88
9/9/2021 8:30:00 AM 19.08 66.344 0.263 7.5 74.02 7.9
9/9/2021 8:45:00 AM -99999.99 -179968 -99999.99 -99999.99 -99999.99 -99999.99
9/9/2021 9:00:00 AM -99999.99 -179968 -99999.99 -99999.99 -99999.99 -99999.99
9/9/2021 9:15:00 AM -99999.99 -179968 -99999.99 -99999.99 -99999.99 -99999.99
9/9/2021 9:30:00 AM -99999.99 -179968 -99999.99 -99999.99 -99999.99 -99999.99
9/9/2021 9:45:00 AM 19.05 66.29 0.264 7.49 72.67 8.01
9/9/2021 10:00:00 AM 19.03 66.254 0.265 7.5 73.18 8.01
9/9/2021 10:15:00 AM 19.02 66.236 0.266 7.51 73.81 8.01
9/9/2021 10:30:00 AM 19 66.2 0.267 7.51 74.45 8.02
9/9/2021 10:45:00 AM 18.99 66.182 0.268 7.52 65.62 8.02
9/9/2021 11:00:00 AM 18.98 66.164 0.269 7.52 67.88 8.02
9/9/2021 11:15:00 AM 18.97 66.146 0.271 7.52 74.44 8.04
9/9/2021 11:30:00 AM 18.96 66.128 0.272 7.52 65.24 8.05
9/9/2021 11:45:00 AM 18.94 66.092 0.274 7.52 59.19 8.06
9/9/2021 12:00:00 PM 18.93 66.074 0.276 7.52 54.46 8.08
9/9/2021 12:15:00 PM 18.92 66.056 0.277 7.53 57.13 8.09
9/9/2021 12:30:00 PM 18.92 66.056 0.279 7.53 56.1 8.1
9/9/2021 12:45:00 PM 18.91 66.038 0.281 7.53 53.86 8.13
9/9/2021 1:00:00 PM 18.91 66.038 0.283 7.53 51.05 8.14
9/9/2021 1:15:00 PM 18.91 66.038 0.285 7.54 51.2 8.15
9/9/2021 1:30:00 PM 18.92 66.056 0.287 7.54 50.32 8.16
9/9/2021 1:45:00 PM 18.91 66.038 0.289 7.55 51.18 8.17
9/9/2021 2:00:00 PM 18.9 66.02 0.291 7.55 49.86 8.18
9/9/2021 2:15:00 PM 18.89 66.002 0.293 7.55 41.39 8.19
9/9/2021 2:30:00 PM 18.89 66.002 0.295 7.55 44.52 8.19
9/9/2021 2:45:00 PM 18.89 66.002 0.297 7.55 45.91 8.2
9/9/2021 3:00:00 PM 18.88 65.984 0.299 7.55 49.53 8.21
9/9/2021 3:15:00 PM 18.89 66.002 0.3 7.56 37.83 8.22
9/9/2021 3:30:00 PM 18.9 66.02 0.302 7.56 37.16 8.22
9/9/2021 3:45:00 PM 18.92 66.056 0.304 7.56 41.63 8.23
9/9/2021 4:00:00 PM 18.92 66.056 0.305 7.56 44.8 8.24
9/9/2021 4:15:00 PM 18.92 66.056 0.307 7.57 36.9 8.24
9/9/2021 4:30:00 PM 18.92 66.056 0.308 7.57 34.51 8.24
9/9/2021 4:45:00 PM 18.92 66.056 0.309 7.57 35.37 8.25
9/9/2021 5:00:00 PM 18.94 66.092 0.311 7.58 33.27 8.26
9/9/2021 5:15:00 PM 18.95 66.11 0.312 7.58 33.36 8.27
9/9/2021 5:30:00 PM 18.94 66.092 0.314 7.58 31.44 8.27
9/9/2021 5:45:00 PM 18.91 66.038 0.315 7.58 32.51 8.27
9/9/2021 6:00:00 PM 18.87 65.966 0.316 7.58 32.29 8.27
9/9/2021 6:15:00 PM 18.85 65.93 0.318 7.59 28.96 8.28
9/9/2021 6:30:00 PM 18.83 65.894 0.319 7.59 32.06 8.28
9/9/2021 6:45:00 PM 18.81 65.858 0.32 7.59 30.83 8.28
9/9/2021 7:00:00 PM 18.79 65.82201 0.321 7.59 30.22 8.28
9/9/2021 7:15:00 PM 18.76 65.768 0.323 7.59 28.96 8.29
9/9/2021 7:30:00 PM 18.73 65.714 0.324 7.59 30.52 8.28
9/9/2021 7:45:00 PM 18.7 65.66 0.325 7.59 28.36 8.29
9/9/2021 8:00:00 PM 18.67 65.606 0.326 7.6 28.93 8.3
9/9/2021 8:15:00 PM 18.64 65.552 0.327 7.6 29.1 8.3
9/9/2021 8:30:00 PM 18.61 65.498 0.328 7.6 30.21 8.31
9/9/2021 8:45:00 PM 18.57 65.426 0.329 7.6 28.73 8.31
9/9/2021 9:00:00 PM 18.53 65.354 0.33 7.6 27.64 8.33
9/9/2021 9:15:00 PM 18.49 65.282 0.331 7.6 23.84 8.34
9/9/2021 9:30:00 PM 18.45 65.21 0.332 7.6 26.79 8.35
9/9/2021 9:45:00 PM 18.41 65.138 0.333 7.6 27.98 8.36
9/9/2021 10:00:00 PM 18.36 65.048 0.334 7.6 26.65 8.37
9/9/2021 10:15:00 PM 18.32 64.976 0.335 7.6 26.95 8.39
9/9/2021 10:30:00 PM 18.28 64.904 0.336 7.61 27.06 8.39
9/9/2021 10:45:00 PM 18.23 64.814 0.337 7.61 24.9 8.41
9/9/2021 11:00:00 PM 18.19 64.742 0.337 7.61 25.6 8.42
9/9/2021 11:15:00 PM 18.14 64.652 0.338 7.61 25.13 8.43
9/9/2021 11:30:00 PM 18.09 64.562 0.339 7.61 24.18 8.43
9/9/2021 11:45:00 PM 18.04 64.472 0.34 7.61 23.68 8.45
9/10/2021 12:00:00 AM 17.98 64.364 0.34 7.61 23.67 8.46
9/10/2021 12:15:00 AM 17.94 64.292 0.341 7.62 22.4 8.47
9/10/2021 12:30:00 AM 17.88 64.184 0.341 7.62 22.04 8.48
9/10/2021 12:45:00 AM 17.84 64.112 0.342 7.62 23.34 8.5
9/10/2021 1:00:00 AM 17.78 64.004 0.343 7.62 22.51 8.51
9/10/2021 1:15:00 AM 17.73 63.914 0.343 7.62 18.22 8.52
9/10/2021 1:30:00 AM 17.68 63.824 0.344 7.62 22.64 8.53
9/10/2021 1:45:00 AM 17.63 63.734 0.345 7.62 21.44 8.54
9/10/2021 2:00:00 AM 17.58 63.644 0.345 7.62 21.22 8.55
9/10/2021 2:15:00 AM 17.52 63.536 0.344 7.62 23.47 8.56
9/10/2021 2:30:00 AM 17.47 63.446 0.344 7.62 21.99 8.57
9/10/2021 2:45:00 AM 17.41 63.338 0.347 7.62 22.12 8.58
9/10/2021 3:00:00 AM 17.36 63.248 0.347 7.62 19.59 8.6
9/10/2021 3:15:00 AM 17.31 63.158 0.373 7.63 21.92 8.61
9/10/2021 3:30:00 AM 17.25 63.05 0.373 7.62 21.42 8.62
9/10/2021 3:45:00 AM 17.2 62.96 0.355 7.63 21.61 8.64
9/10/2021 4:00:00 AM 17.15 62.87 0.36 7.63 20.11 8.65
9/10/2021 4:15:00 AM 17.1 62.78 0.356 7.63 19.79 8.66
9/10/2021 4:30:00 AM 17.05 62.69 0.355 7.63 20.43 8.68
9/10/2021 4:45:00 AM 17 62.6 0.356 7.63 21.56 8.68
9/10/2021 5:00:00 AM 16.95 62.51 0.356 7.64 18.56 8.69
9/10/2021 5:15:00 AM 16.9 62.42 0.357 7.64 21.93 8.7
9/10/2021 5:30:00 AM 16.85 62.33 0.358 7.64 21.5 8.71
9/10/2021 5:45:00 AM 16.8 62.24 0.359 7.64 20.65 8.71
9/10/2021 6:00:00 AM 16.76 62.168 0.36 7.65 19.73 8.72
9/10/2021 6:15:00 AM 16.71 62.078 0.36 7.64 19.74 8.73
9/10/2021 6:30:00 AM 16.67 62.006 0.361 7.65 20.54 8.74
9/10/2021 6:45:00 AM 16.63 61.934 0.361 7.65 19.41 8.76
9/10/2021 7:00:00 AM 16.59 61.862 0.361 7.65 19.1 8.77
9/10/2021 7:15:00 AM 16.54 61.772 0.362 7.65 18.93 8.79
9/10/2021 7:30:00 AM 16.51 61.718 0.362 7.65 18.99 8.8
9/10/2021 7:45:00 AM 16.48 61.664 0.363 7.65 17.83 8.81
9/10/2021 8:00:00 AM 16.46 61.628 0.363 7.66 18.1 8.82
9/10/2021 8:15:00 AM 16.43 61.574 0.363 7.65 18.17 8.84
9/10/2021 8:30:00 AM 16.41 61.538 0.364 7.66 17.4 8.85
9/10/2021 8:45:00 AM 16.39 61.502 0.365 7.66 17.97 8.86
9/10/2021 9:00:00 AM 16.38 61.484 0.365 7.66 17.19 8.88
9/10/2021 9:15:00 AM 16.37 61.466 0.365 7.66 17.88 8.9
9/10/2021 9:30:00 AM 16.36 61.448 0.365 7.66 16.35 8.92
9/10/2021 9:45:00 AM 16.36 61.448 0.365 7.67 16.25 8.93
9/10/2021 10:00:00 AM 16.37 61.466 0.366 7.67 17.02 8.94
9/10/2021 10:15:00 AM 16.39 61.502 0.366 7.67 17.2 8.95
9/10/2021 10:30:00 AM 16.41 61.538 0.366 7.67 15.47 8.97
9/10/2021 10:45:00 AM 16.44 61.592 0.366 7.67 15.02 8.98
9/10/2021 11:00:00 AM 16.47 61.646 0.365 7.67 14.21 8.99
9/10/2021 11:15:00 AM 16.51 61.718 0.365 7.67 13.9 9
9/10/2021 11:30:00 AM 16.54 61.772 0.365 7.68 14.46 9.01
9/10/2021 11:45:00 AM 16.6 61.88 0.365 7.68 14.73 9.02
9/10/2021 12:00:00 PM 16.65 61.97 0.365 7.68 13.52 9.03
9/10/2021 12:15:00 PM 16.71 62.078 0.365 7.68 14.72 9.04
9/10/2021 12:30:00 PM 16.76 62.168 0.365 7.68 13.72 9.05
9/10/2021 12:45:00 PM 16.82 62.276 0.366 7.68 13.18 9.05
9/10/2021 1:00:00 PM 16.9 62.42 0.366 7.69 12.15 9.06
9/10/2021 1:15:00 PM 16.9 62.42 0.366 7.69 14.69 9.06
9/10/2021 1:30:00 PM 16.92 62.456 0.366 7.69 11.99 9.06
9/10/2021 1:45:00 PM 17 62.6 0.367 7.69 11.67 9.06
9/10/2021 2:00:00 PM 17.09 62.762 0.367 7.7 11.67 9.06
9/10/2021 2:15:00 PM 17.16 62.888 0.367 7.7 11.73 9.06
9/10/2021 2:30:00 PM 17.22 62.996 0.367 7.69 11.71 9.06
9/10/2021 2:45:00 PM 17.29 63.122 0.368 7.7 12.44 9.05
9/10/2021 3:00:00 PM 17.35 63.23 0.368 7.7 11.88 9.05
9/10/2021 3:15:00 PM 17.4 63.32 0.368 7.7 11.68 9.04
9/10/2021 3:30:00 PM 17.45 63.41 0.369 7.71 11.75 9.04
9/10/2021 3:45:00 PM 17.5 63.5 0.369 7.7 11.68 9.03
9/10/2021 4:00:00 PM 17.54 63.572 0.369 7.7 11.23 9.02
9/10/2021 4:15:00 PM 17.57 63.626 0.369 7.7 11.47 9.02
9/10/2021 4:30:00 PM 17.59 63.662 0.37 7.7 10.7 9
9/10/2021 4:45:00 PM 17.61 63.698 0.37 7.7 11.23 8.99
9/10/2021 5:00:00 PM 17.63 63.734 0.37 7.7 10.83 8.98
9/10/2021 5:15:00 PM 17.64 63.752 0.37 7.7 11.31 8.97
9/10/2021 5:30:00 PM 17.65 63.77 0.371 7.71 11.37 8.95
9/10/2021 5:45:00 PM 17.65 63.77 0.371 7.71 12.64 8.94
9/10/2021 6:00:00 PM 17.66 63.788 0.371 7.69 10.83 8.92
9/10/2021 6:15:00 PM 17.66 63.788 0.372 7.7 10.73 8.91
9/10/2021 6:30:00 PM 17.65 63.77 0.372 7.7 10.87 8.9
9/10/2021 6:45:00 PM 17.64 63.752 0.372 7.7 12.31 8.89
9/10/2021 7:00:00 PM 17.63 63.734 0.373 7.7 10.8 8.88
9/10/2021 7:15:00 PM 17.61 63.698 0.373 7.7 11.18 8.87
9/10/2021 7:30:00 PM 17.58 63.644 0.373 7.7 11.36 8.86
9/10/2021 7:45:00 PM 17.56 63.608 0.373 7.7 11.47 8.84
9/10/2021 8:00:00 PM 17.53 63.554 0.374 7.69 11.25 8.84
9/10/2021 8:15:00 PM 17.5 63.5 0.374 7.69 11.38 8.83
9/10/2021 8:30:00 PM 17.47 63.446 0.374 7.69 12.3 8.82
9/10/2021 8:45:00 PM 17.44 63.392 0.375 7.69 12.45 8.81
9/10/2021 9:00:00 PM 17.42 63.356 0.374 7.69 11.28 8.81
9/10/2021 9:15:00 PM 17.39 63.302 0.375 7.69 12.15 8.81
9/10/2021 9:30:00 PM 17.36 63.248 0.375 7.69 11.82 8.8
9/10/2021 9:45:00 PM 17.33 63.194 0.375 7.69 11.9 8.8
9/10/2021 10:00:00 PM 17.3 63.14 0.376 7.68 11.99 8.8
9/10/2021 10:15:00 PM 17.27 63.086 0.376 7.69 12.42 8.8
9/10/2021 10:30:00 PM 17.25 63.05 0.376 7.69 12.21 8.8
9/10/2021 10:45:00 PM 17.22 62.996 0.376 7.69 12.36 8.8
9/10/2021 11:00:00 PM 17.19 62.942 0.376 7.69 12.44 8.8
9/10/2021 11:15:00 PM 17.16 62.888 0.376 7.68 12.41 8.81
9/10/2021 11:30:00 PM 17.13 62.834 0.377 7.69 12.65 8.81
9/10/2021 11:45:00 PM 17.09 62.762 0.377 7.68 12.86 8.81
9/11/2021 12:00:00 AM 17.05 62.69 0.377 7.68 12.43 8.82
9/11/2021 12:15:00 AM 17.01 62.618 0.377 7.68 12.8 8.83
9/11/2021 12:30:00 AM 16.96 62.528 0.377 7.68 12.42 8.83
9/11/2021 12:45:00 AM 16.91 62.438 0.377 7.68 12.28 8.84
9/11/2021 1:00:00 AM 16.87 62.366 0.378 7.68 12.77 8.85
9/11/2021 1:15:00 AM 16.82 62.276 0.378 7.68 13.96 8.85
9/11/2021 1:30:00 AM 16.77 62.186 0.378 7.68 14.36 8.86
9/11/2021 1:45:00 AM 16.72 62.096 0.378 7.68 13.18 8.86
9/11/2021 2:00:00 AM 16.67 62.006 0.379 7.68 14.67 8.87
9/11/2021 2:15:00 AM 16.62 61.916 0.379 7.68 13.3 8.88
9/11/2021 2:30:00 AM 16.57 61.826 0.379 7.68 13.3 8.89
9/11/2021 2:45:00 AM 16.53 61.754 0.379 7.68 13.69 8.9
9/11/2021 3:00:00 AM 16.48 61.664 0.379 7.68 14.16 8.91
9/11/2021 3:15:00 AM 16.43 61.574 0.379 7.67 16.6 8.92
9/11/2021 3:30:00 AM 16.39 61.502 0.379 7.68 18.9 8.93
9/11/2021 3:45:00 AM 16.34 61.412 0.38 7.68 16.82 8.94
9/11/2021 4:00:00 AM 16.29 61.322 0.379 7.68 17.43 8.95
9/11/2021 4:15:00 AM 16.24 61.232 0.38 7.67 17.8 8.96
9/11/2021 4:30:00 AM 16.19 61.142 0.38 7.68 17.11 8.97
9/11/2021 4:45:00 AM 16.14 61.052 0.38 7.68 17.75 8.98
9/11/2021 5:00:00 AM 16.09 60.962 0.38 7.68 16.75 8.99
9/11/2021 5:15:00 AM 16.04 60.872 0.38 7.68 16.76 9
9/11/2021 5:30:00 AM 15.99 60.782 0.38 7.68 17.89 9.01
9/11/2021 5:45:00 AM 15.94 60.692 0.38 7.67 18.52 9.02
9/11/2021 6:00:00 AM 15.88 60.584 0.38 7.68 16.9 9.03
9/11/2021 6:15:00 AM 15.83 60.494 0.381 7.68 18.33 9.04
9/11/2021 6:30:00 AM 15.78 60.404 0.381 7.68 17.7 9.05
9/11/2021 6:45:00 AM 15.72 60.296 0.381 7.68 18.19 9.07
9/11/2021 7:00:00 AM 15.67 60.206 0.381 7.68 17.37 9.08
9/11/2021 7:15:00 AM 15.62 60.116 0.381 7.68 16.49 9.09
9/11/2021 7:30:00 AM 15.58 60.044 0.381 7.68 16.86 9.1
9/11/2021 7:45:00 AM 15.54 59.972 0.381 7.68 15.46 9.12
9/11/2021 8:00:00 AM 15.51 59.918 0.382 7.68 15.53 9.13
9/11/2021 8:15:00 AM 15.48 59.864 0.382 7.68 15.08 9.14
9/11/2021 8:30:00 AM 15.46 59.828 0.382 7.68 15.56 9.16
9/11/2021 8:45:00 AM 15.45 59.81 0.382 7.69 14.31 9.17
9/11/2021 9:00:00 AM 15.44 59.792 0.382 7.68 13.77 9.19
9/11/2021 9:15:00 AM 15.43 59.774 0.382 7.68 13.54 9.21
9/11/2021 9:30:00 AM 15.44 59.792 0.382 7.69 12.89 9.23
9/11/2021 9:45:00 AM 15.44 59.792 0.383 7.69 12.45 9.25
9/11/2021 10:00:00 AM 15.46 59.828 0.382 7.69 11.79 9.27
9/11/2021 10:15:00 AM 15.49 59.882 0.383 7.7 12.47 9.28
9/11/2021 10:30:00 AM 15.52 59.936 0.382 7.7 13.12 9.3
9/11/2021 10:45:00 AM 15.57 60.026 0.383 7.7 11.96 9.31
9/11/2021 11:00:00 AM 15.61 60.098 0.382 7.71 12.45 9.33
9/11/2021 11:15:00 AM 15.66 60.188 0.383 7.71 12.3 9.34
9/11/2021 11:30:00 AM 15.72 60.296 0.383 7.71 12.75 9.36
9/11/2021 11:45:00 AM 15.79 60.422 0.383 7.71 12.28 9.36
9/11/2021 12:00:00 PM 15.86 60.548 0.383 7.71 12.72 9.38
9/11/2021 12:15:00 PM 15.93 60.674 0.383 7.71 12.35 9.38
9/11/2021 12:30:00 PM 15.97 60.746 0.383 7.72 12.62 9.39
9/11/2021 12:45:00 PM 16.01 60.818 0.383 7.72 12.75 9.39
9/11/2021 1:00:00 PM 16.06 60.908 0.383 7.72 12.71 9.4
9/11/2021 1:15:00 PM 16.13 61.034 0.383 7.72 11.53 9.4
9/11/2021 1:30:00 PM 16.23 61.214 0.383 7.73 11.92 9.4
9/11/2021 1:45:00 PM 16.34 61.412 0.383 7.73 11.59 9.4
9/11/2021 2:00:00 PM 16.42 61.556 0.383 7.73 12.72 9.39
9/11/2021 2:15:00 PM 16.47 61.646 0.384 7.73 11.52 9.39
9/11/2021 2:30:00 PM 16.49 61.682 0.384 7.73 12.2 9.39
9/11/2021 2:45:00 PM 16.52 61.736 0.384 7.73 11.85 9.38
9/11/2021 3:00:00 PM 16.58 61.844 0.384 7.73 11.88 9.37
9/11/2021 3:15:00 PM 16.62 61.916 0.384 7.73 12.04 9.36
9/11/2021 3:30:00 PM 16.66 61.988 0.384 7.73 12.29 9.34
9/11/2021 3:45:00 PM 16.7 62.06 0.384 7.74 12.12 9.32
9/11/2021 4:00:00 PM 16.74 62.132 0.384 7.74 11.98 9.31
9/11/2021 4:15:00 PM 16.79 62.222 0.384 7.74 12.09 9.29
9/11/2021 4:30:00 PM 16.83 62.294 0.384 7.74 12.09 9.27
9/11/2021 4:45:00 PM 16.87 62.366 0.385 7.74 12.47 9.26
9/11/2021 5:00:00 PM 16.91 62.438 0.385 7.74 12.08 9.24
9/11/2021 5:15:00 PM 16.94 62.492 0.385 7.74 12.17 9.22
9/11/2021 5:30:00 PM 16.96 62.528 0.385 7.74 11.72 9.2
9/11/2021 5:45:00 PM 16.99 62.582 0.385 7.73 12.12 9.18
9/11/2021 6:00:00 PM 17.01 62.618 0.385 7.73 12 9.16
9/11/2021 6:15:00 PM 17.03 62.654 0.385 7.73 12.09 9.13
9/11/2021 6:30:00 PM 17.05 62.69 0.385 7.73 12.09 9.11
9/11/2021 6:45:00 PM 17.06 62.708 0.386 7.73 12.32 9.09
9/11/2021 7:00:00 PM 17.07 62.726 0.386 7.73 11.98 9.07
9/11/2021 7:15:00 PM 17.07 62.726 0.386 7.72 12.04 9.05
9/11/2021 7:30:00 PM 17.07 62.726 0.386 7.73 14.63 9.03
9/11/2021 7:45:00 PM 17.06 62.708 0.386 7.72 14.08 9.01
9/11/2021 8:00:00 PM 17.06 62.708 0.386 7.72 12.59 9
9/11/2021 8:15:00 PM 17.05 62.69 0.387 7.72 13.06 8.98
9/11/2021 8:30:00 PM 17.04 62.672 0.387 7.72 14.03 8.98
9/11/2021 8:45:00 PM 17.03 62.654 0.387 7.71 13.32 8.96
9/11/2021 9:00:00 PM 17.01 62.618 0.387 7.72 13.95 8.96
9/11/2021 9:15:00 PM 16.99 62.582 0.387 7.71 14.03 8.95
9/11/2021 9:30:00 PM 16.97 62.546 0.388 7.71 14.27 8.94
9/11/2021 9:45:00 PM 16.95 62.51 0.388 7.71 14.99 8.94
9/11/2021 10:00:00 PM 16.94 62.492 0.388 7.71 14.62 8.93
9/11/2021 10:15:00 PM 16.92 62.456 0.388 7.71 13.96 8.92
9/11/2021 10:30:00 PM 16.9 62.42 0.388 7.71 14.47 8.91
9/11/2021 10:45:00 PM 16.89 62.402 0.388 7.71 15.29 8.91
9/11/2021 11:00:00 PM 16.87 62.366 0.388 7.71 13.78 8.91
9/11/2021 11:15:00 PM 16.86 62.348 0.388 7.71 14.63 8.9
9/11/2021 11:30:00 PM 16.84 62.312 0.388 7.71 16.94 8.9
9/11/2021 11:45:00 PM 16.83 62.294 0.389 7.71 14.63 8.89
9/12/2021 12:00:00 AM 16.82 62.276 0.388 7.7 16.9 8.9
9/12/2021 12:15:00 AM 16.8 62.24 0.389 7.7 15.17 8.89
9/12/2021 12:30:00 AM 16.79 62.222 0.389 7.7 14.61 8.89
9/12/2021 12:45:00 AM 16.77 62.186 0.389 7.7 15.18 8.89
9/12/2021 1:00:00 AM 16.74 62.132 0.389 7.7 16.14 8.89
9/12/2021 1:15:00 AM 16.72 62.096 0.389 7.7 15.37 8.89
9/12/2021 1:30:00 AM 16.69 62.042 0.389 7.7 16.14 8.89
9/12/2021 1:45:00 AM 16.66 61.988 0.389 7.7 15.98 8.89
9/12/2021 2:00:00 AM 16.63 61.934 0.389 7.7 14.93 8.9
9/12/2021 2:15:00 AM 16.6 61.88 0.389 7.7 17.3 8.91
9/12/2021 2:30:00 AM 16.57 61.826 0.389 7.7 16.08 8.91
9/12/2021 2:45:00 AM 16.54 61.772 0.389 7.7 15.9 8.91
9/12/2021 3:00:00 AM 16.51 61.718 0.39 7.69 14.76 8.92
9/12/2021 3:15:00 AM 16.47 61.646 0.389 7.69 14.35 8.93
9/12/2021 3:30:00 AM 16.44 61.592 0.39 7.7 15.41 8.94
9/12/2021 3:45:00 AM 16.41 61.538 0.39 7.7 13.88 8.94
9/12/2021 4:00:00 AM 16.38 61.484 0.39 7.69 13.36 8.95
9/12/2021 4:15:00 AM 16.35 61.43 0.39 7.7 15.13 8.95
9/12/2021 4:30:00 AM 16.31 61.358 0.39 7.7 13.9 8.95
9/12/2021 4:45:00 AM 16.28 61.304 0.39 7.69 14.13 8.96
9/12/2021 5:00:00 AM 16.25 61.25 0.39 7.7 14.19 8.96
9/12/2021 5:15:00 AM 16.22 61.196 0.39 7.7 14.56 8.97
9/12/2021 5:30:00 AM 16.19 61.142 0.39 7.69 13.92 8.97
9/12/2021 5:45:00 AM 16.16 61.088 0.39 7.69 13.83 8.98
9/12/2021 6:00:00 AM 16.13 61.034 0.39 7.7 13.48 8.98
9/12/2021 6:15:00 AM 16.1 60.98 0.39 7.69 13.91 8.99
9/12/2021 6:30:00 AM 16.07 60.926 0.39 7.7 14.44 9
9/12/2021 6:45:00 AM 16.04 60.872 0.39 7.69 13.83 9
9/12/2021 7:00:00 AM 16.01 60.818 0.39 7.69 14.47 9.01
9/12/2021 7:15:00 AM 15.98 60.764 0.39 7.7 14.21 9.02
9/12/2021 7:30:00 AM 15.96 60.728 0.39 7.69 14.48 9.03
9/12/2021 7:45:00 AM 15.94 60.692 0.39 7.7 14.15 9.04
9/12/2021 8:00:00 AM 15.92 60.656 0.39 7.7 14.16 9.05
9/12/2021 8:15:00 AM 15.9 60.62 0.39 7.7 15.17 9.07
9/12/2021 8:30:00 AM 15.9 60.62 0.39 7.7 15.12 9.08
9/12/2021 8:45:00 AM 15.89 60.602 0.391 7.7 15.06 9.1
9/12/2021 9:00:00 AM 15.9 60.62 0.391 7.7 14.11 9.12
9/12/2021 9:15:00 AM 15.92 60.656 0.391 7.7 14.04 9.14
9/12/2021 9:30:00 AM 15.93 60.674 0.391 7.7 14.68 9.16
9/12/2021 9:45:00 AM 15.93 60.674 0.391 7.7 14.25 9.18
9/12/2021 10:00:00 AM 15.93 60.674 0.391 7.7 14.93 9.2
9/12/2021 10:15:00 AM 15.95 60.71 0.391 7.71 13.7 9.21
9/12/2021 10:30:00 AM 15.97 60.746 0.391 7.71 14.07 9.22
9/12/2021 10:45:00 AM 16.02 60.836 0.391 7.72 14.75 9.25
9/12/2021 11:00:00 AM 16.09 60.962 0.391 7.72 13.55 9.26
9/12/2021 11:15:00 AM 16.15 61.07 0.391 7.72 13.77 9.28
9/12/2021 11:30:00 AM 16.22 61.196 0.391 7.73 13.37 9.29
9/12/2021 11:45:00 AM 16.31 61.358 0.391 7.73 13.09 9.31
9/12/2021 12:00:00 PM 16.4 61.52 0.391 7.73 13.17 9.32
9/12/2021 12:15:00 PM 16.51 61.718 0.391 7.74 12.96 9.33
9/12/2021 12:30:00 PM 16.61 61.898 0.391 7.74 12.72 9.34
9/12/2021 12:45:00 PM 16.65 61.97 0.391 7.74 13.14 9.34
9/12/2021 1:00:00 PM 16.66 61.988 0.391 7.75 18.72 9.34
9/12/2021 1:15:00 PM 16.7 62.06 0.391 7.75 12.83 9.35
9/12/2021 1:30:00 PM 16.78 62.204 0.391 7.75 12.79 9.34
9/12/2021 1:45:00 PM 16.9 62.42 0.391 7.75 12.74 9.34
9/12/2021 2:00:00 PM 16.99 62.582 0.391 7.75 12.45 9.35
9/12/2021 2:15:00 PM 17.11 62.798 0.392 7.75 13.01 9.34
9/12/2021 2:30:00 PM 17.19 62.942 0.391 7.76 12.85 9.34
9/12/2021 2:45:00 PM 17.25 63.05 0.391 7.76 12.78 9.33
9/12/2021 3:00:00 PM 17.29 63.122 0.391 7.76 12.99 9.32
9/12/2021 3:15:00 PM 17.33 63.194 0.392 7.76 13.16 9.31
9/12/2021 3:30:00 PM 17.34 63.212 0.392 7.76 12.64 9.29
9/12/2021 3:45:00 PM 17.38 63.284 0.392 7.76 14.59 9.28
9/12/2021 4:00:00 PM 17.4 63.32 0.392 7.76 15.72 9.26
9/12/2021 4:15:00 PM 17.43 63.374 0.392 7.76 13.31 9.24
9/12/2021 4:30:00 PM 17.49 63.482 0.392 7.76 13.79 9.23
9/12/2021 4:45:00 PM 17.54 63.572 0.392 7.76 13 9.21
9/12/2021 5:00:00 PM 17.59 63.662 0.392 7.76 13.58 9.18
9/12/2021 5:15:00 PM 17.62 63.716 0.392 7.76 13.77 9.16
9/12/2021 5:30:00 PM 17.65 63.77 0.392 7.76 13.18 9.13
9/12/2021 5:45:00 PM 17.67 63.806 0.392 7.76 14.76 9.11
9/12/2021 6:00:00 PM 17.7 63.86 0.392 7.76 13.3 9.08
9/12/2021 6:15:00 PM 17.72 63.896 0.392 7.75 13.27 9.05
9/12/2021 6:30:00 PM 17.74 63.932 0.393 7.75 13.78 9.02
9/12/2021 6:45:00 PM 17.75 63.95 0.393 7.75 13.33 9
9/12/2021 7:00:00 PM 17.76 63.968 0.393 7.75 14.51 8.97
9/12/2021 7:15:00 PM 17.77 63.986 0.393 7.75 13.45 8.94
9/12/2021 7:30:00 PM 17.78 64.004 0.393 7.74 14.96 8.92
9/12/2021 7:45:00 PM 17.78 64.004 0.393 7.74 15.27 8.89
9/12/2021 8:00:00 PM 17.79 64.022 0.393 7.73 14.16 8.87
9/12/2021 8:15:00 PM 17.8 64.04 0.393 7.73 15.88 8.85
9/12/2021 8:30:00 PM 17.81 64.058 0.393 7.73 14.58 8.83
9/12/2021 8:45:00 PM 17.82 64.076 0.394 7.73 15.08 8.81
9/12/2021 9:00:00 PM 17.83 64.094 0.394 7.72 15.02 8.79
9/12/2021 9:15:00 PM 17.83 64.094 0.394 7.72 14.54 8.78
9/12/2021 9:30:00 PM 17.83 64.094 0.394 7.72 15.61 8.77
9/12/2021 9:45:00 PM 17.83 64.094 0.394 7.72 17.51 8.75
9/12/2021 10:00:00 PM 17.83 64.094 0.394 7.72 15.83 8.75
9/12/2021 10:15:00 PM 17.82 64.076 0.395 7.71 15.64 8.73
9/12/2021 10:30:00 PM 17.82 64.076 0.394 7.71 15.73 8.72
9/12/2021 10:45:00 PM 17.81 64.058 0.395 7.71 16.59 8.72
9/12/2021 11:00:00 PM 17.8 64.04 0.395 7.71 15.46 8.71
9/12/2021 11:15:00 PM 17.8 64.04 0.395 7.71 16.13 8.7
9/12/2021 11:30:00 PM 17.79 64.022 0.395 7.71 16.85 8.7
9/12/2021 11:45:00 PM 17.79 64.022 0.395 7.71 15.32 8.69
9/13/2021 12:00:00 AM 17.78 64.004 0.395 7.71 15.99 8.68
9/13/2021 12:15:00 AM 17.77 63.986 0.395 7.7 16.22 8.68
9/13/2021 12:30:00 AM 17.77 63.986 0.395 7.7 49.85 8.68
9/13/2021 12:45:00 AM 17.76 63.968 0.395 7.7 16.02 8.67
9/13/2021 1:00:00 AM 17.75 63.95 0.395 7.7 15.69 8.67
9/13/2021 1:15:00 AM 17.75 63.95 0.395 7.7 15.69 8.66
9/13/2021 1:30:00 AM 17.74 63.932 0.396 7.7 16.16 8.66
9/13/2021 1:45:00 AM 17.73 63.914 0.395 7.7 15.67 8.66
9/13/2021 2:00:00 AM 17.72 63.896 0.396 7.7 25.69 8.66
9/13/2021 2:15:00 AM 17.73 63.914 0.396 7.7 16.95 8.65
9/13/2021 2:30:00 AM 17.73 63.914 0.396 7.7 28.88 8.65
9/13/2021 2:45:00 AM 17.73 63.914 0.396 7.7 17.93 8.65
9/13/2021 3:00:00 AM 17.71 63.878 0.396 7.7 17.77 8.65
9/13/2021 3:15:00 AM 17.7 63.86 0.396 7.7 18.06 8.65
9/13/2021 3:30:00 AM 17.68 63.824 0.396 7.7 16.81 8.66
9/13/2021 3:45:00 AM 17.66 63.788 0.396 7.7 14.26 8.66
9/13/2021 4:00:00 AM 17.64 63.752 0.396 7.7 16.83 8.65
9/13/2021 4:15:00 AM 17.62 63.716 0.396 7.7 16.45 8.66
9/13/2021 4:30:00 AM 17.6 63.68 0.396 7.7 16.82 8.66
9/13/2021 4:45:00 AM 17.58 63.644 0.396 7.7 16.23 8.66
9/13/2021 5:00:00 AM 17.56 63.608 0.396 7.7 17.19 8.66
9/13/2021 5:15:00 AM 17.55 63.59 0.396 7.7 17.08 8.67
9/13/2021 5:30:00 AM 17.53 63.554 0.396 7.7 16.36 8.67
9/13/2021 5:45:00 AM 17.51 63.518 0.396 7.7 16.16 8.67
9/13/2021 6:00:00 AM 17.49 63.482 0.396 7.7 17.33 8.68
9/13/2021 6:15:00 AM 17.47 63.446 0.396 7.7 17.13 8.68
9/13/2021 6:30:00 AM 17.45 63.41 0.396 7.69 17.14 8.68
9/13/2021 6:45:00 AM 17.43 63.374 0.396 7.7 17.15 8.68
9/13/2021 7:00:00 AM 17.41 63.338 0.396 7.7 14.21 8.69
9/13/2021 7:15:00 AM 17.4 63.32 0.396 7.7 17.27 8.69
9/13/2021 7:30:00 AM 17.38 63.284 0.396 7.7 15.91 8.7
9/13/2021 7:45:00 AM 17.37 63.266 0.396 7.7 16.56 8.71
9/13/2021 8:00:00 AM 17.36 63.248 0.396 7.7 15.37 8.72
9/13/2021 8:15:00 AM 17.35 63.23 0.396 7.7 15.9 8.74
9/13/2021 8:30:00 AM 17.35 63.23 0.396 7.7 16.14 8.76
9/13/2021 8:45:00 AM 17.35 63.23 0.397 7.7 16.08 8.77
9/13/2021 9:00:00 AM 17.36 63.248 0.397 7.7 15.22 8.79
9/13/2021 9:15:00 AM 17.37 63.266 0.397 7.71 14.53 8.81
9/13/2021 9:30:00 AM 17.39 63.302 0.397 7.71 16.25 8.84
9/13/2021 9:45:00 AM 17.41 63.338 0.397 7.71 14.69 8.86
9/13/2021 10:00:00 AM 17.45 63.41 0.397 7.72 14.82 8.9
9/13/2021 10:15:00 AM 17.49 63.482 0.397 7.72 14.94 8.92
9/13/2021 10:30:00 AM 17.54 63.572 0.397 7.73 14.94 8.96
9/13/2021 10:45:00 AM 17.6 63.68 0.397 7.73 17.27 8.98
9/13/2021 11:00:00 AM 17.66 63.788 0.397 7.73 15.69 9
9/13/2021 11:15:00 AM 17.71 63.878 0.397 7.74 15.11 9.02
9/13/2021 11:30:00 AM 17.77 63.986 0.397 7.74 14.06 9.05
9/13/2021 11:45:00 AM 17.85 64.13 0.397 7.75 13.57 9.07
9/13/2021 12:00:00 PM 17.93 64.274 0.397 7.75 13.74 9.08
9/13/2021 12:15:00 PM 17.99 64.382 0.397 7.75 13.43 9.09
9/13/2021 12:30:00 PM 18 64.4 0.397 7.76 14.28 9.1
9/13/2021 12:45:00 PM 18.02 64.436 0.397 7.76 14.26 9.1
9/13/2021 1:00:00 PM 18.02 64.436 0.397 7.76 13.67 9.1
9/13/2021 1:15:00 PM 18.02 64.436 0.397 7.76 13.6 9.1
9/13/2021 1:30:00 PM 18.06 64.508 0.397 7.76 16 9.1
9/13/2021 1:45:00 PM 18.13 64.634 0.397 7.76 14.28 9.12
9/13/2021 2:00:00 PM 18.19 64.742 0.397 7.77 13.56 9.11
9/13/2021 2:15:00 PM 18.23 64.814 0.397 7.76 13.38 9.12
9/13/2021 2:30:00 PM 18.24 64.832 0.397 7.77 14.57 9.11
9/13/2021 2:45:00 PM 18.26 64.868 0.397 7.77 14 9.09
9/13/2021 3:00:00 PM 18.3 64.94 0.397 7.77 14.21 9.1
9/13/2021 3:15:00 PM 18.33 64.994 0.397 7.77 14.54 9.09
9/13/2021 3:30:00 PM 18.36 65.048 0.397 7.77 14.18 9.09
9/13/2021 3:45:00 PM 18.4 65.12 0.397 7.77 14.37 9.08
9/13/2021 4:00:00 PM 18.45 65.21 0.397 7.77 14.34 9.08
9/13/2021 4:15:00 PM 18.49 65.282 0.397 7.77 13.4 9.08
9/13/2021 4:30:00 PM 18.52 65.336 0.397 7.77 12.94 9.07
9/13/2021 4:45:00 PM 18.53 65.354 0.397 7.77 13.13 9.05
9/13/2021 5:00:00 PM 18.54 65.372 0.397 7.77 13.23 9.03
9/13/2021 5:15:00 PM 18.55 65.39 0.398 7.77 13.33 9
9/13/2021 5:30:00 PM 18.55 65.39 0.397 7.77 14.21 8.97
9/13/2021 5:45:00 PM 18.56 65.408 0.398 7.77 13.93 8.96
9/13/2021 6:00:00 PM 18.56 65.408 0.398 7.76 12.73 8.94
9/13/2021 6:15:00 PM 18.57 65.426 0.398 7.76 13.59 8.9
9/13/2021 6:30:00 PM 18.57 65.426 0.398 7.76 13.44 8.88
9/13/2021 6:45:00 PM 18.57 65.426 0.398 7.75 13.65 8.85
9/13/2021 7:00:00 PM 18.57 65.426 0.398 7.75 14.03 8.81
9/13/2021 7:15:00 PM 18.56 65.408 0.398 7.74 14.26 8.78
9/13/2021 7:30:00 PM 18.57 65.426 0.398 7.74 14.91 8.75
9/13/2021 7:45:00 PM 18.56 65.408 0.398 7.73 14.45 8.73
9/13/2021 8:00:00 PM 18.55 65.39 0.398 7.73 14.81 8.71
9/13/2021 8:15:00 PM 18.54 65.372 0.398 7.73 14.43 8.69
9/13/2021 8:30:00 PM 18.53 65.354 0.398 7.72 14.51 8.67
9/13/2021 8:45:00 PM 18.52 65.336 0.398 7.72 14.9 8.65
9/13/2021 9:00:00 PM 18.5 65.3 0.399 7.72 15.1 8.65
9/13/2021 9:15:00 PM 18.5 65.3 0.399 7.72 15.86 8.63
9/13/2021 9:30:00 PM 18.48 65.264 0.399 7.72 16.19 8.62
9/13/2021 9:45:00 PM 18.47 65.246 0.399 7.72 15.83 8.61
9/13/2021 10:00:00 PM 18.46 65.228 0.399 7.71 15.77 8.59
9/13/2021 10:15:00 PM 18.45 65.21 0.399 7.71 14.96 8.58
9/13/2021 10:30:00 PM 18.44 65.192 0.399 7.71 14.41 8.57
9/13/2021 10:45:00 PM 18.43 65.174 0.399 7.7 14.78 8.56
9/13/2021 11:00:00 PM 18.42 65.156 0.399 7.7 14.17 8.55
9/13/2021 11:15:00 PM 18.41 65.138 0.399 7.7 15.17 8.55
9/13/2021 11:30:00 PM 18.39 65.102 0.399 7.7 15.12 8.55
9/13/2021 11:45:00 PM 18.38 65.084 0.4 7.7 16.94 8.54
9/14/2021 12:00:00 AM 18.36 65.048 0.4 7.7 16.96 8.54
9/14/2021 12:15:00 AM 18.34 65.012 0.4 7.7 15.17 8.54
9/14/2021 12:30:00 AM 18.33 64.994 0.4 7.7 16.01 8.54
9/14/2021 12:45:00 AM 18.31 64.958 0.4 7.7 17.8 8.53
9/14/2021 1:00:00 AM 18.29 64.922 0.4 7.7 17.08 8.54
9/14/2021 1:15:00 AM 18.27 64.886 0.4 7.7 15.36 8.53
9/14/2021 1:30:00 AM 18.25 64.85 0.4 7.7 16.69 8.54
9/14/2021 1:45:00 AM 18.23 64.814 0.4 7.7 15.58 8.54
9/14/2021 2:00:00 AM 18.21 64.778 0.4 7.69 17.98 8.54
9/14/2021 2:15:00 AM 18.19 64.742 0.4 7.7 16.78 8.53
9/14/2021 2:30:00 AM 18.18 64.724 0.4 7.69 16.36 8.53
9/14/2021 2:45:00 AM 18.15 64.67 0.4 7.69 16.43 8.54
9/14/2021 3:00:00 AM 18.13 64.634 0.4 7.69 17.29 8.54
9/14/2021 3:15:00 AM 18.11 64.598 0.4 7.69 16.24 8.54
9/14/2021 3:30:00 AM 18.08 64.544 0.4 7.69 16.98 8.54
9/14/2021 3:45:00 AM 18.05 64.49 0.4 7.69 17.4 8.54
9/14/2021 4:00:00 AM 18.03 64.454 0.4 7.69 16.25 8.54
9/14/2021 4:15:00 AM 18.01 64.418 0.4 7.69 16.94 8.54
9/14/2021 4:30:00 AM 17.98 64.364 0.4 7.69 17.07 8.54
9/14/2021 4:45:00 AM 17.96 64.328 0.4 7.69 17 8.55
9/14/2021 5:00:00 AM 17.93 64.274 0.4 7.69 16.74 8.55
9/14/2021 5:15:00 AM 17.91 64.238 0.4 7.69 17.45 8.55
9/14/2021 5:30:00 AM 17.89 64.202 0.4 7.69 16.77 8.56
9/14/2021 5:45:00 AM 17.86 64.148 0.401 7.69 17.23 8.56
9/14/2021 6:00:00 AM 17.83 64.094 0.4 7.68 17.21 8.57
9/14/2021 6:15:00 AM 17.81 64.058 0.4 7.68 16.88 8.57
9/14/2021 6:30:00 AM 17.79 64.022 0.4 7.68 17.05 8.58
9/14/2021 6:45:00 AM 17.76 63.968 0.401 7.68 17.67 8.58
9/14/2021 7:00:00 AM 17.73 63.914 0.401 7.68 17.38 8.58
9/14/2021 7:15:00 AM 17.71 63.878 0.4 7.68 15.09 8.59
9/14/2021 7:30:00 AM 17.69 63.842 0.401 7.68 16.54 8.61
9/14/2021 7:45:00 AM 17.68 63.824 0.401 7.68 15.88 8.62
9/14/2021 8:00:00 AM 17.66 63.788 0.401 7.68 15.93 8.64
9/14/2021 8:15:00 AM 17.66 63.788 0.401 7.68 16.14 8.65
9/14/2021 8:30:00 AM 17.66 63.788 0.401 7.69 16.22 8.68
9/14/2021 8:45:00 AM 17.66 63.788 0.401 7.69 15.51 8.7
9/14/2021 9:00:00 AM 17.66 63.788 0.401 7.69 15.22 8.73
9/14/2021 9:15:00 AM 17.67 63.806 0.401 7.7 16.76 8.76
9/14/2021 9:30:00 AM 17.68 63.824 0.401 7.7 15.86 8.79
9/14/2021 9:45:00 AM 17.69 63.842 0.401 7.7 15.88 8.82
9/14/2021 10:00:00 AM 17.72 63.896 0.401 7.71 14.81 8.85
9/14/2021 10:15:00 AM 17.76 63.968 0.401 7.71 15.23 8.89
9/14/2021 10:30:00 AM 17.8 64.04 0.401 7.72 14.37 8.92
9/14/2021 10:45:00 AM 17.85 64.13 0.401 7.72 15.64 8.96
9/14/2021 11:00:00 AM 17.89 64.202 0.401 7.73 15.24 8.99
9/14/2021 11:15:00 AM 17.95 64.31 0.401 7.74 14.51 9.03
9/14/2021 11:30:00 AM 18.01 64.418 0.401 7.74 15.58 9.06
9/14/2021 11:45:00 AM 18.07 64.526 0.401 7.75 14.6 9.09
9/14/2021 12:00:00 PM 18.14 64.652 0.401 7.75 14.85 9.12
9/14/2021 12:15:00 PM 18.19 64.742 0.401 7.76 15.02 9.15
9/14/2021 12:30:00 PM 18.26 64.868 0.401 7.76 15.02 9.18
9/14/2021 12:45:00 PM 18.33 64.994 0.401 7.77 14.07 9.2
9/14/2021 1:00:00 PM 18.41 65.138 0.401 7.77 15.26 9.22
9/14/2021 1:15:00 PM 18.48 65.264 0.401 7.77 14.93 9.25
9/14/2021 1:30:00 PM 18.55 65.39 0.401 7.78 14.41 9.26
9/14/2021 1:45:00 PM 18.61 65.498 0.401 7.78 14.48 9.26
9/14/2021 2:00:00 PM 18.66 65.588 0.401 7.79 14.73 9.26
9/14/2021 2:15:00 PM 18.7 65.66 0.401 7.79 14.25 9.27
9/14/2021 2:30:00 PM 18.75 65.75 0.401 7.79 14.58 9.28
9/14/2021 2:45:00 PM 18.79 65.82201 0.401 7.79 14.72 9.28
9/14/2021 3:00:00 PM 18.82 65.876 0.401 7.8 14.14 9.27
9/14/2021 3:15:00 PM 18.84 65.912 0.401 7.79 13.7 9.26
9/14/2021 3:30:00 PM 18.88 65.984 0.401 7.8 15.55 9.26
9/14/2021 3:45:00 PM 18.88 65.984 0.401 7.8 16.34 9.23
9/14/2021 4:00:00 PM 18.88 65.984 0.402 7.8 14.55 9.2
9/14/2021 4:15:00 PM 18.89 66.002 0.401 7.79 14.27 9.18
9/14/2021 4:30:00 PM 18.87 65.966 0.402 7.79 14.37 9.15
9/14/2021 4:45:00 PM 18.87 65.966 0.402 7.79 15.53 9.12
9/14/2021 5:00:00 PM 18.86 65.948 0.402 7.79 15.98 9.08
9/14/2021 5:15:00 PM 18.86 65.948 0.402 7.78 15.28 9.04
9/14/2021 5:30:00 PM 18.86 65.948 0.402 7.78 14.49 9
9/14/2021 5:45:00 PM 18.86 65.948 0.402 7.78 13.7 8.98
9/14/2021 6:00:00 PM 18.86 65.948 0.402 7.78 14.72 8.93
9/14/2021 6:15:00 PM 18.87 65.966 0.402 7.77 14.7 8.91
9/14/2021 6:30:00 PM 18.87 65.966 0.402 7.77 17.19 8.88
9/14/2021 6:45:00 PM 18.88 65.984 0.402 7.77 14.75 8.85
9/14/2021 7:00:00 PM 18.88 65.984 0.402 7.76 14.47 8.82
9/14/2021 7:15:00 PM 18.87 65.966 0.402 7.76 14.54 8.78
9/14/2021 7:30:00 PM 18.86 65.948 0.402 7.76 15.52 8.74
9/14/2021 7:45:00 PM 18.85 65.93 0.402 7.75 14.26 8.7
9/14/2021 8:00:00 PM 18.84 65.912 0.402 7.75 14.38 8.66
9/14/2021 8:15:00 PM 18.82 65.876 0.403 7.74 15.2 8.63
9/14/2021 8:30:00 PM 18.81 65.858 0.402 7.74 15.34 8.61
9/14/2021 8:45:00 PM 18.8 65.84 0.403 7.73 15.06 8.59
9/14/2021 9:00:00 PM 18.79 65.82201 0.403 7.73 15.35 8.57
9/14/2021 9:15:00 PM 18.79 65.82201 0.403 7.73 14.94 8.56
9/14/2021 9:30:00 PM 18.77 65.786 0.403 7.73 15.29 8.55
9/14/2021 9:45:00 PM 18.77 65.786 0.403 7.73 16.06 8.53
9/14/2021 10:00:00 PM 18.76 65.768 0.403 7.73 15.42 8.51
9/14/2021 10:15:00 PM 18.75 65.75 0.403 7.72 15.98 8.49
9/14/2021 10:30:00 PM 18.74 65.732 0.403 7.72 16.58 8.48
9/14/2021 10:45:00 PM 18.72 65.696 0.403 7.72 15.33 8.47
9/14/2021 11:00:00 PM 18.71 65.67799 0.403 7.72 15.69 8.46
9/14/2021 11:15:00 PM 18.69 65.642 0.404 7.72 15.52 8.45
9/14/2021 11:30:00 PM 18.68 65.624 0.404 7.71 15.53 8.45
9/14/2021 11:45:00 PM 18.66 65.588 0.404 7.71 15.76 8.44
9/15/2021 12:00:00 AM 18.65 65.57 0.404 7.71 15.36 8.43
9/15/2021 12:15:00 AM 18.64 65.552 0.404 7.71 16.07 8.43
9/15/2021 12:30:00 AM 18.63 65.534 0.404 7.71 15.92 8.42
9/15/2021 12:45:00 AM 18.62 65.516 0.404 7.71 15.57 8.43
9/15/2021 1:00:00 AM 18.61 65.498 0.404 7.71 15.84 8.41
9/15/2021 1:15:00 AM 18.61 65.498 0.404 7.71 15.24 8.41
9/15/2021 1:30:00 AM 18.6 65.48 0.404 7.71 15.71 8.41
9/15/2021 1:45:00 AM 18.59 65.462 0.404 7.71 15.45 8.4
9/15/2021 2:00:00 AM 18.58 65.444 0.404 7.71 15.98 8.4
9/15/2021 2:15:00 AM 18.56 65.408 0.404 7.71 16.96 8.4
9/15/2021 2:30:00 AM 18.55 65.39 0.404 7.7 15.76 8.4
9/15/2021 2:45:00 AM 18.54 65.372 0.404 7.7 17.09 8.4
9/15/2021 3:00:00 AM 18.53 65.354 0.404 7.7 15.89 8.39
9/15/2021 3:15:00 AM 18.51 65.318 0.404 7.7 16.85 8.39
9/15/2021 3:30:00 AM 18.5 65.3 0.404 7.7 17.52 8.4
9/15/2021 3:45:00 AM 18.49 65.282 0.404 7.7 16.35 8.4
9/15/2021 4:00:00 AM 18.47 65.246 0.404 7.7 16.99 8.39
9/15/2021 4:15:00 AM 18.46 65.228 0.404 7.7 17.5 8.39
9/15/2021 4:30:00 AM 18.44 65.192 0.404 7.7 17.68 8.39
9/15/2021 4:45:00 AM 18.42 65.156 0.404 7.7 18.5 8.39
9/15/2021 5:00:00 AM 18.41 65.138 0.405 7.7 16.72 8.39
9/15/2021 5:15:00 AM 18.39 65.102 0.404 7.7 16.26 8.4
9/15/2021 5:30:00 AM 18.38 65.084 0.404 7.7 18.38 8.4
9/15/2021 5:45:00 AM 18.36 65.048 0.405 7.7 18.81 8.4
9/15/2021 6:00:00 AM 18.33 64.994 0.405 7.7 17.66 8.41
9/15/2021 6:15:00 AM 18.32 64.976 0.405 7.7 22.9 8.4
9/15/2021 6:30:00 AM 18.29 64.922 0.405 7.7 15.96 8.41
9/15/2021 6:45:00 AM 18.27 64.886 0.405 7.7 17.73 8.41
9/15/2021 7:00:00 AM 18.25 64.85 0.405 7.7 16.94 8.41
9/15/2021 7:15:00 AM 18.23 64.814 0.405 7.7 17.2 8.42
9/15/2021 7:30:00 AM 18.21 64.778 0.405 7.7 16.53 8.43
9/15/2021 7:45:00 AM 18.2 64.76 0.405 7.7 17.37 8.45
9/15/2021 8:00:00 AM 18.19 64.742 0.405 7.7 16.26 8.46
9/15/2021 8:15:00 AM 18.18 64.724 0.405 7.7 16.79 8.48
9/15/2021 8:30:00 AM 18.17 64.706 0.405 7.7 16.14 8.5
9/15/2021 8:45:00 AM 18.16 64.688 0.405 7.7 16.31 8.52
9/15/2021 9:00:00 AM 18.17 64.706 0.405 7.7 15.66 8.55
9/15/2021 9:15:00 AM 18.18 64.724 0.405 7.71 15.75 8.58
9/15/2021 9:30:00 AM 18.19 64.742 0.405 7.71 16.03 8.62
9/15/2021 9:45:00 AM 18.21 64.778 0.405 7.72 16.14 8.65
9/15/2021 10:00:00 AM 18.25 64.85 0.405 7.73 18.61 8.69
9/15/2021 10:15:00 AM 18.27 64.886 0.405 7.73 15.86 8.73
9/15/2021 10:30:00 AM 18.31 64.958 0.405 7.74 15.15 8.77
9/15/2021 10:45:00 AM 18.36 65.048 0.405 7.74 14.84 8.81
9/15/2021 11:00:00 AM 18.42 65.156 0.405 7.75 18.4 8.85
9/15/2021 11:15:00 AM 18.49 65.282 0.405 7.75 15.57 8.89
9/15/2021 11:30:00 AM 18.56 65.408 0.405 7.76 14.8 8.93
9/15/2021 11:45:00 AM 18.64 65.552 0.405 7.77 18.7 8.97
9/15/2021 12:00:00 PM 18.73 65.714 0.405 7.77 14.81 9.01
9/15/2021 12:15:00 PM 18.83 65.894 0.405 7.78 14.61 9.05
9/15/2021 12:30:00 PM 18.93 66.074 0.405 7.78 14.3 9.09
9/15/2021 12:45:00 PM 19.03 66.254 0.405 7.79 14.57 9.12
9/15/2021 1:00:00 PM 19.12 66.416 0.405 7.8 14.54 9.15
9/15/2021 1:15:00 PM 19.2 66.56 0.405 7.8 14.07 9.19
9/15/2021 1:30:00 PM 19.27 66.686 0.405 7.81 15.19 9.21
9/15/2021 1:45:00 PM 19.34 66.812 0.405 7.81 15.38 9.22
9/15/2021 2:00:00 PM 19.42 66.956 0.405 7.81 14.96 9.23
9/15/2021 2:15:00 PM 19.48 67.064 0.406 7.82 13.87 9.25
9/15/2021 2:30:00 PM 19.54 67.172 0.406 7.82 15.31 9.25
9/15/2021 2:45:00 PM 19.57 67.226 0.406 7.82 15.52 9.23
9/15/2021 3:00:00 PM 19.6 67.28 0.406 7.83 15.59 9.21
9/15/2021 3:15:00 PM 19.64 67.352 0.406 7.83 14.65 9.21
9/15/2021 3:30:00 PM 19.64 67.352 0.406 7.82 16.37 9.19
9/15/2021 3:45:00 PM 19.67 67.406 0.406 7.82 17.34 9.18
9/15/2021 4:00:00 PM 19.68 67.424 0.406 7.82 21.22 9.16
9/15/2021 4:15:00 PM 19.67 67.406 0.406 7.82 19.72 9.12
9/15/2021 4:30:00 PM 19.68 67.424 0.406 7.82 13.57 9.09
9/15/2021 4:45:00 PM 19.69 67.442 0.406 7.82 14.85 9.05
9/15/2021 5:00:00 PM 19.69 67.442 0.406 7.82 14.64 9.02
9/15/2021 5:15:00 PM 19.67 67.406 0.406 7.81 15.36 8.97
9/15/2021 5:30:00 PM 19.66 67.388 0.406 7.81 15.21 8.93
9/15/2021 5:45:00 PM 19.66 67.388 0.406 7.81 16.08 8.89
9/15/2021 6:00:00 PM 19.64 67.352 0.407 7.8 14.38 8.84
9/15/2021 6:15:00 PM 19.63 67.334 0.407 7.8 15.37 8.8
9/15/2021 6:30:00 PM 19.61 67.298 0.406 7.79 15.84 8.74
9/15/2021 6:45:00 PM 19.6 67.28 0.407 7.78 14.28 8.7
9/15/2021 7:00:00 PM 19.59 67.262 0.407 7.78 13.39 8.65
9/15/2021 7:15:00 PM 19.57 67.226 0.407 7.78 14.24 8.61
9/15/2021 7:30:00 PM 19.55 67.19 0.407 7.78 13.3 8.57
9/15/2021 7:45:00 PM 19.54 67.172 0.407 7.78 13.95 8.54
9/15/2021 8:00:00 PM 19.52 67.136 0.403 7.78 19.33 8.53
9/15/2021 8:15:00 PM 19.51 67.118 0.4 7.78 18.76 8.51
9/15/2021 8:30:00 PM 19.49 67.082 0.398 7.78 20.7 8.49
9/15/2021 8:45:00 PM 19.48 67.064 0.394 7.78 27.9 8.47
9/15/2021 9:00:00 PM 19.46 67.028 0.394 7.77 21.53 8.42
9/15/2021 9:15:00 PM 19.48 67.064 0.389 7.77 25.99 8.4
9/15/2021 9:30:00 PM 19.48 67.064 0.389 7.76 32.09 8.35
9/15/2021 9:45:00 PM 19.5 67.1 0.385 7.76 24.4 8.33
9/15/2021 10:00:00 PM 19.49 67.082 0.385 7.75 23.85 8.29
9/15/2021 10:15:00 PM 19.51 67.118 0.382 7.74 24.9 8.25
9/15/2021 10:30:00 PM 19.52 67.136 0.381 7.73 23.97 8.21
9/15/2021 10:45:00 PM 19.53 67.154 0.38 7.73 38.83 8.18
9/15/2021 11:00:00 PM 19.55 67.19 0.377 7.72 26.49 8.16
9/15/2021 11:15:00 PM 19.57 67.226 0.376 7.72 27.2 8.16
9/15/2021 11:30:00 PM 19.59 67.262 0.374 7.72 28.37 8.17
9/15/2021 11:45:00 PM 19.61 67.298 0.37 7.72 29.66 8.17
9/16/2021 12:00:00 AM 19.63 67.334 0.368 7.72 38.62 8.16
9/16/2021 12:15:00 AM 19.64 67.352 0.367 7.72 31.33 8.16
9/16/2021 12:30:00 AM 19.64 67.352 0.367 7.72 35.68 8.15
9/16/2021 12:45:00 AM 19.63 67.334 0.367 7.72 39.02 8.13
9/16/2021 1:00:00 AM 19.64 67.352 0.366 7.72 35.31 8.12
9/16/2021 1:15:00 AM 19.65 67.37 0.364 7.72 39.62 8.1
9/16/2021 1:30:00 AM 19.67 67.406 0.362 7.71 37.49 8.09
9/16/2021 1:45:00 AM 19.67 67.406 0.361 7.71 38.9 8.09
9/16/2021 2:00:00 AM 19.69 67.442 0.359 7.71 42.12 8.08
9/16/2021 2:15:00 AM 19.69 67.442 0.358 7.71 37.94 8.07
9/16/2021 2:30:00 AM 19.69 67.442 0.357 7.71 34.65 8.07
9/16/2021 2:45:00 AM 19.69 67.442 0.357 7.71 39.46 8.08
9/16/2021 3:00:00 AM 19.67 67.406 0.357 7.71 37.75 8.08
9/16/2021 3:15:00 AM 19.65 67.37 0.357 7.71 37.51 8.07
9/16/2021 3:30:00 AM 19.64 67.352 0.356 7.71 35.87 8.07
9/16/2021 3:45:00 AM 19.62 67.316 0.356 7.7 35.45 8.06
9/16/2021 4:00:00 AM 19.61 67.298 0.356 7.7 36.13 8.05
9/16/2021 4:15:00 AM 19.59 67.262 0.356 7.7 37.53 8.04
9/16/2021 4:30:00 AM 19.57 67.226 0.355 7.7 40.92 8.04
9/16/2021 4:45:00 AM 19.54 67.172 0.355 7.69 39.27 8.02
9/16/2021 5:00:00 AM 19.52 67.136 0.354 7.69 38.68 8.02
9/16/2021 5:15:00 AM 19.49 67.082 0.354 7.69 40.4 8.01
9/16/2021 5:30:00 AM 19.46 67.028 0.354 7.69 34.94 8
9/16/2021 5:45:00 AM 19.42 66.956 0.354 7.68 39.72 7.99
9/16/2021 6:00:00 AM 19.38 66.884 0.354 7.68 42.56 7.98
9/16/2021 6:15:00 AM 19.34 66.812 0.354 7.68 38.19 7.97
9/16/2021 6:30:00 AM 19.29 66.722 0.354 7.68 36.49 7.98
9/16/2021 6:45:00 AM 19.25 66.65 0.355 7.68 38.26 7.99
9/16/2021 7:00:00 AM 19.2 66.56 0.356 7.68 34.65 8.01
9/16/2021 7:15:00 AM 19.16 66.488 0.357 7.68 34.34 8.02
9/16/2021 7:30:00 AM 19.11 66.398 0.358 7.68 36.56 8.04
9/16/2021 7:45:00 AM 19.06 66.308 0.36 7.68 36.13 8.07
9/16/2021 8:00:00 AM 19.02 66.236 0.361 7.68 36.36 8.09
9/16/2021 8:15:00 AM 18.98 66.164 0.363 7.68 33.93 8.11
9/16/2021 8:30:00 AM 18.94 66.092 0.364 7.69 98.75 8.14
9/16/2021 8:45:00 AM 18.91 66.038 0.365 7.69 34.07 8.16
9/16/2021 9:00:00 AM 18.89 66.002 0.366 7.69 35.73 8.2
9/16/2021 9:15:00 AM 18.87 65.966 0.367 7.7 33.04 8.23
9/16/2021 9:30:00 AM 18.86 65.948 0.368 7.7 32.23 8.27
9/16/2021 9:45:00 AM 18.85 65.93 0.368 7.7 33.66 8.3
9/16/2021 10:00:00 AM 18.85 65.93 0.369 7.71 31 8.34
9/16/2021 10:15:00 AM 18.85 65.93 0.37 7.71 29.87 8.38
9/16/2021 10:30:00 AM 18.87 65.966 0.37 7.71 30.47 8.42
9/16/2021 10:45:00 AM 18.89 66.002 0.371 7.72 30.17 8.46
9/16/2021 11:00:00 AM 18.92 66.056 0.372 7.72 31.18 8.52
9/16/2021 11:15:00 AM 18.96 66.128 0.373 7.73 28.42 8.56
9/16/2021 11:30:00 AM 19.01 66.218 0.374 7.73 29.1 8.61
9/16/2021 11:45:00 AM 19.06 66.308 0.374 7.74 28.94 8.66
9/16/2021 12:00:00 PM 19.11 66.398 0.375 7.74 27.6 8.7
9/16/2021 12:15:00 PM 19.19 66.542 0.376 7.75 28.53 8.75
9/16/2021 12:30:00 PM 19.28 66.704 0.377 7.75 27.5 8.8
9/16/2021 12:45:00 PM 19.37 66.866 0.378 7.76 27.29 8.86
9/16/2021 1:00:00 PM 19.48 67.064 0.378 7.76 29 8.9
9/16/2021 1:15:00 PM 19.47 67.046 0.379 7.77 26.46 8.92
9/16/2021 1:30:00 PM 19.45 67.01 0.379 7.77 26.75 8.93
9/16/2021 1:45:00 PM 19.42 66.956 0.38 7.77 26.79 8.92
9/16/2021 2:00:00 PM 19.42 66.956 0.38 7.77 26.74 8.92
9/16/2021 2:15:00 PM 19.42 66.956 0.381 7.77 27.32 8.92
9/16/2021 2:30:00 PM 19.4 66.92 0.381 7.77 27.43 8.92
9/16/2021 2:45:00 PM 19.41 66.938 0.382 7.77 27.52 8.92
9/16/2021 3:00:00 PM 19.4 66.92 0.382 7.78 27.47 8.9
9/16/2021 3:15:00 PM 19.42 66.956 0.383 7.78 28.47 8.92
9/16/2021 3:30:00 PM 19.45 67.01 0.383 7.78 27.81 8.93
9/16/2021 3:45:00 PM 19.45 67.01 0.384 7.78 26.55 8.91
9/16/2021 4:00:00 PM 19.48 67.064 0.384 7.78 27.26 8.89
9/16/2021 4:15:00 PM 19.5 67.1 0.385 7.78 27.13 8.86
9/16/2021 4:30:00 PM 19.51 67.118 0.385 7.78 26.87 8.85
9/16/2021 4:45:00 PM 19.52 67.136 0.386 7.77 28.75 8.83
9/16/2021 5:00:00 PM 19.53 67.154 0.386 7.77 26.49 8.8
9/16/2021 5:15:00 PM 19.53 67.154 0.387 7.77 26.8 8.78
9/16/2021 5:30:00 PM 19.54 67.172 0.387 7.77 26.12 8.75
9/16/2021 5:45:00 PM 19.54 67.172 0.388 7.77 26.88 8.72
9/16/2021 6:00:00 PM 19.54 67.172 0.389 7.77 27.54 8.69
9/16/2021 6:15:00 PM 19.54 67.172 0.389 7.77 27.62 8.68
9/16/2021 6:30:00 PM 19.53 67.154 0.39 7.76 26.46 8.64
9/16/2021 6:45:00 PM 19.51 67.118 0.39 7.76 26.83 8.61
9/16/2021 7:00:00 PM 19.49 67.082 0.391 7.76 26.72 8.55
9/16/2021 7:15:00 PM 19.47 67.046 0.392 7.75 27.09 8.51
9/16/2021 7:30:00 PM 19.45 67.01 0.392 7.75 36.87 8.46
9/16/2021 7:45:00 PM 19.44 66.992 0.393 7.74 28.29 8.43
9/16/2021 8:00:00 PM 19.43 66.974 0.393 7.74 25.92 8.4
9/16/2021 8:15:00 PM 19.41 66.938 0.394 7.74 28.44 8.32
9/16/2021 8:30:00 PM 19.39 66.902 0.394 7.73 33.25 8.35
9/16/2021 8:45:00 PM 19.38 66.884 0.395 7.74 24.78 8.35
9/16/2021 9:00:00 PM 19.36 66.848 0.396 7.73 25.9 8.33
9/16/2021 9:15:00 PM 19.34 66.812 0.396 7.73 25.77 8.32
9/16/2021 9:30:00 PM 19.32 66.776 0.396 7.73 26.41 8.3
9/16/2021 9:45:00 PM 19.3 66.74 0.397 7.73 26.24 8.28
9/16/2021 10:00:00 PM 19.28 66.704 0.397 7.72 25.71 8.27
9/16/2021 10:15:00 PM 19.26 66.668 0.398 7.72 26.26 8.26
9/16/2021 10:30:00 PM 19.24 66.632 0.398 7.72 26.55 8.24
9/16/2021 10:45:00 PM 19.23 66.614 0.398 7.72 27.87 8.23
9/16/2021 11:00:00 PM 19.21 66.578 0.399 7.72 28.58 8.23
9/16/2021 11:15:00 PM 19.2 66.56 0.399 7.72 26.12 8.22
9/16/2021 11:30:00 PM 19.18 66.524 0.399 7.72 28.25 8.22
9/16/2021 11:45:00 PM 19.16 66.488 0.4 7.72 27.89 8.22
9/17/2021 12:00:00 AM 19.15 66.47 0.399 7.72 27.09 8.21
9/17/2021 12:15:00 AM 19.14 66.452 0.399 7.72 27.21 8.21
9/17/2021 12:30:00 AM 19.13 66.434 0.4 7.72 27.33 8.21
9/17/2021 12:45:00 AM 19.11 66.398 0.4 7.72 27.95 8.21
9/17/2021 1:00:00 AM 19.09 66.362 0.4 7.72 27.52 8.21
9/17/2021 1:15:00 AM 19.07 66.326 0.4 7.71 27.3 8.2
9/17/2021 1:30:00 AM 19.05 66.29 0.4 7.71 27.63 8.2
9/17/2021 1:45:00 AM 19.04 66.272 0.4 7.72 28.97 8.21
9/17/2021 2:00:00 AM 19.02 66.236 0.4 7.72 27.22 8.2
9/17/2021 2:15:00 AM 19 66.2 0.401 7.72 28.01 8.21
9/17/2021 2:30:00 AM 18.98 66.164 0.401 7.72 28.59 8.21
9/17/2021 2:45:00 AM 18.97 66.146 0.401 7.72 29.23 8.21
9/17/2021 3:00:00 AM 18.96 66.128 0.401 7.72 29.06 8.21
9/17/2021 3:15:00 AM 18.94 66.092 0.401 7.72 27.7 8.21
9/17/2021 3:30:00 AM 18.93 66.074 0.401 7.72 29.88 8.21
9/17/2021 3:45:00 AM 18.92 66.056 0.402 7.72 29.87 8.22
9/17/2021 4:00:00 AM 18.9 66.02 0.402 7.72 28.57 8.22
9/17/2021 4:15:00 AM 18.89 66.002 0.402 7.72 29.33 8.22
9/17/2021 4:30:00 AM 18.87 65.966 0.402 7.72 29.47 8.22
9/17/2021 4:45:00 AM 18.85 65.93 0.402 7.72 29.2 8.22
9/17/2021 5:00:00 AM 18.83 65.894 0.402 7.72 29.8 8.23
9/17/2021 5:15:00 AM 18.81 65.858 0.403 7.72 29.18 8.23
9/17/2021 5:30:00 AM 18.8 65.84 0.403 7.72 29.05 8.23
9/17/2021 5:45:00 AM 18.78 65.804 0.403 7.72 28.93 8.24
9/17/2021 6:00:00 AM 18.76 65.768 0.403 7.72 31.26 8.24
9/17/2021 6:15:00 AM 18.74 65.732 0.403 7.72 29.9 8.24
9/17/2021 6:30:00 AM 18.72 65.696 0.403 7.72 31.18 8.24
9/17/2021 6:45:00 AM 18.7 65.66 0.404 7.72 30.19 8.25
9/17/2021 7:00:00 AM 18.69 65.642 0.404 7.72 30.74 8.26
9/17/2021 7:15:00 AM 18.67 65.606 0.404 7.72 30.81 8.26
9/17/2021 7:30:00 AM 18.66 65.588 0.404 7.72 33.3 8.27
9/17/2021 7:45:00 AM 18.65 65.57 0.404 7.72 31.59 8.29
9/17/2021 8:00:00 AM 18.65 65.57 0.404 7.72 31.39 8.31
9/17/2021 8:15:00 AM 18.65 65.57 0.404 7.72 30.69 8.33
9/17/2021 8:30:00 AM 18.64 65.552 0.405 7.72 30.87 8.35
9/17/2021 8:45:00 AM 18.64 65.552 0.404 7.73 31.52 8.38
9/17/2021 9:00:00 AM 18.65 65.57 0.405 7.73 29.97 8.41
9/17/2021 9:15:00 AM 18.65 65.57 0.405 7.74 30.19 8.45
9/17/2021 9:30:00 AM 18.67 65.606 0.405 7.74 30.05 8.5
9/17/2021 9:45:00 AM 18.68 65.624 0.405 7.75 29.92 8.55
9/17/2021 10:00:00 AM 18.71 65.67799 0.405 7.75 30.6 8.62
9/17/2021 10:15:00 AM 18.72 65.696 0.405 7.75 29.84 8.63
9/17/2021 10:30:00 AM 18.73 65.714 0.405 7.76 29.59 8.67
9/17/2021 10:45:00 AM 18.75 65.75 0.405 7.76 31.69 8.71
9/17/2021 11:00:00 AM 18.75 65.75 0.405 7.77 29.99 8.74
9/17/2021 11:15:00 AM 18.77 65.786 0.406 7.77 29.69 8.78
9/17/2021 11:30:00 AM 18.78 65.804 0.406 7.77 29.84 8.81
9/17/2021 11:45:00 AM 18.8 65.84 0.406 7.78 30.54 8.85
9/17/2021 12:00:00 PM 18.83 65.894 0.406 7.78 30.27 8.9
9/17/2021 12:15:00 PM 18.89 66.002 0.406 7.79 29.99 8.99
9/17/2021 12:30:00 PM 18.94 66.092 0.406 7.8 29.93 9.08
9/17/2021 12:45:00 PM 18.99 66.182 0.406 7.81 30.16 9.14
9/17/2021 1:00:00 PM 19.02 66.236 0.406 7.81 30.4 9.19
9/17/2021 1:15:00 PM 19.05 66.29 0.406 7.82 30.35 9.23
9/17/2021 1:30:00 PM 19.09 66.362 0.407 7.82 30.07 9.28
9/17/2021 1:45:00 PM 19.11 66.398 0.407 7.83 30.58 9.28
9/17/2021 2:00:00 PM 19.11 66.398 0.407 7.83 30.18 9.26
9/17/2021 2:15:00 PM 19.11 66.398 0.407 7.83 30.17 9.27
9/17/2021 2:30:00 PM 19.14 66.452 0.407 7.83 30.09 9.3
9/17/2021 2:45:00 PM 19.16 66.488 0.407 7.83 30.02 9.32
9/17/2021 3:00:00 PM 19.18 66.524 0.407 7.84 30.41 9.33
9/17/2021 3:15:00 PM 19.19 66.542 0.408 7.84 29.94 9.33
9/17/2021 3:30:00 PM 19.21 66.578 0.408 7.84 29.53 9.33
9/17/2021 3:45:00 PM 19.22 66.596 0.408 7.84 29.87 9.33
9/17/2021 4:00:00 PM 19.23 66.614 0.408 7.84 29.86 9.31
9/17/2021 4:15:00 PM 19.25 66.65 0.408 7.84 30.28 9.31
9/17/2021 4:30:00 PM 19.27 66.686 0.408 7.84 30.07 9.28
9/17/2021 4:45:00 PM 19.27 66.686 0.408 7.84 30.27 9.21
9/17/2021 5:00:00 PM 19.27 66.686 0.408 7.83 29.96 9.16
9/17/2021 5:15:00 PM 19.28 66.704 0.408 7.83 30.49 9.1
9/17/2021 5:30:00 PM 19.27 66.686 0.408 7.82 30.65 9.05
9/17/2021 5:45:00 PM 19.27 66.686 0.408 7.82 31.24 9.01
9/17/2021 6:00:00 PM 19.24 66.632 0.409 7.82 31.25 8.95
9/17/2021 6:15:00 PM 19.23 66.614 0.409 7.81 31.33 8.92
9/17/2021 6:30:00 PM 19.2 66.56 0.409 7.81 30.79 8.88
9/17/2021 6:45:00 PM 19.18 66.524 0.409 7.8 32.27 8.83
9/17/2021 7:00:00 PM 19.16 66.488 0.409 7.8 30.64 8.78
9/17/2021 7:15:00 PM 19.14 66.452 0.409 7.79 30.9 8.74
9/17/2021 7:30:00 PM 19.12 66.416 0.409 7.79 32.49 8.69
9/17/2021 7:45:00 PM 19.09 66.362 0.409 7.78 32.11 8.66
9/17/2021 8:00:00 PM 19.06 66.308 0.408 7.78 41.14 8.62
9/17/2021 8:15:00 PM 19.04 66.272 0.409 7.77 29.57 8.58
9/17/2021 8:30:00 PM 19.01 66.218 0.409 7.77 29.35 8.56
9/17/2021 8:45:00 PM 18.98 66.164 0.409 7.76 28.67 8.54
9/17/2021 9:00:00 PM 18.95 66.11 0.409 7.76 28.9 8.51
9/17/2021 9:15:00 PM 18.93 66.074 0.409 7.76 30.47 8.48
9/17/2021 9:30:00 PM 18.9 66.02 0.409 7.75 29.83 8.47
9/17/2021 9:45:00 PM 18.87 65.966 0.409 7.75 30.41 8.45
9/17/2021 10:00:00 PM 18.85 65.93 0.409 7.75 30.58 8.43
9/17/2021 10:15:00 PM 18.82 65.876 0.409 7.74 30.94 8.42
9/17/2021 10:30:00 PM 18.79 65.82201 0.41 7.74 31.44 8.4
9/17/2021 10:45:00 PM 18.76 65.768 0.41 7.74 30.82 8.4
9/17/2021 11:00:00 PM 18.74 65.732 0.41 7.74 30.99 8.38
9/17/2021 11:15:00 PM 18.72 65.696 0.41 7.74 30.58 8.38
9/17/2021 11:30:00 PM 18.69 65.642 0.41 7.74 30.47 8.37
9/17/2021 11:45:00 PM 18.67 65.606 0.41 7.74 31.63 8.37
9/18/2021 12:00:00 AM 18.65 65.57 0.41 7.74 31.56 8.36
9/18/2021 12:15:00 AM 18.63 65.534 0.41 7.73 31.45 8.36
9/18/2021 12:30:00 AM 18.6 65.48 0.41 7.73 31.99 8.35
9/18/2021 12:45:00 AM 18.58 65.444 0.41 7.73 31 8.35
9/18/2021 1:00:00 AM 18.55 65.39 0.41 7.73 30.62 8.35
9/18/2021 1:15:00 AM 18.52 65.336 0.41 7.73 31.41 8.35
9/18/2021 1:30:00 AM 18.5 65.3 0.41 7.73 30.77 8.35
9/18/2021 1:45:00 AM 18.47 65.246 0.41 7.73 31.06 8.35
9/18/2021 2:00:00 AM 18.45 65.21 0.41 7.73 29.73 8.35
9/18/2021 2:15:00 AM 18.43 65.174 0.41 7.73 31.19 8.35
9/18/2021 2:30:00 AM 18.41 65.138 0.41 7.73 30.11 8.35
9/18/2021 2:45:00 AM 18.4 65.12 0.41 7.73 30.91 8.35
9/18/2021 3:00:00 AM 18.39 65.102 0.41 7.73 31.96 8.35
9/18/2021 3:15:00 AM 18.37 65.066 0.41 7.73 31.73 8.35
9/18/2021 3:30:00 AM 18.35 65.03 0.41 7.72 31.85 8.35
9/18/2021 3:45:00 AM 18.34 65.012 0.41 7.72 32.31 8.35
9/18/2021 4:00:00 AM 18.31 64.958 0.41 7.72 32.26 8.35
9/18/2021 4:15:00 AM 18.29 64.922 0.41 7.72 31.24 8.36
9/18/2021 4:30:00 AM 18.26 64.868 0.41 7.72 31.9 8.35
9/18/2021 4:45:00 AM 18.23 64.814 0.411 7.72 31.75 8.36
9/18/2021 5:00:00 AM 18.2 64.76 0.41 7.72 33.61 8.36
9/18/2021 5:15:00 AM 18.17 64.706 0.411 7.72 33.4 8.36
9/18/2021 5:30:00 AM 18.14 64.652 0.411 7.72 32.84 8.37
9/18/2021 5:45:00 AM 18.11 64.598 0.411 7.72 35.74 8.37
9/18/2021 6:00:00 AM 18.08 64.544 0.411 7.72 33.8 8.38
9/18/2021 6:15:00 AM 18.05 64.49 0.411 7.72 33.79 8.38
9/18/2021 6:30:00 AM 18.03 64.454 0.411 7.72 33.95 8.38
9/18/2021 6:45:00 AM 18.02 64.436 0.411 7.72 33.91 8.38
9/18/2021 7:00:00 AM 18 64.4 0.411 7.72 33.05 8.39
9/18/2021 7:15:00 AM 17.98 64.364 0.411 7.72 36.67 8.39
9/18/2021 7:30:00 AM 17.97 64.346 0.411 7.72 30.25 8.41
9/18/2021 7:45:00 AM 17.96 64.328 0.411 7.72 35.33 8.42
9/18/2021 8:00:00 AM 17.95 64.31 0.411 7.72 28.73 8.45
9/18/2021 8:15:00 AM 17.95 64.31 0.411 7.72 27.66 8.49
9/18/2021 8:30:00 AM 17.95 64.31 0.411 7.72 29.19 8.5
9/18/2021 8:45:00 AM 17.95 64.31 0.411 7.73 45.04 8.56
9/18/2021 9:00:00 AM 17.95 64.31 0.411 7.73 27.52 8.62
9/18/2021 9:15:00 AM 17.96 64.328 0.411 7.74 27.88 8.66
9/18/2021 9:30:00 AM 17.97 64.346 0.411 7.74 31.07 8.71
9/18/2021 9:45:00 AM 17.97 64.346 0.411 7.75 28.36 8.75
9/18/2021 10:00:00 AM 18 64.4 0.411 7.75 28.7 8.82
9/18/2021 10:15:00 AM 18.02 64.436 0.411 7.76 28.2 8.88
9/18/2021 10:30:00 AM 18.06 64.508 0.411 7.77 28.28 8.97
9/18/2021 10:45:00 AM 18.11 64.598 0.411 7.78 28.26 9.05
9/18/2021 11:00:00 AM 18.18 64.724 0.411 7.79 28.64 9.14
9/18/2021 11:15:00 AM 18.23 64.814 0.411 7.8 28.31 9.18
9/18/2021 11:30:00 AM 18.29 64.922 0.411 7.8 28.04 9.27
9/18/2021 11:45:00 AM 18.35 65.03 0.411 7.81 28.79 9.31
9/18/2021 12:00:00 PM 18.46 65.228 0.411 7.82 28.41 9.39
9/18/2021 12:15:00 PM 18.57 65.426 0.412 7.83 29.06 9.43
9/18/2021 12:30:00 PM 18.67 65.606 0.411 7.84 28.66 9.49
9/18/2021 12:45:00 PM 18.74 65.732 0.411 7.84 29.07 9.51
9/18/2021 1:00:00 PM 18.81 65.858 0.411 7.85 28.24 9.55
9/18/2021 1:15:00 PM 18.94 66.092 0.411 7.85 28.98 9.61
9/18/2021 1:30:00 PM 19.03 66.254 0.411 7.86 28.9 9.65
9/18/2021 1:45:00 PM 19.15 66.47 0.411 7.87 28.64 9.68
9/18/2021 2:00:00 PM 19.23 66.614 0.412 7.87 31.35 9.68
9/18/2021 2:15:00 PM 19.27 66.686 0.411 7.87 43.33 9.64
9/18/2021 2:30:00 PM 19.33 66.794 0.411 7.87 32.12 9.64
9/18/2021 2:45:00 PM 19.32 66.776 0.411 7.87 30.48 9.62
9/18/2021 3:00:00 PM 19.32 66.776 0.411 7.87 30.66 9.56
9/18/2021 3:15:00 PM 19.32 66.776 0.412 7.87 30.32 9.54
9/18/2021 3:30:00 PM 19.31 66.758 0.412 7.87 30.97 9.48
9/18/2021 3:45:00 PM 19.32 66.776 0.412 7.87 30.97 9.44
9/18/2021 4:00:00 PM 19.32 66.776 0.412 7.86 33.56 9.39
9/18/2021 4:15:00 PM 19.32 66.776 0.412 7.86 31.27 9.34
9/18/2021 4:30:00 PM 19.32 66.776 0.412 7.85 31.84 9.29
9/18/2021 4:45:00 PM 19.33 66.794 0.412 7.85 31.89 9.25
9/18/2021 5:00:00 PM 19.31 66.758 0.412 7.85 32.82 9.17
9/18/2021 5:15:00 PM 19.29 66.722 0.412 7.84 31.55 9.12
9/18/2021 5:30:00 PM 19.29 66.722 0.412 7.83 32.42 9.06
9/18/2021 5:45:00 PM 19.28 66.704 0.412 7.83 33.88 9.01
9/18/2021 6:00:00 PM 19.27 66.686 0.412 7.82 34.22 8.96
9/18/2021 6:15:00 PM 19.25 66.65 0.412 7.82 34 8.92
9/18/2021 6:30:00 PM 19.23 66.614 0.413 7.81 31.45 8.86
9/18/2021 6:45:00 PM 19.21 66.578 0.412 7.81 32.18 8.82
9/18/2021 7:00:00 PM 19.18 66.524 0.413 7.8 31.88 8.77
9/18/2021 7:15:00 PM 19.16 66.488 0.413 7.8 32.89 8.72
9/18/2021 7:30:00 PM 19.14 66.452 0.413 7.79 33.44 8.67
9/18/2021 7:45:00 PM 19.11 66.398 0.413 7.78 34.08 8.63
9/18/2021 8:00:00 PM 19.09 66.362 0.413 7.78 33.89 8.58
9/18/2021 8:15:00 PM 19.07 66.326 0.413 7.77 33.17 8.55
9/18/2021 8:30:00 PM 19.06 66.308 0.413 7.77 32.82 8.53
9/18/2021 8:45:00 PM 19.04 66.272 0.413 7.76 37.2 8.5
9/18/2021 9:00:00 PM 19.02 66.236 0.413 7.76 33.65 8.47
9/18/2021 9:15:00 PM 19.01 66.218 0.413 7.76 33.05 8.45
9/18/2021 9:30:00 PM 18.99 66.182 0.413 7.76 32.97 8.42
9/18/2021 9:45:00 PM 18.97 66.146 0.413 7.76 33.64 8.41
9/18/2021 10:00:00 PM 18.96 66.128 0.413 7.75 34.85 8.38
9/18/2021 10:15:00 PM 18.94 66.092 0.413 7.75 32.71 8.37
9/18/2021 10:30:00 PM 18.92 66.056 0.414 7.75 34.23 8.34
9/18/2021 10:45:00 PM 18.91 66.038 0.414 7.75 33.7 8.34
9/18/2021 11:00:00 PM 18.89 66.002 0.413 7.75 33.31 8.32
9/18/2021 11:15:00 PM 18.87 65.966 0.414 7.74 34.12 8.31
9/18/2021 11:30:00 PM 18.85 65.93 0.414 7.74 35.29 8.31
9/18/2021 11:45:00 PM 18.83 65.894 0.414 7.74 33.34 8.29
9/19/2021 12:00:00 AM 18.81 65.858 0.414 7.74 34.51 8.29
9/19/2021 12:15:00 AM 18.78 65.804 0.414 7.74 33.85 8.29
9/19/2021 12:30:00 AM 18.76 65.768 0.414 7.74 32.97 8.28
9/19/2021 12:45:00 AM 18.74 65.732 0.414 7.74 35.34 8.27
9/19/2021 1:00:00 AM 18.72 65.696 0.414 7.74 31.14 8.27
9/19/2021 1:15:00 AM 18.7 65.66 0.414 7.74 32.15 8.27
9/19/2021 1:30:00 AM 18.68 65.624 0.414 7.73 30.44 8.26
9/19/2021 1:45:00 AM 18.66 65.588 0.414 7.73 2136.22 8.27
9/19/2021 2:00:00 AM 18.63 65.534 0.414 7.73 22.85 8.27
9/19/2021 2:15:00 AM 18.61 65.498 0.414 7.73 22.4 8.26
9/19/2021 2:30:00 AM 18.58 65.444 0.414 7.73 22.42 8.27
9/19/2021 2:45:00 AM 18.55 65.39 0.414 7.73 22.63 8.27
9/19/2021 3:00:00 AM 18.53 65.354 0.414 7.73 22.29 8.27
9/19/2021 3:15:00 AM 18.5 65.3 0.414 7.73 23.24 8.27
9/19/2021 3:30:00 AM 18.48 65.264 0.414 7.73 23.15 8.28
9/19/2021 3:45:00 AM 18.45 65.21 0.414 7.73 22.31 8.28
9/19/2021 4:00:00 AM 18.42 65.156 0.414 7.73 22.05 8.29
9/19/2021 4:15:00 AM 18.38 65.084 0.415 7.73 22.36 8.29
9/19/2021 4:30:00 AM 18.35 65.03 0.415 7.73 21.93 8.29
9/19/2021 4:45:00 AM 18.32 64.976 0.415 7.73 23.11 8.3
9/19/2021 5:00:00 AM 18.28 64.904 0.415 7.73 23.17 8.3
9/19/2021 5:15:00 AM 18.24 64.832 0.415 7.73 22.63 8.31
9/19/2021 5:30:00 AM 18.2 64.76 0.415 7.73 22.76 8.31
9/19/2021 5:45:00 AM 18.15 64.67 0.415 7.73 22.75 8.32
9/19/2021 6:00:00 AM 18.11 64.598 0.415 7.73 24.39 8.33
9/19/2021 6:15:00 AM 18.07 64.526 0.415 7.74 22.77 8.33
9/19/2021 6:30:00 AM 18.02 64.436 0.415 7.73 23.48 8.33
9/19/2021 6:45:00 AM 17.98 64.364 0.415 7.74 23.39 8.34
9/19/2021 7:00:00 AM 17.94 64.292 0.415 7.74 23.97 8.35
9/19/2021 7:15:00 AM 17.89 64.202 0.415 7.74 22.97 8.37
9/19/2021 7:30:00 AM 17.86 64.148 0.415 7.74 23.12 8.38
9/19/2021 7:45:00 AM 17.83 64.094 0.416 7.74 22 8.4
9/19/2021 8:00:00 AM 17.8 64.04 0.416 7.74 22.57 8.42
9/19/2021 8:15:00 AM 17.78 64.004 0.416 7.75 22.27 8.46
9/19/2021 8:30:00 AM 17.77 63.986 0.415 7.75 21.75 8.49
9/19/2021 8:45:00 AM 17.76 63.968 0.416 7.75 22.04 8.51
9/19/2021 9:00:00 AM 17.76 63.968 0.416 7.76 21.28 8.56
9/19/2021 9:15:00 AM 17.76 63.968 0.415 7.76 21.6 8.6
9/19/2021 9:30:00 AM 17.76 63.968 0.416 7.76 22.03 8.64
9/19/2021 9:45:00 AM 17.76 63.968 0.416 7.77 21.51 8.69
9/19/2021 10:00:00 AM 17.77 63.986 0.416 7.77 21.52 8.74
9/19/2021 10:15:00 AM 17.78 64.004 0.416 7.78 21.49 8.81
9/19/2021 10:30:00 AM 17.8 64.04 0.416 7.79 23.02 8.84
9/19/2021 10:45:00 AM 17.83 64.094 0.416 7.79 22.94 8.92
9/19/2021 11:00:00 AM 17.88 64.184 0.416 7.8 21.86 8.99
9/19/2021 11:15:00 AM 17.92 64.256 0.416 7.81 22.29 9.05
9/19/2021 11:30:00 AM 17.98 64.364 0.416 7.81 21.4 9.11
9/19/2021 11:45:00 AM 18.04 64.472 0.416 7.82 25.35 9.18
9/19/2021 12:00:00 PM 18.12 64.616 0.416 7.83 21.84 9.25
9/19/2021 12:15:00 PM 18.22 64.796 0.416 7.84 21.54 9.32
9/19/2021 12:30:00 PM 18.31 64.958 0.416 7.84 21.69 9.38
9/19/2021 12:45:00 PM 18.4 65.12 0.416 7.85 22.44 9.43
9/19/2021 1:00:00 PM 18.51 65.318 0.416 7.86 21.28 9.48
9/19/2021 1:15:00 PM 18.59 65.462 0.416 7.86 21.37 9.53
9/19/2021 1:30:00 PM 18.68 65.624 0.416 7.87 21.17 9.57
9/19/2021 1:45:00 PM 18.75 65.75 0.416 7.87 23.55 9.59
9/19/2021 2:00:00 PM 18.8 65.84 0.416 7.88 21.45 9.62
9/19/2021 2:15:00 PM 18.84 65.912 0.416 7.88 21.75 9.61
9/19/2021 2:30:00 PM 18.87 65.966 0.416 7.88 21.31 9.6
9/19/2021 2:45:00 PM 18.88 65.984 0.416 7.88 22.12 9.59
9/19/2021 3:00:00 PM 18.88 65.984 0.416 7.88 21.95 9.57
9/19/2021 3:15:00 PM 18.88 65.984 0.416 7.88 21.51 9.55
9/19/2021 3:30:00 PM 18.86 65.948 0.417 7.87 21.79 9.51
9/19/2021 3:45:00 PM 18.84 65.912 0.417 7.87 21.72 9.48
9/19/2021 4:00:00 PM 18.81 65.858 0.417 7.87 22.58 9.44
9/19/2021 4:15:00 PM 18.78 65.804 0.417 7.86 22.69 9.39
9/19/2021 4:30:00 PM 18.75 65.75 0.417 7.86 22.57 9.35
9/19/2021 4:45:00 PM 18.72 65.696 0.417 7.86 21.86 9.3
9/19/2021 5:00:00 PM 18.69 65.642 0.417 7.86 22.38 9.26
9/19/2021 5:15:00 PM 18.66 65.588 0.417 7.85 22.11 9.2
9/19/2021 5:30:00 PM 18.63 65.534 0.417 7.84 22.69 9.15
9/19/2021 5:45:00 PM 18.61 65.498 0.417 7.84 22.26 9.1
9/19/2021 6:00:00 PM 18.59 65.462 0.417 7.83 22.26 9.05
9/19/2021 6:15:00 PM 18.56 65.408 0.417 7.83 22.66 9
9/19/2021 6:30:00 PM 18.53 65.354 0.417 7.82 22.55 8.96
9/19/2021 6:45:00 PM 18.5 65.3 0.417 7.82 22.72 8.92
9/19/2021 7:00:00 PM 18.46 65.228 0.417 7.81 23.14 8.89
9/19/2021 7:15:00 PM 18.41 65.138 0.417 7.81 22.72 8.85
9/19/2021 7:30:00 PM 18.36 65.048 0.417 7.81 22.34 8.81
9/19/2021 7:45:00 PM 18.31 64.958 0.418 7.8 22.69 8.77
9/19/2021 8:00:00 PM 18.26 64.868 0.418 7.8 22.32 8.75
9/19/2021 8:15:00 PM 18.22 64.796 0.418 7.8 21.5 8.71
9/19/2021 8:30:00 PM 18.17 64.706 0.418 7.79 22.29 8.69
9/19/2021 8:45:00 PM 18.13 64.634 0.418 7.79 21.23 8.67
9/19/2021 9:00:00 PM 18.1 64.58 0.418 7.79 21.5 8.64
9/19/2021 9:15:00 PM 18.06 64.508 0.418 7.78 20.89 8.63
9/19/2021 9:30:00 PM 18.02 64.436 0.418 7.78 22.84 8.6
9/19/2021 9:45:00 PM 17.98 64.364 0.418 7.78 21.87 8.58
9/19/2021 10:00:00 PM 17.94 64.292 0.418 7.78 21.37 8.57
9/19/2021 10:15:00 PM 17.9 64.22 0.418 7.77 22.46 8.56
9/19/2021 10:30:00 PM 17.86 64.148 0.418 7.77 21.79 8.55
9/19/2021 10:45:00 PM 17.81 64.058 0.419 7.77 21.43 8.54
9/19/2021 11:00:00 PM 17.77 63.986 0.418 7.77 22.29 8.53
9/19/2021 11:15:00 PM 17.73 63.914 0.418 7.77 21.33 8.53
9/19/2021 11:30:00 PM 17.68 63.824 0.418 7.77 36.89 8.53
9/19/2021 11:45:00 PM 17.64 63.752 0.418 7.77 22.2 8.53
9/20/2021 12:00:00 AM 17.59 63.662 0.418 7.77 23.1 8.54
9/20/2021 12:15:00 AM 17.54 63.572 0.418 7.77 22.17 8.53
9/20/2021 12:30:00 AM 17.49 63.482 0.419 7.76 22.22 8.53
9/20/2021 12:45:00 AM 17.44 63.392 0.418 7.76 22.23 8.53
9/20/2021 1:00:00 AM 17.39 63.302 0.418 7.76 22.86 8.54
9/20/2021 1:15:00 AM 17.35 63.23 0.418 7.76 22.43 8.54
9/20/2021 1:30:00 AM 17.3 63.14 0.418 7.76 23.38 8.54
9/20/2021 1:45:00 AM 17.25 63.05 0.418 7.76 22 8.56
9/20/2021 2:00:00 AM 17.2 62.96 0.418 7.76 22.1 8.55
9/20/2021 2:15:00 AM 17.15 62.87 0.418 7.76 23.03 8.56
9/20/2021 2:30:00 AM 17.11 62.798 0.419 7.76 23.19 8.57
9/20/2021 2:45:00 AM 17.06 62.708 0.418 7.76 21.69 8.58
9/20/2021 3:00:00 AM 17.02 62.636 0.418 7.76 23.11 8.58
9/20/2021 3:15:00 AM 16.97 62.546 0.418 7.76 23.23 8.59
9/20/2021 3:30:00 AM 16.93 62.474 0.418 7.76 22.93 8.59
9/20/2021 3:45:00 AM 16.88 62.384 0.418 7.76 22.55 8.6
9/20/2021 4:00:00 AM 16.84 62.312 0.418 7.76 23.2 8.6
9/20/2021 4:15:00 AM 16.8 62.24 0.418 7.76 22.57 8.61
9/20/2021 4:30:00 AM 16.76 62.168 0.418 7.76 22.69 8.61
9/20/2021 4:45:00 AM 16.72 62.096 0.418 7.76 23.58 8.62
9/20/2021 5:00:00 AM 16.67 62.006 0.419 7.76 25.16 8.63
9/20/2021 5:15:00 AM 16.63 61.934 0.419 7.76 24.48 8.63
9/20/2021 5:30:00 AM 16.58 61.844 0.419 7.75 23.34 8.65
9/20/2021 5:45:00 AM 16.54 61.772 0.419 7.76 23.71 8.66
9/20/2021 6:00:00 AM 16.5 61.7 0.419 7.76 23.4 8.66
9/20/2021 6:15:00 AM 16.45 61.61 0.419 7.76 23.03 8.68
9/20/2021 6:30:00 AM 16.41 61.538 0.419 7.76 23.24 8.68
9/20/2021 6:45:00 AM 16.36 61.448 0.419 7.76 23.32 8.7
9/20/2021 7:00:00 AM 16.32 61.376 0.419 7.75 23.24 8.7
9/20/2021 7:15:00 AM 16.28 61.304 0.419 7.75 22.95 8.71
9/20/2021 7:30:00 AM 16.24 61.232 0.419 7.76 22.73 8.74
9/20/2021 7:45:00 AM 16.21 61.178 0.419 7.76 22.48 8.76
9/20/2021 8:00:00 AM 16.19 61.142 0.419 7.76 22.4 8.78
9/20/2021 8:15:00 AM 16.17 61.106 0.419 7.76 22.95 8.8
9/20/2021 8:30:00 AM 16.17 61.106 0.419 7.76 22.61 8.84
9/20/2021 8:45:00 AM 16.17 61.106 0.419 7.77 22.09 8.88
9/20/2021 9:00:00 AM 16.19 61.142 0.419 7.77 22.34 8.92
9/20/2021 9:15:00 AM 16.2 61.16 0.419 7.77 23.98 8.96
9/20/2021 9:30:00 AM 16.22 61.196 0.419 7.78 22.81 9.01
9/20/2021 9:45:00 AM 16.25 61.25 0.419 7.78 23.76 9.06
9/20/2021 10:00:00 AM 16.28 61.304 0.419 7.79 22.37 9.12
9/20/2021 10:15:00 AM 16.32 61.376 0.419 7.79 22.24 9.19
9/20/2021 10:30:00 AM 16.36 61.448 0.419 7.8 22.33 9.25
9/20/2021 10:45:00 AM 16.41 61.538 0.419 7.81 22.48 9.32
9/20/2021 11:00:00 AM 16.47 61.646 0.419 7.81 22.44 9.39
9/20/2021 11:15:00 AM 16.54 61.772 0.419 7.82 22.57 9.46
9/20/2021 11:30:00 AM 16.61 61.898 0.419 7.83 22.5 9.52
9/20/2021 11:45:00 AM 16.7 62.06 0.419 7.84 22.3 9.6
9/20/2021 12:00:00 PM 16.8 62.24 0.419 7.84 22.38 9.67
9/20/2021 12:15:00 PM 16.91 62.438 0.419 7.85 22.48 9.76
9/20/2021 12:30:00 PM 16.98 62.564 0.419 7.86 22.38 9.81
9/20/2021 12:45:00 PM 17.08 62.744 0.419 7.87 22.12 9.88
9/20/2021 1:00:00 PM 17.18 62.924 0.419 7.87 22.54 9.92
9/20/2021 1:15:00 PM 17.31 63.158 0.419 7.88 22.05 9.98
9/20/2021 1:30:00 PM 17.42 63.356 0.419 7.89 22.3 10.03
9/20/2021 1:45:00 PM 17.51 63.518 0.419 7.9 22.51 10.06
9/20/2021 2:00:00 PM 17.57 63.626 0.418 7.9 22.22 10.08
9/20/2021 2:15:00 PM 17.64 63.752 0.418 7.91 22.28 10.09
9/20/2021 2:30:00 PM 17.69 63.842 0.418 7.91 23.64 10.1
9/20/2021 2:45:00 PM 17.71 63.878 0.418 7.91 22.52 10.09
9/20/2021 3:00:00 PM 17.73 63.914 0.418 7.91 22.29 10.08
9/20/2021 3:15:00 PM 17.74 63.932 0.418 7.91 22.42 10.05
9/20/2021 3:30:00 PM 17.74 63.932 0.418 7.91 22.7 10.02
9/20/2021 3:45:00 PM 17.75 63.95 0.418 7.91 22.02 9.99
9/20/2021 4:00:00 PM 17.74 63.932 0.418 7.91 22.23 9.94
9/20/2021 4:15:00 PM 17.74 63.932 0.418 7.9 22.42 9.9
9/20/2021 4:30:00 PM 17.7 63.86 0.419 7.9 22.72 9.81
9/20/2021 4:45:00 PM 17.69 63.842 0.419 7.89 22.42 9.78
9/20/2021 5:00:00 PM 17.68 63.824 0.419 7.89 22.54 9.73
9/20/2021 5:15:00 PM 17.64 63.752 0.419 7.88 22.35 9.64
9/20/2021 5:30:00 PM 17.62 63.716 0.419 7.87 22.55 9.58
9/20/2021 5:45:00 PM 17.6 63.68 0.419 7.87 22.24 9.51
9/20/2021 6:00:00 PM 17.59 63.662 0.419 7.86 22.7 9.46
9/20/2021 6:15:00 PM 17.58 63.644 0.419 7.86 22.19 9.42
9/20/2021 6:30:00 PM 17.58 63.644 0.419 7.85 22.35 9.4
9/20/2021 6:45:00 PM 17.57 63.626 0.419 7.85 22.65 9.35
9/20/2021 7:00:00 PM 17.55 63.59 0.419 7.84 22.53 9.29
9/20/2021 7:15:00 PM 17.52 63.536 0.419 7.84 22.73 9.22
9/20/2021 7:30:00 PM 17.48 63.464 0.419 7.83 22.57 9.16
9/20/2021 7:45:00 PM 17.44 63.392 0.419 7.83 22.7 9.11
9/20/2021 8:00:00 PM 17.4 63.32 0.42 7.82 23.73 9.04
9/20/2021 8:15:00 PM 17.37 63.266 0.419 7.81 23.01 9
9/20/2021 8:30:00 PM 17.33 63.194 0.42 7.81 22.9 8.97
9/20/2021 8:45:00 PM 17.3 63.14 0.42 7.81 22.72 8.94
9/20/2021 9:00:00 PM 17.26 63.068 0.42 7.8 22.8 8.92
9/20/2021 9:15:00 PM 17.23 63.014 0.42 7.8 23 8.89
9/20/2021 9:30:00 PM 17.21 62.978 0.42 7.8 23.01 8.87
9/20/2021 9:45:00 PM 17.19 62.942 0.42 7.79 23.02 8.85
9/20/2021 10:00:00 PM 17.18 62.924 0.42 7.79 22.77 8.83
9/20/2021 10:15:00 PM 17.16 62.888 0.42 7.79 22.88 8.81
9/20/2021 10:30:00 PM 17.14 62.852 0.421 7.79 22.85 8.79
9/20/2021 10:45:00 PM 17.13 62.834 0.421 7.79 23.2 8.76
9/20/2021 11:00:00 PM 17.11 62.798 0.421 7.79 23.49 8.75
9/20/2021 11:15:00 PM 17.09 62.762 0.421 7.78 23.59 8.73
9/20/2021 11:30:00 PM 17.07 62.726 0.421 7.78 23.46 8.72
9/20/2021 11:45:00 PM 17.04 62.672 0.421 7.78 23.49 8.71
9/21/2021 12:00:00 AM 17.01 62.618 0.421 7.78 23.44 8.71
9/21/2021 12:15:00 AM 16.98 62.564 0.421 7.78 23.18 8.7
9/21/2021 12:30:00 AM 16.95 62.51 0.421 7.78 23.83 8.69
9/21/2021 12:45:00 AM 16.92 62.456 0.421 7.78 23.44 8.69
9/21/2021 1:00:00 AM 16.89 62.402 0.421 7.78 23.14 8.69
9/21/2021 1:15:00 AM 16.85 62.33 0.421 7.77 23.79 8.69
9/21/2021 1:30:00 AM 16.8 62.24 0.421 7.77 23.24 8.69
9/21/2021 1:45:00 AM 16.76 62.168 0.421 7.77 23.62 8.69
9/21/2021 2:00:00 AM 16.72 62.096 0.421 7.77 25.55 8.69
9/21/2021 2:15:00 AM 16.68 62.024 0.421 7.77 24.13 8.69
9/21/2021 2:30:00 AM 16.65 61.97 0.421 7.77 24.17 8.69
9/21/2021 2:45:00 AM 16.62 61.916 0.421 7.77 23.71 8.69
9/21/2021 3:00:00 AM 16.59 61.862 0.421 7.77 23.03 8.69
9/21/2021 3:15:00 AM 16.56 61.808 0.421 7.77 23.67 8.7
9/21/2021 3:30:00 AM 16.53 61.754 0.421 7.77 23.73 8.69
9/21/2021 3:45:00 AM 16.51 61.718 0.421 7.77 23.77 8.7
9/21/2021 4:00:00 AM 16.49 61.682 0.421 7.77 23.26 8.69
9/21/2021 4:15:00 AM 16.47 61.646 0.421 7.77 23.45 8.69
9/21/2021 4:30:00 AM 16.45 61.61 0.421 7.77 23.56 8.7
9/21/2021 4:45:00 AM 16.43 61.574 0.42 7.77 24.48 8.71
9/21/2021 5:00:00 AM 16.4 61.52 0.421 7.77 25.69 8.71
9/21/2021 5:15:00 AM 16.37 61.466 0.42 7.77 23.65 8.71
9/21/2021 5:30:00 AM 16.34 61.412 0.421 7.77 23.89 8.71
9/21/2021 5:45:00 AM 16.32 61.376 0.421 7.77 23.88 8.72
9/21/2021 6:00:00 AM 16.3 61.34 0.421 7.77 24.36 8.72
9/21/2021 6:15:00 AM 16.28 61.304 0.421 7.77 24.86 8.72
9/21/2021 6:30:00 AM 16.26 61.268 0.421 7.76 23.86 8.73
9/21/2021 6:45:00 AM 16.24 61.232 0.421 7.77 23.89 8.73
9/21/2021 7:00:00 AM 16.23 61.214 0.42 7.76 24.19 8.74
9/21/2021 7:15:00 AM 16.22 61.196 0.42 7.76 24.34 8.74
9/21/2021 7:30:00 AM 16.21 61.178 0.42 7.77 23.82 8.75
9/21/2021 7:45:00 AM 16.21 61.178 0.42 7.77 24.22 8.77
9/21/2021 8:00:00 AM 16.21 61.178 0.42 7.77 24.11 8.82
9/21/2021 8:15:00 AM 16.22 61.196 0.42 7.77 24.82 8.85
9/21/2021 8:30:00 AM 16.23 61.214 0.421 7.78 23.65 8.91
9/21/2021 8:45:00 AM 16.25 61.25 0.42 7.78 23.85 8.98
9/21/2021 9:00:00 AM 16.27 61.286 0.421 7.79 24.63 9.05
9/21/2021 9:15:00 AM 16.28 61.304 0.42 7.8 23.61 9.12
9/21/2021 9:30:00 AM 16.3 61.34 0.42 7.8 24.08 9.19
9/21/2021 9:45:00 AM 16.33 61.394 0.42 7.81 24.13 9.29
9/21/2021 10:00:00 AM 16.36 61.448 0.42 7.82 23.89 9.36
9/21/2021 10:15:00 AM 16.4 61.52 0.42 7.83 23.62 9.47
9/21/2021 10:30:00 AM 16.45 61.61 0.42 7.83 23.8 9.56
9/21/2021 10:45:00 AM 16.52 61.736 0.42 7.84 23.61 9.65
9/21/2021 11:00:00 AM 16.6 61.88 0.42 7.86 23.6 9.79
9/21/2021 11:15:00 AM 16.68 62.024 0.42 7.86 26.25 9.83
9/21/2021 11:30:00 AM 16.75 62.15 0.42 7.88 27.86 9.97
9/21/2021 11:45:00 AM 16.82 62.276 0.42 7.89 24.78 10.04
9/21/2021 12:00:00 PM 16.9 62.42 0.42 7.9 26.52 10.12
9/21/2021 12:15:00 PM 16.97 62.546 0.42 7.91 25.31 10.2
9/21/2021 12:30:00 PM 17.04 62.672 0.419 7.92 25.67 10.27
9/21/2021 12:45:00 PM 17.1 62.78 0.42 7.93 23.69 10.35
9/21/2021 1:00:00 PM 17.16 62.888 0.419 7.94 23.58 10.42
9/21/2021 1:15:00 PM 17.19 62.942 0.419 7.94 23.72 10.42
9/21/2021 1:30:00 PM 17.27 63.086 0.419 7.95 24.54 10.5
9/21/2021 1:45:00 PM 17.36 63.248 0.419 7.96 23.58 10.53
9/21/2021 2:00:00 PM 17.45 63.41 0.42 7.96 29.3 10.56
9/21/2021 2:15:00 PM 17.52 63.536 0.419 7.96 24.64 10.54
9/21/2021 2:30:00 PM 17.54 63.572 0.419 7.96 23.8 10.49
9/21/2021 2:45:00 PM 17.54 63.572 0.419 7.96 26.36 10.44
9/21/2021 3:00:00 PM 17.53 63.554 0.419 7.95 23.56 10.36
9/21/2021 3:15:00 PM 17.55 63.59 0.419 7.95 23.27 10.37
9/21/2021 3:30:00 PM 17.62 63.716 0.42 7.96 24.1 10.39
9/21/2021 3:45:00 PM 17.67 63.806 0.419 7.96 23.94 10.4
9/21/2021 4:00:00 PM 17.69 63.842 0.419 7.96 24.46 10.4
9/21/2021 4:15:00 PM 17.73 63.914 0.419 7.96 24.37 10.35
9/21/2021 4:30:00 PM 17.76 63.968 0.419 7.96 24.18 10.28
9/21/2021 4:45:00 PM 17.75 63.95 0.419 7.95 24.06 10.17
9/21/2021 5:00:00 PM 17.74 63.932 0.419 7.94 24.09 10.06
9/21/2021 5:15:00 PM 17.73 63.914 0.42 7.93 24.21 9.94
9/21/2021 5:30:00 PM 17.7 63.86 0.42 7.92 24.27 9.82
9/21/2021 5:45:00 PM 17.67 63.806 0.42 7.91 23.97 9.72
9/21/2021 6:00:00 PM 17.63 63.734 0.42 7.9 23.87 9.61
9/21/2021 6:15:00 PM 17.61 63.698 0.42 7.89 24.43 9.54
9/21/2021 6:30:00 PM 17.6 63.68 0.42 7.88 24.09 9.49
9/21/2021 6:45:00 PM 17.58 63.644 0.42 7.87 23.97 9.42
9/21/2021 7:00:00 PM 17.57 63.626 0.42 7.86 23.85 9.35
9/21/2021 7:15:00 PM 17.56 63.608 0.42 7.86 24.03 9.29
9/21/2021 7:30:00 PM 17.54 63.572 0.42 7.85 25.36 9.22
9/21/2021 7:45:00 PM 17.53 63.554 0.42 7.84 26.13 9.16
9/21/2021 8:00:00 PM 17.51 63.518 0.42 7.83 24.22 9.11
9/21/2021 8:15:00 PM 17.49 63.482 0.421 7.83 25.09 9.05
9/21/2021 8:30:00 PM 17.47 63.446 0.421 7.82 25.36 9
9/21/2021 8:45:00 PM 17.46 63.428 0.421 7.82 35.49 8.96
9/21/2021 9:00:00 PM 17.45 63.41 0.421 7.81 24.39 8.92
9/21/2021 9:15:00 PM 17.43 63.374 0.421 7.81 24.25 8.89
9/21/2021 9:30:00 PM 17.41 63.338 0.421 7.8 24.73 8.85
9/21/2021 9:45:00 PM 17.4 63.32 0.421 7.8 24.26 8.82
9/21/2021 10:00:00 PM 17.38 63.284 0.421 7.79 24.63 8.78
9/21/2021 10:15:00 PM 17.37 63.266 0.421 7.79 25.16 8.75
9/21/2021 10:30:00 PM 17.36 63.248 0.421 7.79 24.66 8.73
9/21/2021 10:45:00 PM 17.35 63.23 0.421 7.78 25.44 8.7
9/21/2021 11:00:00 PM 17.34 63.212 0.421 7.78 24.99 8.67
9/21/2021 11:15:00 PM 17.32 63.176 0.421 7.78 24.83 8.66
9/21/2021 11:30:00 PM 17.31 63.158 0.421 7.78 27.99 8.64
9/21/2021 11:45:00 PM 17.3 63.14 0.421 7.78 24.39 8.62
9/22/2021 12:00:00 AM 17.29 63.122 0.421 7.77 24.58 8.61
9/22/2021 12:15:00 AM 17.29 63.122 0.421 7.77 24.67 8.6
9/22/2021 12:30:00 AM 17.28 63.104 0.421 7.77 31.63 8.58
9/22/2021 12:45:00 AM 17.28 63.104 0.421 7.77 25.01 8.57
9/22/2021 1:00:00 AM 17.28 63.104 0.421 7.76 26.74 8.56
9/22/2021 1:15:00 AM 17.28 63.104 0.421 7.76 25.3 8.55
9/22/2021 1:30:00 AM 17.28 63.104 0.421 7.76 25.19 8.54
9/22/2021 1:45:00 AM 17.28 63.104 0.421 7.76 25.33 8.53
9/22/2021 2:00:00 AM 17.28 63.104 0.421 7.76 25.84 8.53
9/22/2021 2:15:00 AM 17.27 63.086 0.421 7.76 25.44 8.52
9/22/2021 2:30:00 AM 17.27 63.086 0.421 7.76 25.37 8.51
9/22/2021 2:45:00 AM 17.27 63.086 0.421 7.76 25.14 8.51
9/22/2021 3:00:00 AM 17.27 63.086 0.421 7.76 28.86 8.5
9/22/2021 3:15:00 AM 17.27 63.086 0.421 7.76 25.28 8.49
9/22/2021 3:30:00 AM 17.26 63.068 0.421 7.76 25.05 8.48
9/22/2021 3:45:00 AM 17.26 63.068 0.421 7.76 25.3 8.47
9/22/2021 4:00:00 AM 17.26 63.068 0.421 7.76 25.46 8.48
9/22/2021 4:15:00 AM 17.25 63.05 0.421 7.76 25.13 8.47
9/22/2021 4:30:00 AM 17.25 63.05 0.421 7.76 26.02 8.46
9/22/2021 4:45:00 AM 17.24 63.032 0.42 7.76 25.94 8.46
9/22/2021 5:00:00 AM 17.24 63.032 0.421 7.76 27.09 8.46
9/22/2021 5:15:00 AM 17.24 63.032 0.421 7.76 26.59 8.45
9/22/2021 5:30:00 AM 17.24 63.032 0.421 7.76 25.88 8.45
9/22/2021 5:45:00 AM 17.24 63.032 0.421 7.75 37.51 8.45
9/22/2021 6:00:00 AM 17.25 63.05 0.42 7.76 27.98 8.45
9/22/2021 6:15:00 AM 17.26 63.068 0.421 7.76 29.13 8.44
9/22/2021 6:30:00 AM 17.26 63.068 0.421 7.76 27.93 8.44
9/22/2021 6:45:00 AM 17.26 63.068 0.42 7.76 29.09 8.44
9/22/2021 7:00:00 AM 17.26 63.068 0.421 7.76 29.71 8.43
9/22/2021 7:15:00 AM 17.27 63.086 0.42 7.76 28.73 8.44
9/22/2021 7:30:00 AM 17.27 63.086 0.42 7.76 34.09 8.44
9/22/2021 7:45:00 AM 17.28 63.104 0.42 7.76 28.84 8.45
9/22/2021 8:00:00 AM 17.29 63.122 0.42 7.76 33.51 8.47
9/22/2021 8:15:00 AM 17.3 63.14 0.42 7.76 31.39 8.5
9/22/2021 8:30:00 AM 17.31 63.158 0.42 7.77 29.9 8.53
9/22/2021 8:45:00 AM 17.33 63.194 0.42 7.77 30.28 8.56
9/22/2021 9:00:00 AM 17.35 63.23 0.42 7.78 30.19 8.61
9/22/2021 9:15:00 AM 17.38 63.284 0.42 7.78 30 8.69
9/22/2021 9:30:00 AM 17.43 63.374 0.42 7.79 29.38 8.77
9/22/2021 9:45:00 AM 17.46 63.428 0.42 7.8 31.19 8.84
9/22/2021 10:00:00 AM 17.49 63.482 0.42 7.8 30.87 8.89
9/22/2021 10:15:00 AM 17.51 63.518 0.42 7.8 31.01 8.89
9/22/2021 10:30:00 AM 17.54 63.572 0.42 7.81 31.21 8.94
9/22/2021 10:45:00 AM 17.58 63.644 0.42 7.79 9.05 9
9/22/2021 11:00:00 AM 17.62 63.716 0.42 7.82 8.17 9.1
9/22/2021 11:15:00 AM 17.65 63.77 0.42 7.82 5.49 9.17
9/22/2021 11:30:00 AM 17.7 63.86 0.42 7.84 6.51 9.3
9/22/2021 11:45:00 AM 17.76 63.968 0.42 7.85 5.5 9.39
9/22/2021 12:00:00 PM 17.81 64.058 0.42 7.85 4.58 9.45
9/22/2021 12:15:00 PM 17.85 64.13 0.42 7.86 4.42 9.53
9/22/2021 12:30:00 PM 17.89 64.202 0.42 7.87 4.06 9.55
9/22/2021 12:45:00 PM 17.93 64.274 0.419 7.87 4.34 9.58
9/22/2021 1:00:00 PM 17.97 64.346 0.419 7.88 4.08 9.66
9/22/2021 1:15:00 PM 17.98 64.364 0.419 7.88 4.03 9.63
9/22/2021 1:30:00 PM 18 64.4 0.419 7.88 4.33 9.62
9/22/2021 1:45:00 PM 18.01 64.418 0.419 7.88 6.31 9.54
9/22/2021 2:00:00 PM 18.04 64.472 0.419 7.88 6.55 9.59
9/22/2021 2:15:00 PM 18.06 64.508 0.418 7.89 5.57 9.59
9/22/2021 2:30:00 PM 18.09 64.562 0.418 7.89 6.18 9.68
9/22/2021 2:45:00 PM 18.1 64.58 0.419 7.89 5.72 9.65
9/22/2021 3:00:00 PM 18.1 64.58 0.419 7.89 5.27 9.58
9/22/2021 3:15:00 PM 18.1 64.58 0.419 7.89 5.46 9.56
9/22/2021 3:30:00 PM 18.12 64.616 0.418 7.89 6.02 9.53
9/22/2021 3:45:00 PM 18.13 64.634 0.419 7.89 7.05 9.51
9/22/2021 4:00:00 PM 18.15 64.67 0.419 7.89 4.61 9.53
9/22/2021 4:15:00 PM 18.17 64.706 0.419 7.9 4.13 9.52
9/22/2021 4:30:00 PM 18.19 64.742 0.419 7.9 4.04 9.52
9/22/2021 4:45:00 PM 18.22 64.796 0.418 7.9 4.07 9.52
9/22/2021 5:00:00 PM 18.26 64.868 0.418 7.9 4.36 9.52
9/22/2021 5:15:00 PM 18.29 64.922 0.418 7.9 4.23 9.45
9/22/2021 5:30:00 PM 18.31 64.958 0.418 7.89 4.11 9.39
9/22/2021 5:45:00 PM 18.31 64.958 0.418 7.88 4.24 9.26
9/22/2021 6:00:00 PM 18.3 64.94 0.418 7.87 4.23 9.17
9/22/2021 6:15:00 PM 18.3 64.94 0.418 7.86 4.4 9.09
9/22/2021 6:30:00 PM 18.3 64.94 0.418 7.86 4.59 9.03
9/22/2021 6:45:00 PM 18.3 64.94 0.417 7.85 4.4 8.96
9/22/2021 7:00:00 PM 18.29 64.922 0.417 7.84 4.71 8.9
9/22/2021 7:15:00 PM 18.29 64.922 0.417 7.84 4.55 8.85
9/22/2021 7:30:00 PM 18.3 64.94 0.417 7.84 4.63 8.8
9/22/2021 7:45:00 PM 18.31 64.958 0.418 7.83 5.13 8.75
9/22/2021 8:00:00 PM 18.32 64.976 0.416 7.83 4.93 8.71
9/22/2021 8:15:00 PM 18.32 64.976 0.415 7.82 5.31 8.65
9/22/2021 8:30:00 PM 18.31 64.958 0.415 7.81 5.28 8.61
9/22/2021 8:45:00 PM 18.29 64.922 0.415 7.8 7.56 8.57
9/22/2021 9:00:00 PM 18.27 64.886 0.415 7.8 5.88 8.55
9/22/2021 9:15:00 PM 18.26 64.868 0.416 7.8 4.99 8.51
9/22/2021 9:30:00 PM 18.25 64.85 0.415 7.8 4.94 8.49
9/22/2021 9:45:00 PM 18.24 64.832 0.416 7.8 5.01 8.46
9/22/2021 10:00:00 PM 18.24 64.832 0.416 7.8 5.67 8.44
9/22/2021 10:15:00 PM 18.25 64.85 0.416 7.79 5 8.41
9/22/2021 10:30:00 PM 18.26 64.868 0.416 7.79 5.21 8.4
9/22/2021 10:45:00 PM 18.27 64.886 0.416 7.79 5.52 8.37
9/22/2021 11:00:00 PM 18.29 64.922 0.415 7.79 5.39 8.34
9/22/2021 11:15:00 PM 18.29 64.922 0.415 7.79 5.6 8.32
9/22/2021 11:30:00 PM 18.3 64.94 0.414 7.79 6.22 8.31
9/22/2021 11:45:00 PM 18.31 64.958 0.414 7.79 5.66 8.29
9/23/2021 12:00:00 AM 18.32 64.976 0.414 7.79 6.04 8.28
9/23/2021 12:15:00 AM 18.33 64.994 0.414 7.79 5.52 8.27
9/23/2021 12:30:00 AM 18.34 65.012 0.414 7.79 5.55 8.26
9/23/2021 12:45:00 AM 18.35 65.03 0.414 7.79 5.84 8.24
9/23/2021 1:00:00 AM 18.36 65.048 0.413 7.78 6.13 8.24
9/23/2021 1:15:00 AM 18.37 65.066 0.413 7.78 5.76 8.23
9/23/2021 1:30:00 AM 18.38 65.084 0.413 7.78 5.9 8.22
9/23/2021 1:45:00 AM 18.4 65.12 0.413 7.79 5.72 8.21
9/23/2021 2:00:00 AM 18.41 65.138 0.413 7.78 5.61 8.21
9/23/2021 2:15:00 AM 18.41 65.138 0.412 7.78 5.87 8.2
9/23/2021 2:30:00 AM 18.42 65.156 0.413 7.78 6.14 8.19
9/23/2021 2:45:00 AM 18.43 65.174 0.412 7.78 6.12 8.18
9/23/2021 3:00:00 AM 18.44 65.192 0.412 7.78 5.85 8.17
9/23/2021 3:15:00 AM 18.44 65.192 0.412 7.78 5.61 8.17
9/23/2021 3:30:00 AM 18.44 65.192 0.412 7.78 5.91 8.16
9/23/2021 3:45:00 AM 18.45 65.21 0.412 7.78 6.91 8.14
9/23/2021 4:00:00 AM 18.46 65.228 0.412 7.78 6.42 8.15
9/23/2021 4:15:00 AM 18.47 65.246 0.412 7.78 11.74 8.13
9/23/2021 4:30:00 AM 18.48 65.264 0.411 7.78 7.28 8.14
9/23/2021 4:45:00 AM 18.49 65.282 0.411 7.78 5.98 8.13
9/23/2021 5:00:00 AM 18.49 65.282 0.411 7.78 6.84 8.13
9/23/2021 5:15:00 AM 18.5 65.3 0.411 7.78 6.98 8.13
9/23/2021 5:30:00 AM 18.5 65.3 0.411 7.78 6.43 8.12
9/23/2021 5:45:00 AM 18.51 65.318 0.411 7.78 10.77 8.12
9/23/2021 6:00:00 AM 18.51 65.318 0.411 7.78 7.08 8.11
9/23/2021 6:15:00 AM 18.51 65.318 0.411 7.78 8.12 8.11
9/23/2021 6:30:00 AM 18.52 65.336 0.411 7.78 6.69 8.11
9/23/2021 6:45:00 AM 18.53 65.354 0.41 7.78 7.12 8.1
9/23/2021 7:00:00 AM 18.54 65.372 0.408 7.78 9.21 8.07
9/23/2021 7:15:00 AM 18.6 65.48 0.399 7.79 22.91 8.14
9/23/2021 7:30:00 AM 18.56 65.408 0.38 7.82 33.76 8.29
9/23/2021 7:45:00 AM 18.49 65.282 0.376 7.83 25.39 8.36
9/23/2021 8:00:00 AM 18.34 65.012 0.371 7.83 36.63 8.4
9/23/2021 8:15:00 AM 18.35 65.03 0.356 7.81 33.5 8.33
9/23/2021 8:30:00 AM 18.31 64.958 0.347 7.78 47.25 8.28
9/23/2021 8:45:00 AM 18.36 65.048 0.325 7.77 69.78 8.28
9/23/2021 9:00:00 AM 18.48 65.264 0.327 7.77 54.53 8.29
9/23/2021 9:15:00 AM 18.6 65.48 0.304 7.77 74.64 8.36
9/23/2021 9:30:00 AM 18.63 65.534 0.253 7.72 160.8 8.34
9/23/2021 9:45:00 AM 18.59 65.462 0.255 7.74 262.55 8.17
9/23/2021 10:00:00 AM 18.5 65.3 0.256 7.72 252.42 8.14
9/23/2021 10:15:00 AM 18.43 65.174 0.245 7.68 256.22 8.18
9/23/2021 10:30:00 AM 18.44 65.192 0.23 7.64 307.32 8.18
9/23/2021 10:45:00 AM 18.45 65.21 0.219 7.49 324.51 8.13
9/23/2021 11:00:00 AM 18.49 65.282 0.221 7.5 324.51 8.09
9/23/2021 11:15:00 AM 18.52 65.336 0.217 7.49 390.31 8
9/23/2021 11:30:00 AM 18.55 65.39 0.206 7.49 371.28 7.9
9/23/2021 11:45:00 AM 18.52 65.336 0.198 7.47 384.66 7.86
9/23/2021 12:00:00 PM 18.47 65.246 0.188 7.43 367.91 7.84
9/23/2021 12:15:00 PM 18.42 65.156 0.18 7.4 336.99 7.8
9/23/2021 12:30:00 PM 18.38 65.084 0.175 7.38 311.61 7.73
9/23/2021 12:45:00 PM 18.36 65.048 0.173 7.37 305.25 7.67
9/23/2021 1:00:00 PM 18.35 65.03 0.171 7.38 262.98 7.63
9/23/2021 1:15:00 PM 18.33 64.994 0.168 7.37 245.65 7.62
9/23/2021 1:30:00 PM 18.33 64.994 0.167 7.36 230.71 7.6
9/23/2021 1:45:00 PM 18.33 64.994 0.164 7.35 214.13 7.57
9/23/2021 2:00:00 PM 18.34 65.012 0.163 7.34 197.09 7.54
9/23/2021 2:15:00 PM 18.38 65.084 0.162 7.34 194.14 7.51
9/23/2021 2:30:00 PM 18.42 65.156 0.16 7.34 172.7 7.47
9/23/2021 2:45:00 PM 18.46 65.228 0.159 7.33 175.83 7.44
9/23/2021 3:00:00 PM 18.5 65.3 0.157 7.33 166.68 7.42
9/23/2021 3:15:00 PM 18.54 65.372 0.156 7.32 156.69 7.4
9/23/2021 3:30:00 PM 18.58 65.444 0.156 7.33 139.39 7.38
9/23/2021 3:45:00 PM 18.63 65.534 0.156 7.32 129.81 7.38
9/23/2021 4:00:00 PM 18.66 65.588 0.156 7.33 136.67 7.39
9/23/2021 4:15:00 PM 18.7 65.66 0.157 7.33 113.64 7.39
9/23/2021 4:30:00 PM 18.74 65.732 0.158 7.34 93.33 7.41
9/23/2021 4:45:00 PM 18.78 65.804 0.159 7.34 112.22 7.43
9/23/2021 5:00:00 PM 18.84 65.912 0.16 7.35 100.71 7.45
9/23/2021 5:15:00 PM 18.88 65.984 0.162 7.34 99.45 7.48
9/23/2021 5:30:00 PM 18.92 66.056 0.164 7.34 98.11 7.5
9/23/2021 5:45:00 PM 18.95 66.11 0.167 7.34 92.64 7.52
9/23/2021 6:00:00 PM 18.96 66.128 0.17 7.34 91.8 7.53
9/23/2021 6:15:00 PM 18.97 66.146 0.174 7.34 90.62 7.54
9/23/2021 6:30:00 PM 18.96 66.128 0.179 7.34 86.92 7.57
9/23/2021 6:45:00 PM 18.92 66.056 0.185 7.33 87.59 7.59
9/23/2021 7:00:00 PM 18.88 65.984 0.19 7.34 88.54 7.64
9/23/2021 7:15:00 PM 18.83 65.894 0.197 7.34 89.77 7.68
9/23/2021 7:30:00 PM 18.77 65.786 0.203 7.35 102.93 7.75
9/23/2021 7:45:00 PM 18.71 65.67799 0.209 7.36 82.66 7.79
9/23/2021 8:00:00 PM 18.65 65.57 0.214 7.36 86.95 7.84
9/23/2021 8:15:00 PM 18.59 65.462 0.22 7.37 87.39 7.88
9/23/2021 8:30:00 PM 18.52 65.336 0.225 7.38 87.08 7.91
9/23/2021 8:45:00 PM 18.47 65.246 0.23 7.38 83.55 7.95
9/23/2021 9:00:00 PM 18.4 65.12 0.234 7.39 80.46 7.98
9/23/2021 9:15:00 PM 18.33 64.994 0.239 7.4 77.45 8.01
9/23/2021 9:30:00 PM 18.26 64.868 0.243 7.4 75.9 8.04
9/23/2021 9:45:00 PM 18.2 64.76 0.247 7.41 75.48 8.07
9/23/2021 10:00:00 PM 18.13 64.634 0.251 7.41 69.92 8.1
9/23/2021 10:15:00 PM 18.06 64.508 0.255 7.43 68.05 8.13
9/23/2021 10:30:00 PM 17.99 64.382 0.258 7.43 65.38 8.16
9/23/2021 10:45:00 PM 17.92 64.256 0.261 7.44 64.01 8.18
9/23/2021 11:00:00 PM 17.84 64.112 0.265 7.43 61.56 8.21
9/23/2021 11:15:00 PM 17.77 63.986 0.267 7.44 67.38 8.24
9/23/2021 11:30:00 PM 17.7 63.86 0.27 7.45 56.96 8.27
9/23/2021 11:45:00 PM 17.62 63.716 0.273 7.45 56.83 8.3
9/24/2021 12:00:00 AM 17.55 63.59 0.276 7.46 54.3 8.32
9/24/2021 12:15:00 AM 17.48 63.464 0.278 7.46 52.02 8.35
9/24/2021 12:30:00 AM 17.41 63.338 0.28 7.46 50.88 8.37
9/24/2021 12:45:00 AM 17.33 63.194 0.283 7.47 49.9 8.4
9/24/2021 1:00:00 AM 17.26 63.068 0.285 7.47 49.2 8.43
9/24/2021 1:15:00 AM 17.18 62.924 0.287 7.48 47.39 8.45
9/24/2021 1:30:00 AM 17.11 62.798 0.289 7.48 46.9 8.48
9/24/2021 1:45:00 AM 17.04 62.672 0.291 7.48 44.17 8.5
9/24/2021 2:00:00 AM 16.97 62.546 0.293 7.49 43.84 8.53
9/24/2021 2:15:00 AM 16.9 62.42 0.294 7.49 42.17 8.55
9/24/2021 2:30:00 AM 16.83 62.294 0.296 7.5 41.92 8.57
9/24/2021 2:45:00 AM 16.76 62.168 0.298 7.5 38.37 8.59
9/24/2021 3:00:00 AM 16.69 62.042 0.299 7.5 38.87 8.62
9/24/2021 3:15:00 AM 16.62 61.916 0.301 7.5 37.66 8.64
9/24/2021 3:30:00 AM 16.55 61.79 0.302 7.51 37.43 8.66
9/24/2021 3:45:00 AM 16.49 61.682 0.303 7.51 36.44 8.69
9/24/2021 4:00:00 AM 16.42 61.556 0.304 7.51 36.42 8.72
9/24/2021 4:15:00 AM 16.35 61.43 0.306 7.52 33.27 8.74
9/24/2021 4:30:00 AM 16.29 61.322 0.307 7.52 35.37 8.76
9/24/2021 4:45:00 AM 16.22 61.196 0.308 7.52 32.21 8.78
9/24/2021 5:00:00 AM 16.16 61.088 0.309 7.53 31.3 8.8
9/24/2021 5:15:00 AM 16.1 60.98 0.31 7.53 33.89 8.82
9/24/2021 5:30:00 AM 16.03 60.854 0.311 7.53 31.95 8.84
9/24/2021 5:45:00 AM 15.97 60.746 0.312 7.54 32.36 8.86
9/24/2021 6:00:00 AM 15.91 60.638 0.313 7.54 31.16 8.88
9/24/2021 6:15:00 AM 15.85 60.53 0.314 7.54 31.01 8.9
9/24/2021 6:30:00 AM 15.79 60.422 0.315 7.54 29.51 8.92
9/24/2021 6:45:00 AM 15.73 60.314 0.316 7.54 32.55 8.94
9/24/2021 7:00:00 AM 15.67 60.206 0.316 7.54 29.7 8.95
9/24/2021 7:15:00 AM 15.61 60.098 0.317 7.55 27.85 8.97
9/24/2021 7:30:00 AM 15.56 60.008 0.318 7.55 28.52 8.98
9/24/2021 7:45:00 AM 15.51 59.918 0.318 7.55 26.4 9
9/24/2021 8:00:00 AM 15.47 59.846 0.319 7.55 25.72 9.02
9/24/2021 8:15:00 AM 15.43 59.774 0.32 7.56 26.33 9.04
9/24/2021 8:30:00 AM 15.39 59.702 0.321 7.56 25.36 9.05
9/24/2021 8:45:00 AM 15.37 59.666 0.321 7.56 25.11 9.08
9/24/2021 9:00:00 AM 15.34 59.612 0.322 7.57 23.71 9.09
9/24/2021 9:15:00 AM 15.32 59.576 0.323 7.57 23.98 9.11
9/24/2021 9:30:00 AM 15.31 59.558 0.323 7.57 22.01 9.13
9/24/2021 9:45:00 AM 15.31 59.558 0.324 7.57 22.07 9.15
9/24/2021 10:00:00 AM 15.31 59.558 0.324 7.58 21.2 9.17
9/24/2021 10:15:00 AM 15.32 59.576 0.325 7.58 20.55 9.18
9/24/2021 10:30:00 AM 15.33 59.594 0.325 7.58 19.95 9.19
9/24/2021 10:45:00 AM 15.36 59.648 0.326 7.59 19.75 9.21
9/24/2021 11:00:00 AM 15.39 59.702 0.327 7.59 18.99 9.22
9/24/2021 11:15:00 AM 15.43 59.774 0.327 7.59 18.67 9.23
9/24/2021 11:30:00 AM 15.48 59.864 0.328 7.59 18.43 9.24
9/24/2021 11:45:00 AM 15.54 59.972 0.328 7.59 17.96 9.25
9/24/2021 12:00:00 PM 15.59 60.062 0.329 7.6 17.41 9.26
9/24/2021 12:15:00 PM 15.67 60.206 0.329 7.6 16.96 9.26
9/24/2021 12:30:00 PM 15.74 60.332 0.33 7.6 17.32 9.27
9/24/2021 12:45:00 PM 15.81 60.458 0.33 7.61 17.08 9.26
9/24/2021 1:00:00 PM 15.88 60.584 0.33 7.61 16.46 9.26
9/24/2021 1:15:00 PM 15.96 60.728 0.331 7.61 16.02 9.26
9/24/2021 1:30:00 PM 16.04 60.872 0.331 7.61 15.55 9.26
9/24/2021 1:45:00 PM 16.12 61.016 0.332 7.62 15.98 9.26
9/24/2021 2:00:00 PM 16.17 61.106 0.332 7.62 19.27 9.25
9/24/2021 2:15:00 PM 16.24 61.232 0.332 7.62 14.86 9.24
9/24/2021 2:30:00 PM 16.3 61.34 0.333 7.62 15.23 9.23
9/24/2021 2:45:00 PM 16.36 61.448 0.333 7.63 14.63 9.22
9/24/2021 3:00:00 PM 16.42 61.556 0.334 7.63 14.7 9.22
9/24/2021 3:15:00 PM 16.48 61.664 0.334 7.63 15.38 9.2
9/24/2021 3:30:00 PM 16.54 61.772 0.334 7.63 14.34 9.18
9/24/2021 3:45:00 PM 16.59 61.862 0.335 7.63 14.78 9.17
9/24/2021 4:00:00 PM 16.64 61.952 0.335 7.63 14.02 9.16
9/24/2021 4:15:00 PM 16.69 62.042 0.336 7.63 14.53 9.15
9/24/2021 4:30:00 PM 16.73 62.114 0.336 7.63 14 9.13
9/24/2021 4:45:00 PM 16.76 62.168 0.337 7.63 14.32 9.11
9/24/2021 5:00:00 PM 16.79 62.222 0.337 7.63 14.73 9.1
9/24/2021 5:15:00 PM 16.82 62.276 0.337 7.64 14.49 9.09
9/24/2021 5:30:00 PM 16.84 62.312 0.338 7.64 14.03 9.07
9/24/2021 5:45:00 PM 16.85 62.33 0.338 7.64 13.88 9.06
9/24/2021 6:00:00 PM 16.86 62.348 0.339 7.64 13.61 9.04
9/24/2021 6:15:00 PM 16.87 62.366 0.339 7.63 14.15 9.03
9/24/2021 6:30:00 PM 16.88 62.384 0.339 7.64 15.37 9.02
9/24/2021 6:45:00 PM 16.89 62.402 0.34 7.64 13.96 9
9/24/2021 7:00:00 PM 16.89 62.402 0.34 7.64 13.5 8.99
9/24/2021 7:15:00 PM 16.89 62.402 0.341 7.64 13.13 8.98
9/24/2021 7:30:00 PM 16.89 62.402 0.341 7.64 14.26 8.97
9/24/2021 7:45:00 PM 16.88 62.384 0.341 7.64 13.89 8.96
9/24/2021 8:00:00 PM 16.88 62.384 0.342 7.64 13.78 8.95
9/24/2021 8:15:00 PM 16.87 62.366 0.342 7.64 13.85 8.95
9/24/2021 8:30:00 PM 16.85 62.33 0.342 7.64 14.07 8.94
9/24/2021 8:45:00 PM 16.84 62.312 0.342 7.64 14.53 8.94
9/24/2021 9:00:00 PM 16.82 62.276 0.343 7.64 13.95 8.93
9/24/2021 9:15:00 PM 16.79 62.222 0.343 7.64 14.38 8.93
9/24/2021 9:30:00 PM 16.77 62.186 0.343 7.64 14.98 8.93
9/24/2021 9:45:00 PM 16.74 62.132 0.344 7.64 14.56 8.93
9/24/2021 10:00:00 PM 16.71 62.078 0.344 7.64 14.55 8.94
9/24/2021 10:15:00 PM 16.67 62.006 0.344 7.64 14.69 8.94
9/24/2021 10:30:00 PM 16.63 61.934 0.344 7.64 14.06 8.95
9/24/2021 10:45:00 PM 16.59 61.862 0.345 7.63 14.79 8.95
9/24/2021 11:00:00 PM 16.54 61.772 0.345 7.63 14.93 8.96
9/24/2021 11:15:00 PM 16.49 61.682 0.345 7.63 13.35 8.97
9/24/2021 11:30:00 PM 16.44 61.592 0.346 7.63 14.03 8.98
9/24/2021 11:45:00 PM 16.39 61.502 0.346 7.63 14.71 8.99
9/25/2021 12:00:00 AM 16.34 61.412 0.346 7.63 15 8.99
9/25/2021 12:15:00 AM 16.29 61.322 0.347 7.63 13.39 9
9/25/2021 12:30:00 AM 16.24 61.232 0.347 7.63 14.29 9.01
9/25/2021 12:45:00 AM 16.19 61.142 0.347 7.63 13.89 9.01
9/25/2021 1:00:00 AM 16.14 61.052 0.348 7.63 13.6 9.02
9/25/2021 1:15:00 AM 16.08 60.944 0.348 7.63 16.06 9.03
9/25/2021 1:30:00 AM 16.03 60.854 0.348 7.64 14.41 9.04
9/25/2021 1:45:00 AM 15.98 60.764 0.348 7.63 14.28 9.05
9/25/2021 2:00:00 AM 15.93 60.674 0.348 7.63 13.68 9.07
9/25/2021 2:15:00 AM 15.87 60.566 0.349 7.63 14.26 9.08
9/25/2021 2:30:00 AM 15.82 60.476 0.349 7.63 13.7 9.09
9/25/2021 2:45:00 AM 15.76 60.368 0.349 7.63 13.65 9.1
9/25/2021 3:00:00 AM 15.71 60.278 0.349 7.64 13.63 9.11
9/25/2021 3:15:00 AM 15.65 60.17 0.349 7.64 13.44 9.12
9/25/2021 3:30:00 AM 15.59 60.062 0.35 7.64 12.96 9.13
9/25/2021 3:45:00 AM 15.54 59.972 0.35 7.64 12.99 9.14
9/25/2021 4:00:00 AM 15.48 59.864 0.35 7.64 15.02 9.15
9/25/2021 4:15:00 AM 15.42 59.756 0.35 7.64 13.13 9.16
9/25/2021 4:30:00 AM 15.37 59.666 0.35 7.64 12.6 9.18
9/25/2021 4:45:00 AM 15.31 59.558 0.35 7.64 12.72 9.19
9/25/2021 5:00:00 AM 15.26 59.468 0.35 7.64 12.77 9.2
9/25/2021 5:15:00 AM 15.2 59.36 0.351 7.64 12.85 9.22
9/25/2021 5:30:00 AM 15.15 59.27 0.351 7.64 12.83 9.23
9/25/2021 5:45:00 AM 15.1 59.18 0.351 7.64 13.26 9.25
9/25/2021 6:00:00 AM 15.04 59.072 0.351 7.64 12.51 9.26
9/25/2021 6:15:00 AM 14.99 58.982 0.351 7.64 12.65 9.27
9/25/2021 6:30:00 AM 14.94 58.892 0.351 7.64 13.05 9.28
9/25/2021 6:45:00 AM 14.89 58.802 0.352 7.64 12.92 9.29
9/25/2021 7:00:00 AM 14.85 58.73 0.352 7.64 13.01 9.3
9/25/2021 7:15:00 AM 14.8 58.64 0.352 7.64 12.67 9.31
9/25/2021 7:30:00 AM 14.76 58.568 0.352 7.64 12.55 9.33
9/25/2021 7:45:00 AM 14.72 58.496 0.353 7.64 11.98 9.34
9/25/2021 8:00:00 AM 14.69 58.442 0.353 7.65 11.97 9.35
9/25/2021 8:15:00 AM 14.66 58.388 0.353 7.65 12.19 9.37
9/25/2021 8:30:00 AM 14.64 58.352 0.353 7.65 12.25 9.38
9/25/2021 8:45:00 AM 14.62 58.316 0.353 7.65 12.28 9.4
9/25/2021 9:00:00 AM 14.61 58.298 0.353 7.65 10.99 9.42
9/25/2021 9:15:00 AM 14.6 58.28 0.353 7.65 12.19 9.43
9/25/2021 9:30:00 AM 14.6 58.28 0.354 7.66 11.07 9.45
9/25/2021 9:45:00 AM 14.61 58.298 0.354 7.66 10.73 9.47
9/25/2021 10:00:00 AM 14.62 58.316 0.354 7.66 10.55 9.48
9/25/2021 10:15:00 AM 14.65 58.37 0.354 7.66 11.45 9.49
9/25/2021 10:30:00 AM 14.68 58.424 0.354 7.67 10 9.51
9/25/2021 10:45:00 AM 14.72 58.496 0.354 7.66 9.94 9.52
9/25/2021 11:00:00 AM 14.77 58.586 0.354 7.67 9.15 9.52
9/25/2021 11:15:00 AM 14.82 58.676 0.354 7.67 10.24 9.53
9/25/2021 11:30:00 AM 14.89 58.802 0.354 7.67 9.56 9.54
9/25/2021 11:45:00 AM 14.97 58.946 0.355 7.67 9.51 9.55
9/25/2021 12:00:00 PM 15.05 59.09 0.355 7.67 9.36 9.55
9/25/2021 12:15:00 PM 15.14 59.252 0.355 7.68 9.25 9.55
9/25/2021 12:30:00 PM 15.24 59.432 0.355 7.68 8.82 9.56
9/25/2021 12:45:00 PM 15.33 59.594 0.355 7.68 8.71 9.55
9/25/2021 1:00:00 PM 15.41 59.738 0.355 7.68 8.7 9.55
9/25/2021 1:15:00 PM 15.48 59.864 0.356 7.69 8.46 9.55
9/25/2021 1:30:00 PM 15.51 59.918 0.356 7.69 8.75 9.55
9/25/2021 1:45:00 PM 15.55 59.99 0.356 7.69 8.69 9.54
9/25/2021 2:00:00 PM 15.6 60.08 0.356 7.69 8.56 9.54
9/25/2021 2:15:00 PM 15.66 60.188 0.356 7.69 8.9 9.53
9/25/2021 2:30:00 PM 15.74 60.332 0.356 7.7 11.71 9.52
9/25/2021 2:45:00 PM 15.82 60.476 0.356 7.7 9.05 9.51
9/25/2021 3:00:00 PM 15.88 60.584 0.357 7.7 8.95 9.5
9/25/2021 3:15:00 PM 15.94 60.692 0.357 7.7 10.96 9.48
9/25/2021 3:30:00 PM 16 60.8 0.357 7.7 8.85 9.46
9/25/2021 3:45:00 PM 16.06 60.908 0.357 7.7 8.96 9.45
9/25/2021 4:00:00 PM 16.1 60.98 0.357 7.7 10.53 9.43
9/25/2021 4:15:00 PM 16.14 61.052 0.357 7.71 9.56 9.41
9/25/2021 4:30:00 PM 16.2 61.16 0.382 7.7 8.7 9.39
9/25/2021 4:45:00 PM 16.25 61.25 0.362 7.7 8.85 9.37
9/25/2021 5:00:00 PM 16.3 61.34 0.363 7.7 7.94 9.35
9/25/2021 5:15:00 PM 16.33 61.394 0.361 7.7 8.41 9.33
9/25/2021 5:30:00 PM 16.36 61.448 0.361 7.7 8.2 9.31
9/25/2021 5:45:00 PM 16.38 61.484 0.361 7.7 8.22 9.28
9/25/2021 6:00:00 PM 16.41 61.538 0.361 7.7 8.82 9.26
9/25/2021 6:15:00 PM 16.43 61.574 0.361 7.7 8.78 9.24
9/25/2021 6:30:00 PM 16.44 61.592 0.361 7.7 8.71 9.22
9/25/2021 6:45:00 PM 16.45 61.61 0.361 7.7 8.7 9.2
9/25/2021 7:00:00 PM 16.45 61.61 0.361 7.7 8.58 9.17
9/25/2021 7:15:00 PM 16.46 61.628 0.362 7.69 8.59 9.16
9/25/2021 7:30:00 PM 16.47 61.646 0.362 7.69 8.8 9.13
9/25/2021 7:45:00 PM 16.49 61.682 0.362 7.69 9.31 9.11
9/25/2021 8:00:00 PM 16.5 61.7 0.362 7.69 9.51 9.1
9/25/2021 8:15:00 PM 16.51 61.718 0.362 7.69 9.18 9.08
9/25/2021 8:30:00 PM 16.51 61.718 0.362 7.69 9.41 9.07
9/25/2021 8:45:00 PM 16.51 61.718 0.362 7.69 9.59 9.06
9/25/2021 9:00:00 PM 16.51 61.718 0.363 7.69 9.43 9.05
9/25/2021 9:15:00 PM 16.5 61.7 0.363 7.69 9.35 9.04
9/25/2021 9:30:00 PM 16.49 61.682 0.363 7.69 9.76 9.03
9/25/2021 9:45:00 PM 16.48 61.664 0.363 7.69 10.3 9.02
9/25/2021 10:00:00 PM 16.47 61.646 0.363 7.69 10.27 9.02
9/25/2021 10:15:00 PM 16.46 61.628 0.364 7.68 9.66 9.01
9/25/2021 10:30:00 PM 16.44 61.592 0.364 7.68 9.84 9.01
9/25/2021 10:45:00 PM 16.43 61.574 0.364 7.68 9.56 9.01
9/25/2021 11:00:00 PM 16.41 61.538 0.364 7.68 10.34 9.01
9/25/2021 11:15:00 PM 16.39 61.502 0.364 7.68 9.82 9
9/25/2021 11:30:00 PM 16.37 61.466 0.364 7.68 10.06 9
9/25/2021 11:45:00 PM 16.35 61.43 0.364 7.68 9.94 9.01
9/26/2021 12:00:00 AM 16.33 61.394 0.365 7.68 9.75 9.01
9/26/2021 12:15:00 AM 16.31 61.358 0.364 7.68 9.84 9.01
9/26/2021 12:30:00 AM 16.28 61.304 0.365 7.68 10.07 9.01
9/26/2021 12:45:00 AM 16.25 61.25 0.364 7.68 10.19 9.01
9/26/2021 1:00:00 AM 16.22 61.196 0.364 7.68 9.53 9.02
9/26/2021 1:15:00 AM 16.2 61.16 0.365 7.68 10.38 9.02
9/26/2021 1:30:00 AM 16.18 61.124 0.365 7.68 9.96 9.03
9/26/2021 1:45:00 AM 16.16 61.088 0.365 7.68 10.13 9.03
9/26/2021 2:00:00 AM 16.14 61.052 0.366 7.68 9.93 9.03
9/26/2021 2:15:00 AM 16.11 60.998 0.365 7.68 9.65 9.04
9/26/2021 2:30:00 AM 16.09 60.962 0.365 7.68 9.56 9.04
9/26/2021 2:45:00 AM 16.05 60.89 0.366 7.68 10.11 9.04
9/26/2021 3:00:00 AM 16.02 60.836 0.366 7.68 10.01 9.05
9/26/2021 3:15:00 AM 15.99 60.782 0.366 7.69 9.67 9.05
9/26/2021 3:30:00 AM 15.96 60.728 0.367 7.69 9.88 9.06
9/26/2021 3:45:00 AM 15.93 60.674 0.366 7.69 9.52 9.07
9/26/2021 4:00:00 AM 15.9 60.62 0.367 7.69 9.6 9.08
9/26/2021 4:15:00 AM 15.86 60.548 0.366 7.69 9.76 9.08
9/26/2021 4:30:00 AM 15.82 60.476 0.367 7.69 9.62 9.09
9/26/2021 4:45:00 AM 15.78 60.404 0.367 7.69 9.78 9.1
9/26/2021 5:00:00 AM 15.74 60.332 0.367 7.69 9.56 9.1
9/26/2021 5:15:00 AM 15.69 60.242 0.368 7.69 9.27 9.11
9/26/2021 5:30:00 AM 15.65 60.17 0.368 7.69 9.16 9.12
9/26/2021 5:45:00 AM 15.61 60.098 0.368 7.69 9.2 9.13
9/26/2021 6:00:00 AM 15.57 60.026 0.369 7.69 9.17 9.14
9/26/2021 6:15:00 AM 15.52 59.936 0.368 7.69 8.62 9.15
9/26/2021 6:30:00 AM 15.47 59.846 0.369 7.69 9.13 9.15
9/26/2021 6:45:00 AM 15.42 59.756 0.369 7.7 8.78 9.16
9/26/2021 7:00:00 AM 15.37 59.666 0.369 7.69 8.97 9.17
9/26/2021 7:15:00 AM 15.32 59.576 0.376 7.69 11.14 9.18
9/26/2021 7:30:00 AM 15.28 59.504 0.371 7.69 8.63 9.2
9/26/2021 7:45:00 AM 15.24 59.432 0.39 7.7 8.91 9.21
9/26/2021 8:00:00 AM 15.2 59.36 0.376 7.7 8.86 9.23
9/26/2021 8:15:00 AM 15.18 59.324 0.436 7.7 8.47 9.24
9/26/2021 8:30:00 AM 15.15 59.27 0.365 7.7 8.17 9.26
9/26/2021 8:45:00 AM 15.14 59.252 0.365 7.7 7.96 9.27
9/26/2021 9:00:00 AM 15.12 59.216 0.365 7.7 7.93 9.29
9/26/2021 9:15:00 AM 15.11 59.198 0.365 7.7 8.19 9.31
9/26/2021 9:30:00 AM 15.1 59.18 0.437 7.71 7.75 9.33
9/26/2021 9:45:00 AM 15.09 59.162 0.437 7.71 7.58 9.35
9/26/2021 10:00:00 AM 15.1 59.18 0.366 7.71 7.19 9.37
9/26/2021 10:15:00 AM 15.1 59.18 0.377 7.71 7.01 9.39
9/26/2021 10:30:00 AM 15.12 59.216 0.373 7.71 6.66 9.41
9/26/2021 10:45:00 AM 15.15 59.27 0.377 7.71 7.27 9.42
9/26/2021 11:00:00 AM 15.19 59.342 0.371 7.72 6.2 9.43
9/26/2021 11:15:00 AM 15.23 59.414 0.371 7.72 6.63 9.45
9/26/2021 11:30:00 AM 15.29 59.522 0.37 7.72 6.57 9.46
9/26/2021 11:45:00 AM 15.35 59.63 0.37 7.72 6.02 9.46
9/26/2021 12:00:00 PM 15.41 59.738 0.37 7.72 6.04 9.47
9/26/2021 12:15:00 PM 15.49 59.882 0.37 7.72 6.16 9.48
9/26/2021 12:30:00 PM 15.55 59.99 0.37 7.73 5.93 9.49
9/26/2021 12:45:00 PM 15.62 60.116 0.37 7.73 5.67 9.5
9/26/2021 1:00:00 PM 15.69 60.242 0.371 7.73 6.28 9.51
9/26/2021 1:15:00 PM 15.76 60.368 0.371 7.73 5.89 9.51
9/26/2021 1:30:00 PM 15.81 60.458 0.37 7.73 6.72 9.51
9/26/2021 1:45:00 PM 15.86 60.548 0.371 7.74 6.21 9.51
9/26/2021 2:00:00 PM 15.9 60.62 0.37 7.73 5.89 9.51
9/26/2021 2:15:00 PM 15.94 60.692 0.371 7.74 6.13 9.5
9/26/2021 2:30:00 PM 15.97 60.746 0.371 7.74 6.01 9.49
9/26/2021 2:45:00 PM 16 60.8 0.371 7.74 5.25 9.48
9/26/2021 3:00:00 PM 16.04 60.872 0.371 7.74 5.96 9.47
9/26/2021 3:15:00 PM 16.07 60.926 0.371 7.74 6.02 9.46
9/26/2021 3:30:00 PM 16.1 60.98 0.371 7.74 5.97 9.44
9/26/2021 3:45:00 PM 16.13 61.034 0.372 7.74 6.09 9.43
9/26/2021 4:00:00 PM 16.16 61.088 0.371 7.74 6.05 9.42
9/26/2021 4:15:00 PM 16.17 61.106 0.371 7.74 6.26 9.41
9/26/2021 4:30:00 PM 16.19 61.142 0.372 7.74 5.6 9.39
9/26/2021 4:45:00 PM 16.21 61.178 0.372 7.74 8474.3 9.37
9/26/2021 5:00:00 PM 16.23 61.214 0.372 7.73 5.89 9.35
9/26/2021 5:15:00 PM 16.24 61.232 0.372 7.74 12.89 9.33
9/26/2021 5:30:00 PM 16.26 61.268 0.372 7.74 6.11 9.31
9/26/2021 5:45:00 PM 16.26 61.268 0.373 7.74 6.03 9.29
9/26/2021 6:00:00 PM 16.27 61.286 0.373 7.73 6.1 9.27
9/26/2021 6:15:00 PM 16.27 61.286 0.373 7.74 6.47 9.25
9/26/2021 6:30:00 PM 16.27 61.286 0.373 7.73 6.03 9.23
9/26/2021 6:45:00 PM 16.27 61.286 0.373 7.73 5.6 9.21
9/26/2021 7:00:00 PM 16.26 61.268 0.374 7.72 5.74 9.2
9/26/2021 7:15:00 PM 16.23 61.214 0.374 7.72 5.91 9.18
9/26/2021 7:30:00 PM 16.21 61.178 0.373 7.72 5.85 9.17
9/26/2021 7:45:00 PM 16.17 61.106 0.374 7.72 5.79 9.15
9/26/2021 8:00:00 PM 16.15 61.07 0.374 7.72 6.02 9.14
9/26/2021 8:15:00 PM 16.12 61.016 0.374 7.72 6.76 9.14
9/26/2021 8:30:00 PM 16.1 60.98 0.374 7.72 6.21 9.13
9/26/2021 8:45:00 PM 16.07 60.926 0.375 7.72 6.86 9.13
9/26/2021 9:00:00 PM 16.05 60.89 0.374 7.72 6.06 9.12
9/26/2021 9:15:00 PM 16.02 60.836 0.374 7.71 6.52 9.12
9/26/2021 9:30:00 PM 15.99 60.782 0.375 7.71 6.47 9.11
9/26/2021 9:45:00 PM 15.97 60.746 0.375 7.71 6.81 9.11
9/26/2021 10:00:00 PM 15.94 60.692 0.375 7.71 6.96 9.11
9/26/2021 10:15:00 PM 15.92 60.656 0.375 7.71 7.19 9.11
9/26/2021 10:30:00 PM 15.89 60.602 0.375 7.71 6.96 9.11
9/26/2021 10:45:00 PM 15.87 60.566 0.375 7.71 7 9.11
9/26/2021 11:00:00 PM 15.85 60.53 0.375 7.71 7.51 9.11
9/26/2021 11:15:00 PM 15.82 60.476 0.376 7.71 7.27 9.11
9/26/2021 11:30:00 PM 15.8 60.44 0.376 7.71 7.29 9.11
9/26/2021 11:45:00 PM 15.77 60.386 0.376 7.71 7.08 9.11
9/27/2021 12:00:00 AM 15.74 60.332 0.375 7.71 7.3 9.11
9/27/2021 12:15:00 AM 15.71 60.278 0.376 7.7 7.18 9.12
9/27/2021 12:30:00 AM 15.68 60.224 0.376 7.7 7.33 9.12
9/27/2021 12:45:00 AM 15.64 60.152 0.376 7.71 7.2 9.13
9/27/2021 1:00:00 AM 15.6 60.08 0.376 7.71 7.62 9.13
9/27/2021 1:15:00 AM 15.56 60.008 0.376 7.71 8.26 9.13
9/27/2021 1:30:00 AM 15.52 59.936 0.377 7.71 7.58 9.14
9/27/2021 1:45:00 AM 15.48 59.864 0.376 7.71 7.55 9.14
9/27/2021 2:00:00 AM 15.44 59.792 0.377 7.7 7.49 9.15
9/27/2021 2:15:00 AM 15.4 59.72 0.377 7.7 7.42 9.16
9/27/2021 2:30:00 AM 15.35 59.63 0.377 7.7 7.09 9.17
9/27/2021 2:45:00 AM 15.31 59.558 0.377 7.7 7.26 9.17
9/27/2021 3:00:00 AM 15.27 59.486 0.377 7.7 7.76 9.19
9/27/2021 3:15:00 AM 15.23 59.414 0.377 7.7 7.34 9.19
9/27/2021 3:30:00 AM 15.19 59.342 0.377 7.7 7.58 9.2
9/27/2021 3:45:00 AM 15.15 59.27 0.377 7.7 7.21 9.21
9/27/2021 4:00:00 AM 15.1 59.18 0.377 7.7 7.19 9.22
9/27/2021 4:15:00 AM 15.06 59.108 0.377 7.7 6.97 9.23
9/27/2021 4:30:00 AM 15.02 59.036 0.377 7.7 7.14 9.24
9/27/2021 4:45:00 AM 14.98 58.964 0.377 7.7 7.51 9.25
9/27/2021 5:00:00 AM 14.94 58.892 0.378 7.7 7.21 9.26
9/27/2021 5:15:00 AM 14.89 58.802 0.378 7.7 7.46 9.27
9/27/2021 5:30:00 AM 14.85 58.73 0.378 7.7 7.48 9.27
9/27/2021 5:45:00 AM 14.8 58.64 0.378 7.7 7.18 9.28
9/27/2021 6:00:00 AM 14.76 58.568 0.378 7.7 7.2 9.29
9/27/2021 6:15:00 AM 14.72 58.496 0.378 7.7 6.89 9.31
9/27/2021 6:30:00 AM 14.67 58.406 0.378 7.7 7.08 9.32
9/27/2021 6:45:00 AM 14.63 58.334 0.379 7.7 6.95 9.33
9/27/2021 7:00:00 AM 14.59 58.262 0.378 7.7 6.86 9.34
9/27/2021 7:15:00 AM 14.55 58.19 0.378 7.7 6.52 9.35
9/27/2021 7:30:00 AM 14.51 58.118 0.378 7.7 6.8 9.37
9/27/2021 7:45:00 AM 14.48 58.064 0.379 7.7 6.67 9.38
9/27/2021 8:00:00 AM 14.45 58.01 0.379 7.7 6.18 9.4
9/27/2021 8:15:00 AM 14.43 57.974 0.379 7.7 6.69 9.41
9/27/2021 8:30:00 AM 14.41 57.938 0.379 7.7 6.38 9.43
9/27/2021 8:45:00 AM 14.4 57.92 0.379 7.71 6.62 9.45
9/27/2021 9:00:00 AM 14.39 57.902 0.379 7.71 6.41 9.46
9/27/2021 9:15:00 AM 14.39 57.902 0.38 7.71 7.49 9.48
9/27/2021 9:30:00 AM 14.4 57.92 0.38 7.71 6.46 9.5
9/27/2021 9:45:00 AM 14.41 57.938 0.379 7.71 6.72 9.53
9/27/2021 10:00:00 AM 14.43 57.974 0.379 7.71 5.65 9.55
9/27/2021 10:15:00 AM 14.45 58.01 0.379 7.72 5.54 9.57
9/27/2021 10:30:00 AM 14.48 58.064 0.379 7.72 5.49 9.59
9/27/2021 10:45:00 AM 14.52 58.136 0.38 7.72 6.31 9.61
9/27/2021 11:00:00 AM 14.56 58.208 0.38 7.73 5.83 9.62
9/27/2021 11:15:00 AM 14.63 58.334 0.379 7.73 5.81 9.63
9/27/2021 11:30:00 AM 14.69 58.442 0.379 7.73 5.93 9.64
9/27/2021 11:45:00 AM 14.77 58.586 0.379 7.73 5.64 9.65
9/27/2021 12:00:00 PM 14.86 58.748 0.379 7.74 5.32 9.66
9/27/2021 12:15:00 PM 14.96 58.928 0.379 7.74 5.99 9.67
9/27/2021 12:30:00 PM 15.05 59.09 0.379 7.74 5.53 9.68
9/27/2021 12:45:00 PM 15.14 59.252 0.379 7.74 6.46 9.68
9/27/2021 1:00:00 PM 15.23 59.414 0.379 7.74 5.5 9.68
9/27/2021 1:15:00 PM 15.32 59.576 0.379 7.75 4.91 9.68
9/27/2021 1:30:00 PM 15.4 59.72 0.379 7.75 4.6 9.68
9/27/2021 1:45:00 PM 15.48 59.864 0.379 7.76 4.43 9.68
9/27/2021 2:00:00 PM 15.54 59.972 0.379 7.75 5.72 9.67
9/27/2021 2:15:00 PM 15.59 60.062 0.379 7.76 6.38 9.67
9/27/2021 2:30:00 PM 15.64 60.152 0.379 7.76 5.41 9.65
9/27/2021 2:45:00 PM 15.69 60.242 0.379 7.76 5 9.64
9/27/2021 3:00:00 PM 15.73 60.314 0.379 7.76 4.57 9.63
9/27/2021 3:15:00 PM 15.77 60.386 0.38 7.76 4.75 9.61
9/27/2021 3:30:00 PM 15.81 60.458 0.38 7.76 4.87 9.59
9/27/2021 3:45:00 PM 15.86 60.548 0.38 7.76 4.99 9.57
9/27/2021 4:00:00 PM 15.9 60.62 0.38 7.76 4.89 9.55
9/27/2021 4:15:00 PM 15.94 60.692 0.373 7.76 4.03 9.52
9/27/2021 4:30:00 PM 15.98 60.764 0.38 7.76 5.78 9.51
9/27/2021 4:45:00 PM 16.01 60.818 0.206 7.76 8.91 9.49
9/27/2021 5:00:00 PM 16.05 60.89 0.15 7.76 36.68 9.46
9/27/2021 5:15:00 PM 16.08 60.944 0.379 7.75 1022.92 9.43
9/27/2021 5:30:00 PM 16.13 61.034 0.379 7.75 5.78 9.4
9/27/2021 5:45:00 PM 16.17 61.106 0.38 7.75 4.58 9.37
9/27/2021 6:00:00 PM 16.21 61.178 0.38 7.75 4.89 9.34
9/27/2021 6:15:00 PM 16.24 61.232 0.38 7.75 5.07 9.31
9/27/2021 6:30:00 PM 16.26 61.268 0.38 7.75 4.86 9.28
9/27/2021 6:45:00 PM 16.28 61.304 0.381 7.74 4.93 9.25
9/27/2021 7:00:00 PM 16.29 61.322 0.381 7.74 5.17 9.23
9/27/2021 7:15:00 PM 16.29 61.322 0.381 7.74 5.06 9.2
9/27/2021 7:30:00 PM 16.29 61.322 0.382 7.74 5.13 9.17
9/27/2021 7:45:00 PM 16.29 61.322 0.382 7.73 5.49 9.15
9/27/2021 8:00:00 PM 16.28 61.304 0.382 7.73 5.34 9.13
9/27/2021 8:15:00 PM 16.28 61.304 0.382 7.73 5.4 9.12
9/27/2021 8:30:00 PM 16.28 61.304 0.383 7.73 5.51 9.1
9/27/2021 8:45:00 PM 16.27 61.286 0.383 7.73 5.97 9.09
9/27/2021 9:00:00 PM 16.27 61.286 0.383 7.72 6.11 9.07
9/27/2021 9:15:00 PM 16.27 61.286 0.383 7.73 6.33 9.06
9/27/2021 9:30:00 PM 16.26 61.268 0.383 7.72 5.72 9.05
9/27/2021 9:45:00 PM 16.26 61.268 0.383 7.72 5.4 9.04
9/27/2021 10:00:00 PM 16.25 61.25 0.383 7.72 6 9.03
9/27/2021 10:15:00 PM 16.24 61.232 0.383 7.72 6.51 9.02
9/27/2021 10:30:00 PM 16.23 61.214 0.383 7.72 6.01 9.01
9/27/2021 10:45:00 PM 16.23 61.214 0.383 7.72 4.57 9.01
9/27/2021 11:00:00 PM 16.22 61.196 0.383 7.72 5.98 9
9/27/2021 11:15:00 PM 16.22 61.196 0.384 7.72 6.73 9
9/27/2021 11:30:00 PM 16.21 61.178 0.381 7.72 6.54 8.98
9/27/2021 11:45:00 PM 16.2 61.16 0.384 7.71 5.84 8.98
9/28/2021 12:00:00 AM 16.19 61.142 0.347 7.71 3615.87 8.98
9/28/2021 12:15:00 AM 16.18 61.124 0.384 7.71 6.58 8.98
9/28/2021 12:30:00 AM 16.18 61.124 0.384 7.72 7497.57 8.97
9/28/2021 12:45:00 AM 16.17 61.106 0.383 7.71 5836 8.97
9/28/2021 1:00:00 AM 16.16 61.088 0.383 7.7 16.52 8.97
9/28/2021 1:15:00 AM 16.14 61.052 0.384 7.7 2021.82 8.97
9/28/2021 1:30:00 AM 16.13 61.034 0.384 7.7 7.03 8.97
9/28/2021 1:45:00 AM 16.12 61.016 0.384 7.71 6.47 8.97
9/28/2021 2:00:00 AM 16.1 60.98 0.384 7.7 974.74 8.97
9/28/2021 2:15:00 AM 16.08 60.944 0.383 7.71 20377.21 8.97
9/28/2021 2:30:00 AM 16.05 60.89 0.384 7.71 2897.82 8.97
9/28/2021 2:45:00 AM 16.02 60.836 0.384 7.7 6.84 8.98
9/28/2021 3:00:00 AM 16 60.8 0.384 7.7 6.77 8.98
9/28/2021 3:15:00 AM 15.98 60.764 0.384 7.7 6.84 8.98
9/28/2021 3:30:00 AM 15.95 60.71 0.384 7.7 6.59 8.99
9/28/2021 3:45:00 AM 15.93 60.674 0.384 7.7 7.08 8.99
9/28/2021 4:00:00 AM 15.91 60.638 0.384 7.7 7.03 8.99
9/28/2021 4:15:00 AM 15.9 60.62 0.384 7.7 7.33 8.99
9/28/2021 4:30:00 AM 15.88 60.584 0.384 7.7 7.16 9
9/28/2021 4:45:00 AM 15.87 60.566 0.384 7.7 6.56 9
9/28/2021 5:00:00 AM 15.85 60.53 0.384 7.7 6.5 9.01
9/28/2021 5:15:00 AM 15.83 60.494 0.385 7.7 7.07 9.01
9/28/2021 5:30:00 AM 15.81 60.458 0.384 7.7 6.75 9.01
9/28/2021 5:45:00 AM 15.78 60.404 0.385 7.7 7.17 9.02
9/28/2021 6:00:00 AM 15.76 60.368 0.384 7.7 6.82 9.02
9/28/2021 6:15:00 AM 15.74 60.332 0.384 7.7 6.53 9.03
9/28/2021 6:30:00 AM 15.72 60.296 0.385 7.7 6.67 9.03
9/28/2021 6:45:00 AM 15.7 60.26 0.384 7.7 6.53 9.04
9/28/2021 7:00:00 AM 15.68 60.224 0.385 7.7 6 9.05
9/28/2021 7:15:00 AM 15.67 60.206 0.384 7.7 5.98 9.05
9/28/2021 7:30:00 AM 15.65 60.17 0.385 7.7 6.29 9.06
9/28/2021 7:45:00 AM 15.63 60.134 0.385 7.7 6.47 9.06
9/28/2021 8:00:00 AM 15.62 60.116 0.384 7.7 7.12 9.07
9/28/2021 8:15:00 AM 15.6 60.08 0.384 7.7 6.48 9.08
9/28/2021 8:30:00 AM 15.58 60.044 0.383 7.7 6.06 9.08
9/28/2021 8:45:00 AM 15.57 60.026 0.383 7.7 6.49 9.08
9/28/2021 9:00:00 AM 15.56 60.008 0.383 7.7 6.16 9.08
9/28/2021 9:15:00 AM 15.55 59.99 0.384 7.7 5.83 9.1
9/28/2021 9:30:00 AM 15.55 59.99 0.384 7.7 5.71 9.11
9/28/2021 9:45:00 AM 15.55 59.99 0.383 7.7 5.8 9.13
9/28/2021 10:00:00 AM 15.55 59.99 0.384 7.71 5.47 9.16
9/28/2021 10:15:00 AM 15.58 60.044 0.383 7.71 5.47 9.19
9/28/2021 10:30:00 AM 15.59 60.062 0.383 7.71 10.16 9.21
9/28/2021 10:45:00 AM 15.61 60.098 0.365 7.71 5.6 9.25
9/28/2021 11:00:00 AM 15.62 60.116 0.382 7.72 5.65 9.27
9/28/2021 11:15:00 AM 15.65 60.17 0.382 7.73 3.91 9.3
9/28/2021 11:30:00 AM 15.69 60.242 0.382 7.72 4.98 9.31
9/28/2021 11:45:00 AM 15.77 60.386 0.382 7.73 5.52 9.35
9/28/2021 12:00:00 PM 15.83 60.494 0.382 7.74 4.81 9.36
9/28/2021 12:15:00 PM 15.85 60.53 0.382 7.74 4.73 9.38
9/28/2021 12:30:00 PM 15.84 60.512 0.382 7.74 4.65 9.37
9/28/2021 12:45:00 PM 15.82 60.476 0.382 7.74 4.57 9.36
9/28/2021 1:00:00 PM 15.81 60.458 0.382 7.74 4.56 9.35
9/28/2021 1:15:00 PM 15.81 60.458 0.382 7.73 4.73 9.34
9/28/2021 1:30:00 PM 15.83 60.494 0.382 7.74 4.3 9.34
9/28/2021 1:45:00 PM 15.86 60.548 0.382 7.73 4.51 9.34
9/28/2021 2:00:00 PM 15.89 60.602 0.381 7.74 4.14 9.33
9/28/2021 2:15:00 PM 15.91 60.638 0.382 7.74 4.38 9.32
9/28/2021 2:30:00 PM 15.94 60.692 0.381 7.73 4.53 9.31
9/28/2021 2:45:00 PM 15.97 60.746 0.381 7.74 4.69 9.32
9/28/2021 3:00:00 PM 16 60.8 0.381 7.74 4.65 9.31
9/28/2021 3:15:00 PM 16.05 60.89 0.381 7.75 5.42 9.34
9/28/2021 3:30:00 PM 16.1 60.98 0.38 7.75 4.4 9.36
9/28/2021 3:45:00 PM 16.15 61.07 0.38 7.75 4.63 9.38
9/28/2021 4:00:00 PM 16.19 61.142 0.38 7.76 4.79 9.39
9/28/2021 4:15:00 PM 16.22 61.196 0.38 7.76 4.21 9.39
9/28/2021 4:30:00 PM 16.25 61.25 0.379 7.76 4.45 9.38
9/28/2021 4:45:00 PM 16.26 61.268 0.38 7.76 4.41 9.37
9/28/2021 5:00:00 PM 16.27 61.286 0.379 7.76 4.4 9.35
9/28/2021 5:15:00 PM 16.28 61.304 0.38 7.76 4.48 9.33
9/28/2021 5:30:00 PM 16.31 61.358 0.379 7.76 4.64 9.31
9/28/2021 5:45:00 PM 16.33 61.394 0.379 7.76 4.24 9.3
9/28/2021 6:00:00 PM 16.35 61.43 0.379 7.75 4.64 9.28
9/28/2021 6:15:00 PM 16.37 61.466 0.379 7.75 3.96 9.26
9/28/2021 6:30:00 PM 16.39 61.502 0.379 7.75 4.67 9.24
9/28/2021 6:45:00 PM 16.41 61.538 0.379 7.75 4.88 9.22
9/28/2021 7:00:00 PM 16.41 61.538 0.379 7.75 4.76 9.2
9/28/2021 7:15:00 PM 16.4 61.52 0.379 7.75 4.95 9.17
9/28/2021 7:30:00 PM 16.39 61.502 0.379 7.75 4.64 9.16
9/28/2021 7:45:00 PM 16.39 61.502 0.379 7.74 4.74 9.13
9/28/2021 8:00:00 PM 16.38 61.484 0.379 7.74 5.16 9.12
9/28/2021 8:15:00 PM 16.39 61.502 0.379 7.74 4.83 9.11
9/28/2021 8:30:00 PM 16.39 61.502 0.38 7.74 5.08 9.09
9/28/2021 8:45:00 PM 16.4 61.52 0.379 7.74 4.92 9.08
9/28/2021 9:00:00 PM 16.41 61.538 0.38 7.74 5.23 9.07
9/28/2021 9:15:00 PM 16.42 61.556 0.379 7.73 5.36 9.05
9/28/2021 9:30:00 PM 16.42 61.556 0.38 7.73 5.57 9.04
9/28/2021 9:45:00 PM 16.41 61.538 0.38 7.73 5.64 9.03
9/28/2021 10:00:00 PM 16.41 61.538 0.38 7.73 5.44 9.02
9/28/2021 10:15:00 PM 16.4 61.52 0.38 7.73 5.51 9.02
9/28/2021 10:30:00 PM 16.38 61.484 0.38 7.73 5.69 9.01
9/28/2021 10:45:00 PM 16.36 61.448 0.38 7.73 6.16 9.01
9/28/2021 11:00:00 PM 16.34 61.412 0.38 7.73 5.96 9
9/28/2021 11:15:00 PM 16.32 61.376 0.38 7.73 6.02 9
9/28/2021 11:30:00 PM 16.3 61.34 0.381 7.73 6.04 8.99
9/28/2021 11:45:00 PM 16.27 61.286 0.381 7.73 6.36 8.99
9/29/2021 12:00:00 AM 16.25 61.25 0.381 7.73 6.04 8.99
9/29/2021 12:15:00 AM 16.22 61.196 0.381 7.73 6.34 8.99
9/29/2021 12:30:00 AM 16.2 61.16 0.381 7.73 6.04 8.99
9/29/2021 12:45:00 AM 16.18 61.124 0.381 7.73 6.15 8.99
9/29/2021 1:00:00 AM 16.15 61.07 0.381 7.73 6.1 8.99
9/29/2021 1:15:00 AM 16.13 61.034 0.381 7.73 6.02 8.99
9/29/2021 1:30:00 AM 16.1 60.98 0.381 7.72 5.73 8.99
9/29/2021 1:45:00 AM 16.08 60.944 0.382 7.72 5.8 8.99
9/29/2021 2:00:00 AM 16.06 60.908 0.381 7.72 6.09 8.99
9/29/2021 2:15:00 AM 16.04 60.872 0.382 7.72 6.07 8.99
9/29/2021 2:30:00 AM 16.02 60.836 0.382 7.73 5.97 9
9/29/2021 2:45:00 AM 15.99 60.782 0.382 7.73 5.98 9
9/29/2021 3:00:00 AM 15.97 60.746 0.382 7.73 5.8 9
9/29/2021 3:15:00 AM 15.94 60.692 0.382 7.73 6.14 9.01
9/29/2021 3:30:00 AM 15.91 60.638 0.382 7.73 5.62 9.01
9/29/2021 3:45:00 AM 15.87 60.566 0.382 7.72 6.01 9.02
9/29/2021 4:00:00 AM 15.84 60.512 0.382 7.73 5.73 9.02
9/29/2021 4:15:00 AM 15.8 60.44 0.382 7.73 5.99 9.03
9/29/2021 4:30:00 AM 15.76 60.368 0.383 7.73 5.82 9.04
9/29/2021 4:45:00 AM 15.72 60.296 0.383 7.73 6.25 9.04
9/29/2021 5:00:00 AM 15.68 60.224 0.383 7.73 6.29 9.05
9/29/2021 5:15:00 AM 15.63 60.134 0.383 7.73 6.26 9.06
9/29/2021 5:30:00 AM 15.6 60.08 0.383 7.73 6.03 9.06
9/29/2021 5:45:00 AM 15.56 60.008 0.383 7.73 5.86 9.07
9/29/2021 6:00:00 AM 15.52 59.936 0.383 7.73 5.9 9.08
9/29/2021 6:15:00 AM 15.49 59.882 0.383 7.73 5.86 9.08
9/29/2021 6:30:00 AM 15.46 59.828 0.383 7.73 5.6 9.09
9/29/2021 6:45:00 AM 15.42 59.756 0.384 7.73 6.26 9.1
9/29/2021 7:00:00 AM 15.38 59.684 0.384 7.73 5.84 9.11
9/29/2021 7:15:00 AM 15.33 59.594 0.384 7.73 5.49 9.12
9/29/2021 7:30:00 AM 15.29 59.522 0.384 7.73 5.57 9.13
9/29/2021 7:45:00 AM 15.25 59.45 0.384 7.73 5.52 9.15
9/29/2021 8:00:00 AM 15.21 59.378 0.385 7.73 5.32 9.16
9/29/2021 8:15:00 AM 15.19 59.342 0.384 7.74 5.02 9.19
9/29/2021 8:30:00 AM 15.18 59.324 0.385 7.74 5.2 9.21
9/29/2021 8:45:00 AM 15.16 59.288 0.385 7.74 5.18 9.24
9/29/2021 9:00:00 AM 15.16 59.288 0.385 7.74 4.73 9.28
9/29/2021 9:15:00 AM 15.15 59.27 0.385 7.75 4.94 9.31
9/29/2021 9:30:00 AM 15.15 59.27 0.385 7.75 4.74 9.34
9/29/2021 9:45:00 AM 15.14 59.252 0.385 7.75 4.8 9.38
9/29/2021 10:00:00 AM 15.12 59.216 0.385 7.75 4.3 9.4
9/29/2021 10:15:00 AM 15.11 59.198 0.385 7.76 4.45 9.43
9/29/2021 10:30:00 AM 15.12 59.216 0.385 7.76 4.53 9.45
9/29/2021 10:45:00 AM 15.13 59.234 0.386 7.76 4.77 9.48
9/29/2021 11:00:00 AM 15.16 59.288 0.386 7.77 4.44 9.51
9/29/2021 11:15:00 AM 15.21 59.378 0.386 7.77 4.59 9.54
9/29/2021 11:30:00 AM 15.25 59.45 0.386 7.77 4.42 9.56
9/29/2021 11:45:00 AM 15.3 59.54 0.386 7.77 4.43 9.57
9/29/2021 12:00:00 PM 15.36 59.648 0.386 7.78 4.22 9.59
9/29/2021 12:15:00 PM 15.43 59.774 0.386 7.78 4.15 9.6
9/29/2021 12:30:00 PM 15.5 59.9 0.386 7.78 4.35 9.62
9/29/2021 12:45:00 PM 15.53 59.954 0.386 7.79 4.27 9.65
9/29/2021 1:00:00 PM 15.53 59.954 0.386 7.79 4.53 9.65
9/29/2021 1:15:00 PM 15.6 60.08 0.386 7.79 4.3 9.66
9/29/2021 1:30:00 PM 15.67 60.206 0.387 7.79 4.13 9.67
9/29/2021 1:45:00 PM 15.73 60.314 0.387 7.79 4.13 9.68
9/29/2021 2:00:00 PM 15.78 60.404 0.387 7.79 4.14 9.69
9/29/2021 2:15:00 PM 15.81 60.458 0.387 7.79 4.11 9.69
9/29/2021 2:30:00 PM 15.84 60.512 0.387 7.8 4.18 9.67
9/29/2021 2:45:00 PM 15.84 60.512 0.387 7.8 4.3 9.67
9/29/2021 3:00:00 PM 15.84 60.512 0.388 7.8 4.11 9.65
9/29/2021 3:15:00 PM 15.85 60.53 0.388 7.8 4.29 9.65
9/29/2021 3:30:00 PM 15.85 60.53 0.388 7.79 4.04 9.64
9/29/2021 3:45:00 PM 15.85 60.53 0.388 7.79 4.12 9.63
9/29/2021 4:00:00 PM 15.85 60.53 0.388 7.79 4.05 9.61
9/29/2021 4:15:00 PM 15.85 60.53 0.388 7.79 3.89 9.6
9/29/2021 4:30:00 PM 15.85 60.53 0.388 7.79 3.91 9.58
9/29/2021 4:45:00 PM 15.84 60.512 0.388 7.79 4.16 9.56
9/29/2021 5:00:00 PM 15.83 60.494 0.388 7.79 3.9 9.53
9/29/2021 5:15:00 PM 15.83 60.494 0.388 7.79 4 9.51
9/29/2021 5:30:00 PM 15.83 60.494 0.389 7.78 3.98 9.48
9/29/2021 5:45:00 PM 15.82 60.476 0.388 7.78 4.02 9.46
9/29/2021 6:00:00 PM 15.81 60.458 0.389 7.78 4.07 9.43
9/29/2021 6:15:00 PM 15.81 60.458 0.389 7.78 4.18 9.41
9/29/2021 6:30:00 PM 15.8 60.44 0.389 7.78 3.92 9.39
9/29/2021 6:45:00 PM 15.79 60.422 0.389 7.77 3.94 9.36
9/29/2021 7:00:00 PM 15.77 60.386 0.389 7.77 4.01 9.34
9/29/2021 7:15:00 PM 15.74 60.332 0.389 7.76 4.33 9.32
9/29/2021 7:30:00 PM 15.71 60.278 0.389 7.77 4.35 9.31
9/29/2021 7:45:00 PM 15.68 60.224 0.389 7.76 4.7 9.29
9/29/2021 8:00:00 PM 15.64 60.152 0.39 7.76 4.79 9.27
9/29/2021 8:15:00 PM 15.61 60.098 0.389 7.76 4.78 9.26
9/29/2021 8:30:00 PM 15.59 60.062 0.39 7.76 4.72 9.25
9/29/2021 8:45:00 PM 15.56 60.008 0.39 7.76 5.33 9.24
9/29/2021 9:00:00 PM 15.53 59.954 0.39 7.76 4.82 9.22
9/29/2021 9:15:00 PM 15.5 59.9 0.39 7.75 4.63 9.22
9/29/2021 9:30:00 PM 15.47 59.846 0.39 7.75 5.1 9.21
9/29/2021 9:45:00 PM 15.44 59.792 0.391 7.75 5 9.21
9/29/2021 10:00:00 PM 15.4 59.72 0.391 7.75 5.12 9.2
9/29/2021 10:15:00 PM 15.37 59.666 0.391 7.75 4.57 9.2
9/29/2021 10:30:00 PM 15.33 59.594 0.391 7.74 5.04 9.2
9/29/2021 10:45:00 PM 15.3 59.54 0.391 7.74 5.05 9.2
9/29/2021 11:00:00 PM 15.27 59.486 0.391 7.74 4.99 9.2
9/29/2021 11:15:00 PM 15.24 59.432 0.391 7.74 5.05 9.2
9/29/2021 11:30:00 PM 15.21 59.378 0.391 7.74 5.12 9.2
9/29/2021 11:45:00 PM 15.19 59.342 0.391 7.74 5.5 9.2
9/30/2021 12:00:00 AM 15.18 59.324 0.391 7.74 4.76 9.2
9/30/2021 12:15:00 AM 15.16 59.288 0.392 7.74 4.98 9.2
9/30/2021 12:30:00 AM 15.15 59.27 0.392 7.74 4.9 9.2
9/30/2021 12:45:00 AM 15.13 59.234 0.392 7.74 5.36 9.2
9/30/2021 1:00:00 AM 15.12 59.216 0.392 7.74 4.86 9.2
9/30/2021 1:15:00 AM 15.1 59.18 0.392 7.74 5.03 9.2
9/30/2021 1:30:00 AM 15.08 59.144 0.392 7.74 5.18 9.2
9/30/2021 1:45:00 AM 15.05 59.09 0.392 7.74 5.17 9.21
9/30/2021 2:00:00 AM 15.02 59.036 0.392 7.74 5.06 9.21
9/30/2021 2:15:00 AM 15 59 0.392 7.73 5.19 9.21
9/30/2021 2:30:00 AM 14.97 58.946 0.392 7.73 4.98 9.21
9/30/2021 2:45:00 AM 14.94 58.892 0.392 7.73 5.08 9.22
9/30/2021 3:00:00 AM 14.92 58.856 0.392 7.73 4.93 9.22
9/30/2021 3:15:00 AM 14.89 58.802 0.393 7.73 5.13 9.22
9/30/2021 3:30:00 AM 14.86 58.748 0.392 7.73 5.05 9.23
9/30/2021 3:45:00 AM 14.83 58.694 0.393 7.73 5.3 9.23
9/30/2021 4:00:00 AM 14.79 58.622 0.393 7.73 4.99 9.24
9/30/2021 4:15:00 AM 14.75 58.55 0.393 7.73 5.08 9.24
9/30/2021 4:30:00 AM 14.71 58.478 0.393 7.73 5.38 9.25
9/30/2021 4:45:00 AM 14.67 58.406 0.393 7.73 5.73 9.26
9/30/2021 5:00:00 AM 14.63 58.334 0.393 7.73 5.5 9.27
9/30/2021 5:15:00 AM 14.59 58.262 0.393 7.73 5.09 9.27
9/30/2021 5:30:00 AM 14.55 58.19 0.393 7.73 5.12 9.28
9/30/2021 5:45:00 AM 14.51 58.118 0.393 7.73 5.42 9.29
9/30/2021 6:00:00 AM 14.47 58.046 0.393 7.73 5.4 9.3
9/30/2021 6:15:00 AM 14.43 57.974 0.393 7.73 5.32 9.31
9/30/2021 6:30:00 AM 14.39 57.902 0.393 7.73 5.15 9.32
9/30/2021 6:45:00 AM 14.35 57.83 0.394 7.73 5.47 9.32
9/30/2021 7:00:00 AM 14.31 57.758 0.394 7.73 5.8 9.33
9/30/2021 7:15:00 AM 14.28 57.704 0.394 7.73 5.01 9.34
9/30/2021 7:30:00 AM 14.24 57.632 0.394 7.73 5.07 9.35
9/30/2021 7:45:00 AM 14.22 57.596 0.393 7.73 4.97 9.36
9/30/2021 8:00:00 AM 14.19 57.542 0.394 7.73 4.85 9.38
9/30/2021 8:15:00 AM 14.17 57.506 0.394 7.73 5.01 9.4
9/30/2021 8:30:00 AM 14.16 57.488 0.394 7.73 4.97 9.42
9/30/2021 8:45:00 AM 14.15 57.47 0.393 7.74 4.78 9.44
9/30/2021 9:00:00 AM 14.15 57.47 0.394 7.74 4.75 9.46
9/30/2021 9:15:00 AM 14.16 57.488 0.394 7.74 4.71 9.49
9/30/2021 9:30:00 AM 14.17 57.506 0.394 7.74 4.68 9.51